Provisional Data: Hammer Creek near Route 322


Please select a monitoring station.
Please select start date.
Please select start date.

Toggle Unit: C/F Toggle Unit: C/F
Sample Time Temperature (C) Temperature (F) Specific Conductivity (mS/cm) pH   Turbidity (NTU+) DO (mg/L)
12/11/2021 12:00:00 AM 8.45 47.21 0.519 8.04 4.19 10.77
12/11/2021 12:15:00 AM 8.45 47.21 0.52 8.03 4.14 10.76
12/11/2021 12:30:00 AM 8.45 47.21 0.52 8.03 4.17 10.75
12/11/2021 12:45:00 AM 8.44 47.192 0.52 8.02 4.15 10.74
12/11/2021 1:00:00 AM 8.44 47.192 0.521 8.01 4.21 10.74
12/11/2021 1:15:00 AM 8.43 47.174 0.521 8.01 4.2 10.74
12/11/2021 1:30:00 AM 8.43 47.174 0.521 8.01 4.13 10.73
12/11/2021 1:45:00 AM 8.43 47.174 0.521 8.01 4.21 10.73
12/11/2021 2:00:00 AM 8.43 47.174 0.521 8.01 4.24 10.73
12/11/2021 2:15:00 AM 8.43 47.174 0.521 8 4.21 10.72
12/11/2021 2:30:00 AM 8.43 47.174 0.521 8 4.28 10.72
12/11/2021 2:45:00 AM 8.43 47.174 0.521 8 4.14 10.72
12/11/2021 3:00:00 AM 8.44 47.192 0.521 8 4.18 10.72
12/11/2021 3:15:00 AM 8.44 47.192 0.521 8 4.19 10.71
12/11/2021 3:30:00 AM 8.45 47.21 0.521 7.99 4.18 10.71
12/11/2021 3:45:00 AM 8.45 47.21 0.521 7.99 4.23 10.71
12/11/2021 4:00:00 AM 8.45 47.21 0.521 7.99 4.23 10.7
12/11/2021 4:15:00 AM 8.46 47.228 0.521 7.99 4.21 10.7
12/11/2021 4:30:00 AM 8.46 47.228 0.521 7.99 4.45 10.69
12/11/2021 4:45:00 AM 8.47 47.246 0.521 7.98 4.26 10.69
12/11/2021 5:00:00 AM 8.47 47.246 0.521 7.99 4.25 10.69
12/11/2021 5:15:00 AM 8.48 47.264 0.521 7.99 4.29 10.69
12/11/2021 5:30:00 AM 8.48 47.264 0.521 7.99 4.23 10.68
12/11/2021 5:45:00 AM 8.49 47.282 0.521 7.99 4.26 10.69
12/11/2021 6:00:00 AM 8.5 47.3 0.521 7.99 4.43 10.68
12/11/2021 6:15:00 AM 8.51 47.318 0.521 7.98 4.48 10.67
12/11/2021 6:30:00 AM 8.52 47.336 0.521 7.98 4.5 10.66
12/11/2021 6:45:00 AM 8.53 47.354 0.521 7.99 4.3 10.66
12/11/2021 7:00:00 AM 8.54 47.372 0.52 7.99 4.43 10.66
12/11/2021 7:15:00 AM 8.55 47.39 0.52 7.99 4.38 10.65
12/11/2021 7:30:00 AM 8.56 47.408 0.52 7.98 4.38 10.65
12/11/2021 7:45:00 AM 8.57 47.426 0.52 7.98 4.36 10.66
12/11/2021 8:00:00 AM 8.59 47.462 0.52 7.99 4.36 10.67
12/11/2021 8:15:00 AM 8.61 47.498 0.52 7.99 4.27 10.69
12/11/2021 8:30:00 AM 8.63 47.534 0.519 7.99 4.25 10.71
12/11/2021 8:45:00 AM 8.65 47.57 0.519 7.99 4.24 10.75
12/11/2021 9:00:00 AM 8.68 47.624 0.519 8 4.27 10.82
12/11/2021 9:15:00 AM 8.71 47.678 0.519 8.02 4.23 10.89
12/11/2021 9:30:00 AM 8.73 47.714 0.519 8.02 4.13 10.95
12/11/2021 9:45:00 AM 8.76 47.768 0.519 8.02 4.15 11.01
12/11/2021 10:00:00 AM 8.8 47.84 0.518 8.03 4.16 11.08
12/11/2021 10:15:00 AM 8.83 47.894 0.518 8.05 4.15 11.15
12/11/2021 10:30:00 AM 8.87 47.966 0.518 8.06 4.19 11.21
12/11/2021 10:45:00 AM 8.91 48.038 0.518 8.07 4.13 11.28
12/11/2021 11:00:00 AM 8.96 48.128 0.517 8.08 4.1 11.35
12/11/2021 11:15:00 AM 9.01 48.218 0.517 8.09 4.12 11.42
12/11/2021 11:30:00 AM 9.06 48.308 0.517 8.11 4.12 11.52
12/11/2021 11:45:00 AM 9.12 48.416 0.516 8.12 4.08 11.61
12/11/2021 12:00:00 PM 9.19 48.542 0.516 8.14 4.15 11.71
12/11/2021 12:15:00 PM 9.26 48.668 0.516 8.15 4.16 11.8
12/11/2021 12:30:00 PM 9.33 48.794 0.515 8.17 4.19 11.91
12/11/2021 12:45:00 PM 9.4 48.92 0.515 8.18 4.17 11.91
12/11/2021 1:00:00 PM 9.47 49.046 0.514 8.19 4.14 11.94
12/11/2021 1:15:00 PM 9.54 49.172 0.514 8.2 4.16 11.96
12/11/2021 1:30:00 PM 9.6 49.28 0.513 8.2 4.16 11.87
12/11/2021 1:45:00 PM 9.66 49.388 0.513 8.2 4.12 11.79
12/11/2021 2:00:00 PM 9.73 49.514 0.513 8.21 4.13 11.77
12/11/2021 2:15:00 PM 9.81 49.658 0.512 8.22 4.17 11.81
12/11/2021 2:30:00 PM 9.88 49.784 0.512 8.22 4.11 11.8
12/11/2021 2:45:00 PM 9.94 49.892 0.512 8.22 4.16 11.69
12/11/2021 3:00:00 PM 10 50 0.512 8.22 4.22 11.61
12/11/2021 3:15:00 PM 10.08 50.144 0.511 8.22 4.21 11.55
12/11/2021 3:30:00 PM 10.15 50.27 0.511 8.22 4.21 11.55
12/11/2021 3:45:00 PM 10.23 50.414 0.511 8.21 4.19 11.49
12/11/2021 4:00:00 PM 10.31 50.558 0.511 8.21 4.4 11.39
12/11/2021 4:15:00 PM 10.38 50.684 0.511 8.21 4.34 11.23
12/11/2021 4:30:00 PM 10.44 50.792 0.511 8.2 4.31 11.09
12/11/2021 4:45:00 PM 10.51 50.918 0.511 8.19 4.44 10.95
12/11/2021 5:00:00 PM 10.56 51.008 0.511 8.17 4.43 10.83
12/11/2021 5:15:00 PM 10.63 51.134 0.51 8.17 4.38 10.72
12/11/2021 5:30:00 PM 10.68 51.224 0.51 8.16 4.41 10.63
12/11/2021 5:45:00 PM 10.74 51.332 0.51 8.15 4.5 10.55
12/11/2021 6:00:00 PM 10.78 51.404 0.51 8.15 4.51 10.47
12/11/2021 6:15:00 PM 10.82 51.476 0.509 8.14 4.47 10.4
12/11/2021 6:30:00 PM 10.87 51.566 0.509 8.13 4.49 10.35
12/11/2021 6:45:00 PM 10.92 51.656 0.508 8.13 4.52 10.29
12/11/2021 7:00:00 PM 10.96 51.728 0.508 8.13 4.49 10.24
12/11/2021 7:15:00 PM 11 51.8 0.507 8.12 4.52 10.2
12/11/2021 7:30:00 PM 11.05 51.89 0.507 8.12 4.49 10.15
12/11/2021 7:45:00 PM 11.09 51.962 0.507 8.12 4.51 10.11
12/11/2021 8:00:00 PM 11.14 52.052 0.507 8.12 4.54 10.08
12/11/2021 8:15:00 PM 11.19 52.142 0.505 8.11 4.44 10.04
12/11/2021 8:30:00 PM 11.21 52.178 0.506 8.1 4.77 10
12/11/2021 8:45:00 PM 11.21 52.178 0.506 8.1 4.69 9.98
12/11/2021 9:00:00 PM 11.21 52.178 0.507 8.09 4.51 9.95
12/11/2021 9:15:00 PM 11.19 52.142 0.508 8.08 4.56 9.94
12/11/2021 9:30:00 PM 11.14 52.052 0.508 8.08 4.66 9.93
12/11/2021 9:45:00 PM 11.1 51.98 0.508 8.07 4.58 9.92
12/11/2021 10:00:00 PM 11.03 51.854 0.509 8.06 4.56 9.92
12/11/2021 10:15:00 PM 10.92 51.656 0.509 8.05 4.58 9.93
12/11/2021 10:30:00 PM 10.83 51.494 0.509 8.05 4.48 9.93
12/11/2021 10:45:00 PM 10.74 51.332 0.51 8.04 4.59 9.95
12/11/2021 11:00:00 PM 10.64 51.152 0.51 8.04 4.6 9.96
12/11/2021 11:15:00 PM 10.56 51.008 0.511 8.03 4.96 9.97
12/11/2021 11:30:00 PM 10.43 50.774 0.512 8.03 4.61 10
12/11/2021 11:45:00 PM 10.3 50.54 0.512 8.03 4.75 10.03
12/12/2021 12:00:00 AM 10.2 50.36 0.513 8.02 4.69 10.05
12/12/2021 12:15:00 AM 10.14 50.252 0.513 8.02 4.83 10.08
12/12/2021 12:30:00 AM 10.05 50.09 0.513 8.02 4.77 10.1
12/12/2021 12:45:00 AM 9.97 49.946 0.513 8.01 4.77 10.12
12/12/2021 1:00:00 AM 9.88 49.784 0.513 8 4.69 10.15
12/12/2021 1:15:00 AM 9.82 49.676 0.513 8 4.65 10.17
12/12/2021 1:30:00 AM 9.75 49.55 0.513 8.01 4.75 10.2
12/12/2021 1:45:00 AM 9.64 49.352 0.513 8 5.14 10.23
12/12/2021 2:00:00 AM 9.58 49.244 0.513 8.01 4.83 10.26
12/12/2021 2:15:00 AM 9.5 49.1 0.513 8.01 5.09 10.29
12/12/2021 2:30:00 AM 9.42 48.956 0.512 8 4.91 10.33
12/12/2021 2:45:00 AM 9.34 48.812 0.512 8.01 4.81 10.36
12/12/2021 3:00:00 AM 9.25 48.65 0.512 7.99 4.74 10.38
12/12/2021 3:15:00 AM 9.16 48.488 0.512 8 4.87 10.42
12/12/2021 3:30:00 AM 9.06 48.308 0.512 8 4.97 10.45
12/12/2021 3:45:00 AM 8.96 48.128 0.512 7.99 5.17 10.49
12/12/2021 4:00:00 AM 8.85 47.93 0.512 8 5.02 10.53
12/12/2021 4:15:00 AM 8.74 47.732 0.513 8 4.93 10.57
12/12/2021 4:30:00 AM 8.65 47.57 0.513 8 5 10.6
12/12/2021 4:45:00 AM 8.55 47.39 0.513 8 5.02 10.64
12/12/2021 5:00:00 AM 8.45 47.21 0.513 7.99 5.12 10.68
12/12/2021 5:15:00 AM 8.33 46.994 0.513 7.99 5.38 10.72
12/12/2021 5:30:00 AM 8.23 46.814 0.514 7.99 5.36 10.76
12/12/2021 5:45:00 AM 8.14 46.652 0.514 8 5.33 10.79
12/12/2021 6:00:00 AM 8.07 46.526 0.515 7.99 5.36 10.83
12/12/2021 6:15:00 AM 8 46.4 0.515 7.99 5.35 10.87
12/12/2021 6:30:00 AM 7.92 46.256 0.515 7.99 5.29 10.9
12/12/2021 6:45:00 AM 7.82 46.076 0.516 7.99 5.31 10.95
12/12/2021 7:00:00 AM 7.73 45.914 0.516 8 5.29 10.99
12/12/2021 7:15:00 AM 7.66 45.788 0.517 7.98 5.23 11.02
12/12/2021 7:30:00 AM 7.58 45.644 0.517 7.99 5.14 11.07
12/12/2021 7:45:00 AM 7.49 45.482 0.517 8 5.18 11.15
12/12/2021 8:00:00 AM 7.4 45.32 0.517 8 5.06 11.25
12/12/2021 8:15:00 AM 7.33 45.194 0.517 8.02 5.05 11.36
12/12/2021 8:30:00 AM 7.26 45.068 0.517 8.02 5.06 11.49
12/12/2021 8:45:00 AM 7.2 44.96 0.517 8.04 4.96 11.61
12/12/2021 9:00:00 AM 7.14 44.852 0.517 8.05 4.94 11.74
12/12/2021 9:15:00 AM 7.07 44.726 0.517 8.05 4.99 11.87
12/12/2021 9:30:00 AM 7.02 44.636 0.517 8.07 4.87 12
12/12/2021 9:45:00 AM 6.97 44.546 0.517 8.09 4.86 12.13
12/12/2021 10:00:00 AM 6.94 44.492 0.517 8.1 5.01 12.28
12/12/2021 10:15:00 AM 6.95 44.51 0.517 8.12 4.93 12.43
12/12/2021 10:30:00 AM 6.96 44.528 0.516 8.14 4.83 12.62
12/12/2021 10:45:00 AM 6.98 44.564 0.516 8.16 4.82 12.8
12/12/2021 11:00:00 AM 7.01 44.618 0.516 8.19 4.87 12.96
12/12/2021 11:15:00 AM 7.06 44.708 0.515 8.21 4.84 13.1
12/12/2021 11:30:00 AM 7.08 44.744 0.515 8.23 4.85 13.24
12/12/2021 11:45:00 AM 7.1 44.78 0.514 8.25 4.89 13.37
12/12/2021 12:00:00 PM 7.16 44.888 0.514 8.27 4.86 13.49
12/12/2021 12:15:00 PM 7.22 44.996 0.513 8.29 4.9 13.59
12/12/2021 12:30:00 PM 7.28 45.104 0.513 8.32 4.83 13.68
12/12/2021 12:45:00 PM 7.34 45.212 0.512 8.32 4.85 13.76
12/12/2021 1:00:00 PM 7.4 45.32 0.511 8.35 4.89 13.81
12/12/2021 1:15:00 PM 7.47 45.446 0.511 8.37 4.8 13.85
12/12/2021 1:30:00 PM 7.54 45.572 0.51 8.38 4.88 13.87
12/12/2021 1:45:00 PM 7.57 45.626 0.51 8.39 4.89 13.88
12/12/2021 2:00:00 PM 7.62 45.716 0.509 8.4 4.83 13.85
12/12/2021 2:15:00 PM 7.67 45.806 0.508 8.41 4.92 13.8
12/12/2021 2:30:00 PM 7.71 45.878 0.508 8.42 4.82 13.74
12/12/2021 2:45:00 PM 7.74 45.932 0.507 8.44 4.84 13.7
12/12/2021 3:00:00 PM 7.77 45.986 0.507 8.44 4.8 13.62
12/12/2021 3:15:00 PM 7.77 45.986 0.506 8.44 4.82 13.52
12/12/2021 3:30:00 PM 7.78 46.004 0.506 8.44 5.01 13.4
12/12/2021 3:45:00 PM 7.77 45.986 0.506 8.44 4.98 13.27
12/12/2021 4:00:00 PM 7.76 45.968 0.505 8.44 4.79 13.13
12/12/2021 4:15:00 PM 7.73 45.914 0.505 8.44 4.84 12.97
12/12/2021 4:30:00 PM 7.69 45.842 0.505 8.42 4.78 12.8
12/12/2021 4:45:00 PM 7.64 45.752 0.505 8.41 4.81 12.62
12/12/2021 5:00:00 PM 7.58 45.644 0.506 8.39 5.21 12.43
12/12/2021 5:15:00 PM 7.52 45.536 0.506 8.38 4.91 12.25
12/12/2021 5:30:00 PM 7.47 45.446 0.506 8.35 4.87 12.11
12/12/2021 5:45:00 PM 7.42 45.356 0.507 8.34 5.01 11.99
12/12/2021 6:00:00 PM 7.37 45.266 0.507 8.32 5 11.89
12/12/2021 6:15:00 PM 7.32 45.176 0.507 8.31 4.89 11.81
12/12/2021 6:30:00 PM 7.29 45.122 0.507 8.3 4.92 11.74
12/12/2021 6:45:00 PM 7.26 45.068 0.508 8.28 4.98 11.68
12/12/2021 7:00:00 PM 7.22 44.996 0.508 8.28 4.9 11.64
12/12/2021 7:15:00 PM 7.18 44.924 0.508 8.26 4.96 11.6
12/12/2021 7:30:00 PM 7.14 44.852 0.508 8.25 4.96 11.57
12/12/2021 7:45:00 PM 7.09 44.762 0.509 8.24 4.96 11.55
12/12/2021 8:00:00 PM 7.06 44.708 0.509 8.23 4.92 11.53
12/12/2021 8:15:00 PM 7.01 44.618 0.51 8.22 5.05 11.52
12/12/2021 8:30:00 PM 6.97 44.546 0.511 8.21 4.98 11.51
12/12/2021 8:45:00 PM 6.91 44.438 0.511 8.2 5.03 11.5
12/12/2021 9:00:00 PM 6.85 44.33 0.512 8.19 5.13 11.5
12/12/2021 9:15:00 PM 6.8 44.24 0.513 8.18 4.99 11.5
12/12/2021 9:30:00 PM 6.74 44.132 0.513 8.17 5.06 11.51
12/12/2021 9:45:00 PM 6.68 44.024 0.514 8.16 5.02 11.52
12/12/2021 10:00:00 PM 6.61 43.898 0.515 8.15 5.07 11.52
12/12/2021 10:15:00 PM 6.55 43.79 0.516 8.13 5.15 11.53
12/12/2021 10:30:00 PM 6.48 43.664 0.517 8.11 5.19 11.54
12/12/2021 10:45:00 PM 6.41 43.538 0.517 8.11 5.32 11.55
12/12/2021 11:00:00 PM 6.33 43.394 0.518 8.09 5.39 11.57
12/12/2021 11:15:00 PM 6.26 43.268 0.519 8.07 5.33 11.58
12/12/2021 11:30:00 PM 6.18 43.124 0.52 8.06 5.35 11.6
12/12/2021 11:45:00 PM 6.11 42.998 0.521 8.06 5.29 11.61
12/13/2021 12:00:00 AM 6.03 42.854 0.522 8.05 5.29 11.63
12/13/2021 12:15:00 AM 5.95 42.71 0.522 8.04 5.21 11.65
12/13/2021 12:30:00 AM 5.88 42.584 0.523 8.02 5.14 11.66
12/13/2021 12:45:00 AM 5.81 42.458 0.523 8.02 5.24 11.69
12/13/2021 1:00:00 AM 5.74 42.332 0.524 8.01 5.19 11.71
12/13/2021 1:15:00 AM 5.68 42.224 0.524 8.01 5.04 11.73
12/13/2021 1:30:00 AM 5.61 42.098 0.524 7.99 5.21 11.76
12/13/2021 1:45:00 AM 5.55 41.99 0.525 8 5.22 11.78
12/13/2021 2:00:00 AM 5.49 41.882 0.525 8 5.14 11.8
12/13/2021 2:15:00 AM 5.43 41.774 0.525 7.99 5.05 11.82
12/13/2021 2:30:00 AM 5.38 41.684 0.525 7.99 5.18 11.84
12/13/2021 2:45:00 AM 5.32 41.576 0.526 7.98 5.01 11.86
12/13/2021 3:00:00 AM 5.27 41.486 0.526 7.99 5.06 11.88
12/13/2021 3:15:00 AM 5.22 41.396 0.526 7.99 4.94 11.9
12/13/2021 3:30:00 AM 5.17 41.306 0.526 7.99 4.99 11.92
12/13/2021 3:45:00 AM 5.13 41.234 0.526 7.99 5.13 11.94
12/13/2021 4:00:00 AM 5.09 41.162 0.526 7.99 5.04 11.96
12/13/2021 4:15:00 AM 5.06 41.108 0.526 7.99 5.03 11.97
12/13/2021 4:30:00 AM 5.03 41.054 0.526 7.98 4.98 11.99
12/13/2021 4:45:00 AM 5.01 41.018 0.527 7.99 5.1 12.01
12/13/2021 5:00:00 AM 4.98 40.964 0.527 7.98 5.07 12.02
12/13/2021 5:15:00 AM 4.95 40.91 0.527 7.98 5.01 12.03
12/13/2021 5:30:00 AM 4.92 40.856 0.527 7.99 5.18 12.04
12/13/2021 5:45:00 AM 4.89 40.802 0.527 7.99 4.99 12.06
12/13/2021 6:00:00 AM 4.86 40.748 0.527 7.99 5.09 12.06
12/13/2021 6:15:00 AM 4.83 40.694 0.527 7.99 5.08 12.08
12/13/2021 6:30:00 AM 4.8 40.64 0.527 7.99 5.06 12.08
12/13/2021 6:45:00 AM 4.78 40.604 0.527 7.99 5.04 12.09
12/13/2021 7:00:00 AM 4.76 40.568 0.527 7.99 5.05 12.1
12/13/2021 7:15:00 AM 4.74 40.532 0.527 7.97 5.08 12.11
12/13/2021 7:30:00 AM 4.7 40.46 0.527 7.99 4.98 12.14
12/13/2021 7:45:00 AM 4.68 40.424 0.527 7.99 5.04 12.19
12/13/2021 8:00:00 AM 4.66 40.388 0.527 8 5.02 12.26
12/13/2021 8:15:00 AM 4.64 40.352 0.527 8.01 4.98 12.35
12/13/2021 8:30:00 AM 4.62 40.316 0.527 8.02 4.96 12.45
12/13/2021 8:45:00 AM 4.62 40.316 0.527 8.03 4.9 12.55
12/13/2021 9:00:00 AM 4.6 40.28 0.527 8.04 5.03 12.66
12/13/2021 9:15:00 AM 4.62 40.316 0.527 8.06 5.09 12.76
12/13/2021 9:30:00 AM 4.63 40.334 0.527 8.07 5.1 12.85
12/13/2021 9:45:00 AM 4.67 40.406 0.526 8.09 7.55 12.96
12/13/2021 10:00:00 AM 4.72 40.496 0.526 8.1 4.66 13.06
12/13/2021 10:15:00 AM 4.79 40.622 0.526 8.11 4.72 13.18
12/13/2021 10:30:00 AM 4.89 40.802 0.525 8.14 4.64 13.32
12/13/2021 10:45:00 AM 5.01 41.018 0.525 8.17 4.65 13.45
12/13/2021 11:00:00 AM 5.14 41.252 0.524 8.18 4.63 13.57
12/13/2021 11:15:00 AM 5.26 41.468 0.524 8.21 4.62 13.68
12/13/2021 11:30:00 AM 5.4 41.72 0.523 8.22 5.35 13.77
12/13/2021 11:45:00 AM 5.53 41.954 0.522 8.24 4.74 13.83
12/13/2021 12:00:00 PM 5.68 42.224 0.521 8.27 4.69 13.92
12/13/2021 12:15:00 PM 5.83 42.494 0.521 8.29 4.69 13.99
12/13/2021 12:30:00 PM 5.97 42.746 0.52 8.31 4.6 14.05
12/13/2021 12:45:00 PM 6.12 43.016 0.519 8.33 4.66 14.09
12/13/2021 1:00:00 PM 6.26 43.268 0.518 8.35 4.63 14.11
12/13/2021 1:15:00 PM 6.39 43.502 0.518 8.36 4.73 14.14
12/13/2021 1:30:00 PM 6.51 43.718 0.517 8.38 4.59 14.14
12/13/2021 1:45:00 PM 6.62 43.916 0.516 8.39 4.57 14.12
12/13/2021 2:00:00 PM 6.72 44.096 0.516 8.4 4.63 14.09
12/13/2021 2:15:00 PM 6.81 44.258 0.515 8.41 4.58 14.03
12/13/2021 2:30:00 PM 6.91 44.438 0.514 8.42 4.62 13.96
12/13/2021 2:45:00 PM 7 44.6 0.513 8.43 4.74 13.9
12/13/2021 3:00:00 PM 7.07 44.726 0.513 8.44 4.69 13.8
12/13/2021 3:15:00 PM 7.13 44.834 0.512 8.45 4.63 13.7
12/13/2021 3:30:00 PM 7.19 44.942 0.512 8.45 4.65 13.57
12/13/2021 3:45:00 PM 7.23 45.014 0.511 8.45 4.67 13.43
12/13/2021 4:00:00 PM 7.25 45.05 0.511 8.44 4.75 13.28
12/13/2021 4:15:00 PM 7.25 45.05 0.51 8.44 4.77 13.11
12/13/2021 4:30:00 PM 7.25 45.05 0.51 8.43 4.62 12.94
12/13/2021 4:45:00 PM 7.23 45.014 0.51 8.41 4.76 12.74
12/13/2021 5:00:00 PM 7.21 44.978 0.51 8.4 4.79 12.55
12/13/2021 5:15:00 PM 7.18 44.924 0.51 8.38 4.76 12.37
12/13/2021 5:30:00 PM 7.16 44.888 0.51 8.36 4.74 12.21
12/13/2021 5:45:00 PM 7.14 44.852 0.51 8.35 4.46 12.08
12/13/2021 6:00:00 PM 7.12 44.816 0.51 8.33 4.72 11.97
12/13/2021 6:15:00 PM 7.11 44.798 0.51 8.32 4.73 11.87
12/13/2021 6:30:00 PM 7.09 44.762 0.51 8.31 4.76 11.79
12/13/2021 6:45:00 PM 7.09 44.762 0.51 8.29 4.69 11.73
12/13/2021 7:00:00 PM 7.07 44.726 0.51 8.28 4.79 11.68
12/13/2021 7:15:00 PM 7.06 44.708 0.51 8.28 4.76 11.63
12/13/2021 7:30:00 PM 7.05 44.69 0.51 8.27 4.88 11.59
12/13/2021 7:45:00 PM 7.03 44.654 0.51 8.25 4.83 11.56
12/13/2021 8:00:00 PM 7.01 44.618 0.511 8.24 6.84 11.53
12/13/2021 8:15:00 PM 6.98 44.564 0.511 8.24 6.58 11.51
12/13/2021 8:30:00 PM 6.95 44.51 0.512 8.22 6.41 11.5
12/13/2021 8:45:00 PM 6.91 44.438 0.512 8.21 6.39 11.48
12/13/2021 9:00:00 PM 6.88 44.384 0.513 8.2 6.5 11.47
12/13/2021 9:15:00 PM 6.84 44.312 0.514 8.19 6.67 11.47
12/13/2021 9:30:00 PM 6.8 44.24 0.514 8.18 6.23 11.47
12/13/2021 9:45:00 PM 6.75 44.15 0.515 8.17 6.13 11.47
12/13/2021 10:00:00 PM 6.71 44.078 0.516 8.16 6.19 11.47
12/13/2021 10:15:00 PM 6.65 43.97 0.517 8.14 6.13 11.48
12/13/2021 10:30:00 PM 6.6 43.88 0.517 8.14 6.23 11.48
12/13/2021 10:45:00 PM 6.55 43.79 0.518 8.13 6.19 11.49
12/13/2021 11:00:00 PM 6.49 43.682 0.519 8.12 6.01 11.49
12/13/2021 11:15:00 PM 6.42 43.556 0.52 8.1 6.19 11.5
12/13/2021 11:30:00 PM 6.36 43.448 0.521 8.09 6.17 11.52
12/13/2021 11:45:00 PM 6.29 43.322 0.522 8.08 6.23 11.53
12/14/2021 12:00:00 AM 6.23 43.214 0.523 8.07 5.97 11.55
12/14/2021 12:15:00 AM 6.17 43.106 0.524 8.06 5.96 11.56
12/14/2021 12:30:00 AM 6.1 42.98 0.524 8.05 6.08 11.58
12/14/2021 12:45:00 AM 6.04 42.872 0.525 8.05 6.02 11.6
12/14/2021 1:00:00 AM 5.98 42.764 0.525 8.04 6.12 11.62
12/14/2021 1:15:00 AM 5.92 42.656 0.526 8.04 6.1 11.64
12/14/2021 1:30:00 AM 5.86 42.548 0.526 8.03 5.98 11.66
12/14/2021 1:45:00 AM 5.81 42.458 0.526 8.03 5.86 11.67
12/14/2021 2:00:00 AM 5.76 42.368 0.526 8.03 6.11 11.7
12/14/2021 2:15:00 AM 5.71 42.278 0.526 8.03 6.05 11.72
12/14/2021 2:30:00 AM 5.66 42.188 0.527 8.02 6.24 11.74
12/14/2021 2:45:00 AM 5.62 42.116 0.527 8.02 6.16 11.75
12/14/2021 3:00:00 AM 5.58 42.044 0.527 8.02 6.02 11.78
12/14/2021 3:15:00 AM 5.54 41.972 0.527 8.02 6.51 11.78
12/14/2021 3:30:00 AM 5.51 41.918 0.527 8.01 6.61 11.81
12/14/2021 3:45:00 AM 5.47 41.846 0.527 8.01 6.22 11.82
12/14/2021 4:00:00 AM 5.44 41.792 0.527 8.01 6.08 11.84
12/14/2021 4:15:00 AM 5.42 41.756 0.527 8.01 6.07 11.85
12/14/2021 4:30:00 AM 5.39 41.702 0.527 8.01 6.29 11.86
12/14/2021 4:45:00 AM 5.36 41.648 0.527 8.01 6.15 11.87
12/14/2021 5:00:00 AM 5.33 41.594 0.527 8.01 6.27 11.88
12/14/2021 5:15:00 AM 5.31 41.558 0.527 8 6.08 11.89
12/14/2021 5:30:00 AM 5.28 41.504 0.527 8.01 6.06 11.9
12/14/2021 5:45:00 AM 5.25 41.45 0.527 8.01 6.26 11.92
12/14/2021 6:00:00 AM 5.23 41.414 0.527 8 6.15 11.93
12/14/2021 6:15:00 AM 5.2 41.36 0.527 7.99 6.13 11.94
12/14/2021 6:30:00 AM 5.17 41.306 0.527 8 6.26 11.95
12/14/2021 6:45:00 AM 5.12 41.216 0.527 8 6.2 11.97
12/14/2021 7:00:00 AM 5.09 41.162 0.527 8.01 6.26 11.99
12/14/2021 7:15:00 AM 5.06 41.108 0.527 8 6.26 12.01
12/14/2021 7:30:00 AM 5.02 41.036 0.527 8.01 6.11 12.04
12/14/2021 7:45:00 AM 4.99 40.982 0.527 8.01 6.22 12.1
12/14/2021 8:00:00 AM 4.95 40.91 0.527 8.02 6.18 12.18
12/14/2021 8:15:00 AM 4.93 40.874 0.527 8.03 6.2 12.28
12/14/2021 8:30:00 AM 4.91 40.838 0.527 8.03 6.15 12.38
12/14/2021 8:45:00 AM 4.9 40.82 0.527 8.05 6.24 12.48
12/14/2021 9:00:00 AM 4.89 40.802 0.527 8.06 5.97 12.59
12/14/2021 9:15:00 AM 4.89 40.802 0.527 8.07 6.08 12.7
12/14/2021 9:30:00 AM 4.9 40.82 0.527 8.08 6.02 12.81
12/14/2021 9:45:00 AM 4.94 40.892 0.527 8.1 5.93 12.91
12/14/2021 10:00:00 AM 5.01 41.018 0.526 8.11 6.21 13.03
12/14/2021 10:15:00 AM 5.11 41.198 0.526 8.13 6.19 13.16
12/14/2021 10:30:00 AM 5.23 41.414 0.525 8.15 6.12 13.3
12/14/2021 10:45:00 AM 5.36 41.648 0.525 8.17 5.95 13.44
12/14/2021 11:00:00 AM 5.48 41.864 0.524 8.2 6.05 13.57
12/14/2021 11:15:00 AM 5.6 42.08 0.524 8.21 5.99 13.68
12/14/2021 11:30:00 AM 5.73 42.314 0.523 8.24 6.2 13.78
12/14/2021 11:45:00 AM 5.85 42.53 0.522 8.26 6.18 13.86
12/14/2021 12:00:00 PM 6 42.8 0.521 8.28 6.13 13.95
12/14/2021 12:15:00 PM 6.13 43.034 0.521 8.3 6.2 14.03
12/14/2021 12:30:00 PM 6.27 43.286 0.52 8.32 6.12 14.09
12/14/2021 12:45:00 PM 6.4 43.52 0.519 8.33 6.07 14.15
12/14/2021 1:00:00 PM 6.53 43.754 0.519 8.35 6.14 14.18
12/14/2021 1:15:00 PM 6.65 43.97 0.518 8.37 6.17 14.2
12/14/2021 1:30:00 PM 6.77 44.186 0.517 8.38 6.1 14.21
12/14/2021 1:45:00 PM 6.87 44.366 0.517 8.39 6.07 14.19
12/14/2021 2:00:00 PM 6.96 44.528 0.516 8.41 6.12 14.18
12/14/2021 2:15:00 PM 7.05 44.69 0.515 8.42 6.09 14.12
12/14/2021 2:30:00 PM 7.15 44.87 0.515 8.43 6.16 14.06
12/14/2021 2:45:00 PM 7.24 45.032 0.514 8.44 6.17 14
12/14/2021 3:00:00 PM 7.3 45.14 0.513 8.45 6.11 13.91
12/14/2021 3:15:00 PM 7.36 45.248 0.513 8.45 6.1 13.8
12/14/2021 3:30:00 PM 7.41 45.338 0.512 8.45 6.06 13.67
12/14/2021 3:45:00 PM 7.44 45.392 0.511 8.45 6.12 13.52
12/14/2021 4:00:00 PM 7.45 45.41 0.511 8.45 6.05 13.37
12/14/2021 4:15:00 PM 7.45 45.41 0.511 8.44 6.18 13.21
12/14/2021 4:30:00 PM 7.44 45.392 0.511 8.43 6.24 13.02
12/14/2021 4:45:00 PM 7.42 45.356 0.51 8.42 6.15 12.83
12/14/2021 5:00:00 PM 7.39 45.302 0.51 8.4 6.19 12.63
12/14/2021 5:15:00 PM -99999.99 -179968 -99999.99 -99999.99 -99999.99 -99999.99
12/14/2021 5:30:00 PM 7.34 45.212 0.51 8.36 6.25 12.28
12/14/2021 5:45:00 PM 7.31 45.158 0.51 8.35 6.21 12.15
12/14/2021 6:00:00 PM 7.29 45.122 0.51 8.34 6.24 12.03
12/14/2021 6:15:00 PM 7.27 45.086 0.51 8.32 6.17 11.93
12/14/2021 6:30:00 PM 7.26 45.068 0.51 8.31 6.06 11.85
12/14/2021 6:45:00 PM 7.25 45.05 0.51 8.3 6.29 11.78
12/14/2021 7:00:00 PM 7.24 45.032 0.51 8.28 6.43 11.73
12/14/2021 7:15:00 PM 7.22 44.996 0.51 8.28 6.2 11.68
12/14/2021 7:30:00 PM 7.2 44.96 0.51 8.27 6.41 11.64
12/14/2021 7:45:00 PM 7.18 44.924 0.51 8.26 6.64 11.61
12/14/2021 8:00:00 PM 7.16 44.888 0.511 8.25 6.44 11.58
12/14/2021 8:15:00 PM 7.13 44.834 0.511 8.24 6.55 11.56
12/14/2021 8:30:00 PM 7.1 44.78 0.512 8.23 6.27 11.55
12/14/2021 8:45:00 PM 7.06 44.708 0.512 8.22 6.43 11.53
12/14/2021 9:00:00 PM 7.03 44.654 0.513 8.2 6.28 11.52
12/14/2021 9:15:00 PM 6.98 44.564 0.513 8.2 6.27 11.52
12/14/2021 9:30:00 PM 6.95 44.51 0.514 8.19 6.3 11.52
12/14/2021 9:45:00 PM 6.9 44.42 0.515 8.16 6.26 11.52
12/14/2021 10:00:00 PM 6.86 44.348 0.516 8.16 6.25 11.52
12/14/2021 10:15:00 PM 6.8 44.24 0.517 8.15 6.32 11.52
12/14/2021 10:30:00 PM 6.75 44.15 0.518 8.14 6.23 11.53
12/14/2021 10:45:00 PM 6.69 44.042 0.519 8.13 6.26 11.53
12/14/2021 11:00:00 PM 6.63 43.934 0.52 8.12 6.2 11.54
12/14/2021 11:15:00 PM 6.56 43.808 0.521 8.1 6.08 11.56
12/14/2021 11:30:00 PM 6.49 43.682 0.522 8.09 6.24 11.57
12/14/2021 11:45:00 PM 6.41 43.538 0.523 8.08 6.21 11.58
12/15/2021 12:00:00 AM 6.34 43.412 0.524 8.08 6.38 11.6
12/15/2021 12:15:00 AM 6.26 43.268 0.524 8.06 6.42 11.61
12/15/2021 12:30:00 AM 6.19 43.142 0.525 8.06 6.29 11.63
12/15/2021 12:45:00 AM 6.11 42.998 0.526 8.05 6.6 11.66
12/15/2021 1:00:00 AM 6.04 42.872 0.526 8.05 6.3 11.67
12/15/2021 1:15:00 AM 5.97 42.746 0.526 8.04 6.34 11.7
12/15/2021 1:30:00 AM 5.9 42.62 0.527 8.03 6.21 11.72
12/15/2021 1:45:00 AM 5.83 42.494 0.527 8.03 6.41 11.74
12/15/2021 2:00:00 AM 5.76 42.368 0.527 8.03 6.34 11.77
12/15/2021 2:15:00 AM 5.69 42.242 0.527 8.03 6.38 11.8
12/15/2021 2:30:00 AM 5.62 42.116 0.527 8.02 6.19 11.82
12/15/2021 2:45:00 AM 5.56 42.008 0.528 8.02 6.13 11.85
12/15/2021 3:00:00 AM 5.5 41.9 0.528 8.02 6.32 11.88
12/15/2021 3:15:00 AM 5.43 41.774 0.528 8.02 6.18 11.9
12/15/2021 3:30:00 AM 5.37 41.666 0.528 8 6.1 11.93
12/15/2021 3:45:00 AM 5.31 41.558 0.528 8.02 6.28 11.95
12/15/2021 4:00:00 AM 5.24 41.432 0.528 8.02 6.38 11.98
12/15/2021 4:15:00 AM 5.19 41.342 0.528 8.01 6.23 12
12/15/2021 4:30:00 AM 5.13 41.234 0.528 8.01 6.69 12.03
12/15/2021 4:45:00 AM 5.07 41.126 0.528 8.01 6.62 12.04
12/15/2021 5:00:00 AM 5.02 41.036 0.528 8 6.41 12.07
12/15/2021 5:15:00 AM 4.96 40.928 0.528 8.01 6.36 12.09
12/15/2021 5:30:00 AM 4.91 40.838 0.528 8.01 6.4 12.11
12/15/2021 5:45:00 AM 4.86 40.748 0.528 8 6.69 12.13
12/15/2021 6:00:00 AM 4.82 40.676 0.528 8 6.5 12.15
12/15/2021 6:15:00 AM 4.79 40.622 0.528 8 6.37 12.17
12/15/2021 6:30:00 AM 4.79 40.622 0.528 8.01 6.82 12.18
12/15/2021 6:45:00 AM 4.79 40.622 0.528 8 6.55 12.19
12/15/2021 7:00:00 AM 4.79 40.622 0.528 7.99 6.4 12.2
12/15/2021 7:15:00 AM 4.8 40.64 0.529 8 6.42 12.21
12/15/2021 7:30:00 AM 4.81 40.658 0.529 8 6.44 12.23
12/15/2021 7:45:00 AM 4.82 40.676 0.529 8 6.36 12.26
12/15/2021 8:00:00 AM 4.84 40.712 0.529 8.01 6.3 12.33
12/15/2021 8:15:00 AM 4.88 40.784 0.529 8.01 6.16 12.46
12/15/2021 8:30:00 AM 4.93 40.874 0.529 8.03 6.17 12.64
12/15/2021 8:45:00 AM 4.98 40.964 0.528 8.05 6.29 12.81
12/15/2021 9:00:00 AM 5.03 41.054 0.528 8.08 6.27 12.99
12/15/2021 9:15:00 AM 5.09 41.162 0.527 8.1 6.24 13.18
12/15/2021 9:30:00 AM 5.18 41.324 0.527 8.12 6.4 13.35
12/15/2021 9:45:00 AM 5.27 41.486 0.526 8.15 6.24 13.5
12/15/2021 10:00:00 AM 5.38 41.684 0.526 8.17 6.29 13.67
12/15/2021 10:15:00 AM 5.52 41.936 0.525 8.19 6.34 13.87
12/15/2021 10:30:00 AM 5.66 42.188 0.524 8.23 6.14 14.05
12/15/2021 10:45:00 AM 5.79 42.422 0.523 8.26 6.13 14.19
12/15/2021 11:00:00 AM 5.92 42.656 0.522 8.27 6.33 14.31
12/15/2021 11:15:00 AM 6.04 42.872 0.521 8.31 6.15 14.4
12/15/2021 11:30:00 AM 6.16 43.088 0.521 8.32 6.2 14.5
12/15/2021 11:45:00 AM 6.31 43.358 0.52 8.35 6.39 14.59
12/15/2021 12:00:00 PM 6.46 43.628 0.519 8.38 6.26 14.71
12/15/2021 12:15:00 PM 6.61 43.898 0.518 8.4 6.26 14.78
12/15/2021 12:30:00 PM 6.75 44.15 0.517 8.42 6.21 14.83
12/15/2021 12:45:00 PM 6.89 44.402 0.516 8.44 6.25 14.86
12/15/2021 1:00:00 PM 7 44.6 0.515 8.45 6.24 14.87
12/15/2021 1:15:00 PM 7.13 44.834 0.515 8.47 6.37 14.88
12/15/2021 1:30:00 PM 7.27 45.086 0.514 8.48 6.47 14.91
12/15/2021 1:45:00 PM 7.39 45.302 0.513 8.5 6.34 14.88
12/15/2021 2:00:00 PM 7.5 45.5 0.512 8.51 6.32 14.87
12/15/2021 2:15:00 PM 7.59 45.662 0.511 8.52 6.35 14.75
12/15/2021 2:30:00 PM 7.67 45.806 0.511 8.53 6.22 14.65
12/15/2021 2:45:00 PM 7.76 45.968 0.51 8.53 6.27 14.56
12/15/2021 3:00:00 PM 7.85 46.13 0.509 8.53 6.32 14.47
12/15/2021 3:15:00 PM 7.93 46.274 0.509 8.54 6.33 14.36
12/15/2021 3:30:00 PM 8 46.4 0.508 8.54 6.39 14.19
12/15/2021 3:45:00 PM 8.06 46.508 0.508 8.54 6.39 13.97
12/15/2021 4:00:00 PM 8.11 46.598 0.508 8.53 6.35 13.74
12/15/2021 4:15:00 PM 8.15 46.67 0.507 8.52 6.61 13.45
12/15/2021 4:30:00 PM 8.19 46.742 0.507 8.5 6.49 13.15
12/15/2021 4:45:00 PM 8.22 46.796 0.508 8.48 6.15 12.87
12/15/2021 5:00:00 PM 8.26 46.868 0.507 8.46 6.43 12.62
12/15/2021 5:15:00 PM 8.31 46.958 0.507 8.45 6.56 12.4
12/15/2021 5:30:00 PM 8.35 47.03 0.507 8.43 6.49 12.22
12/15/2021 5:45:00 PM 8.41 47.138 0.507 8.41 6.29 12.04
12/15/2021 6:00:00 PM 8.46 47.228 0.507 8.39 6.37 11.88
12/15/2021 6:15:00 PM 8.52 47.336 0.507 8.38 6.47 11.74
12/15/2021 6:30:00 PM 8.57 47.426 0.507 8.36 6.29 11.62
12/15/2021 6:45:00 PM 8.63 47.534 0.507 8.35 6.38 11.51
12/15/2021 7:00:00 PM 8.69 47.642 0.507 8.34 6.38 11.41
12/15/2021 7:15:00 PM 8.75 47.75 0.507 8.32 6.46 11.32
12/15/2021 7:30:00 PM 8.81 47.858 0.507 8.31 6.53 11.24
12/15/2021 7:45:00 PM 8.87 47.966 0.507 8.29 6.42 11.17
12/15/2021 8:00:00 PM 8.93 48.074 0.507 8.28 6.48 11.1
12/15/2021 8:15:00 PM 8.98 48.164 0.508 8.27 6.51 11.04
12/15/2021 8:30:00 PM 9.03 48.254 0.508 8.26 6.43 10.99
12/15/2021 8:45:00 PM 9.08 48.344 0.508 8.24 6.41 10.94
12/15/2021 9:00:00 PM 9.12 48.416 0.509 8.23 6.51 10.9
12/15/2021 9:15:00 PM 9.15 48.47 0.51 8.21 6.54 10.86
12/15/2021 9:30:00 PM 9.18 48.524 0.511 8.21 6.4 10.82
12/15/2021 9:45:00 PM 9.21 48.578 0.512 8.19 6.49 10.79
12/15/2021 10:00:00 PM 9.23 48.614 0.513 8.17 6.5 10.76
12/15/2021 10:15:00 PM 9.25 48.65 0.514 8.16 6.5 10.73
12/15/2021 10:30:00 PM 9.26 48.668 0.515 8.14 6.69 10.7
12/15/2021 10:45:00 PM 9.25 48.65 0.516 8.13 6.55 10.67
12/15/2021 11:00:00 PM 9.24 48.632 0.518 8.11 6.61 10.66
12/15/2021 11:15:00 PM 9.23 48.614 0.519 8.1 6.44 10.63
12/15/2021 11:30:00 PM 9.23 48.614 0.52 8.09 6.46 10.62
12/15/2021 11:45:00 PM 9.23 48.614 0.521 8.07 6.94 10.6
12/16/2021 12:00:00 AM 9.23 48.614 0.522 8.07 6.54 10.59
12/16/2021 12:15:00 AM 9.23 48.614 0.522 8.05 6.61 10.58
12/16/2021 12:30:00 AM 9.21 48.578 0.522 8.05 6.51 10.57
12/16/2021 12:45:00 AM 9.2 48.56 0.523 8.04 6.49 10.57
12/16/2021 1:00:00 AM 9.19 48.542 0.523 8.03 6.59 10.56
12/16/2021 1:15:00 AM 9.16 48.488 0.523 8.03 6.74 10.56
12/16/2021 1:30:00 AM 9.13 48.434 0.523 8.02 6.75 10.56
12/16/2021 1:45:00 AM 9.11 48.398 0.524 8.02 6.99 10.56
12/16/2021 2:00:00 AM 9.11 48.398 0.524 8.02 6.53 10.56
12/16/2021 2:15:00 AM 9.1 48.38 0.524 8.01 6.55 10.56
12/16/2021 2:30:00 AM 9.09 48.362 0.524 8.01 6.51 10.56
12/16/2021 2:45:00 AM 9.09 48.362 0.524 8 6.45 10.56
12/16/2021 3:00:00 AM 9.08 48.344 0.524 8.01 6.72 10.56
12/16/2021 3:15:00 AM 9.08 48.344 0.524 8.01 6.62 10.56
12/16/2021 3:30:00 AM 9.06 48.308 0.524 8 6.56 10.56
12/16/2021 3:45:00 AM 9.05 48.29 0.524 8 6.55 10.56
12/16/2021 4:00:00 AM 9.04 48.272 0.524 8 6.54 10.56
12/16/2021 4:15:00 AM 9.02 48.236 0.524 7.99 6.69 10.56
12/16/2021 4:30:00 AM 9 48.2 0.523 7.99 6.47 10.57
12/16/2021 4:45:00 AM 8.98 48.164 0.523 7.99 6.6 10.57
12/16/2021 5:00:00 AM 8.97 48.146 0.523 7.99 6.82 10.57
12/16/2021 5:15:00 AM 8.95 48.11 0.523 7.99 6.79 10.57
12/16/2021 5:30:00 AM 8.92 48.056 0.523 7.98 6.46 10.58
12/16/2021 5:45:00 AM 8.9 48.02 0.523 7.99 6.53 10.59
12/16/2021 6:00:00 AM 8.88 47.984 0.523 7.99 6.58 10.59
12/16/2021 6:15:00 AM 8.86 47.948 0.523 7.98 6.59 10.6
12/16/2021 6:30:00 AM 8.83 47.894 0.523 7.99 6.55 10.61
12/16/2021 6:45:00 AM 8.8 47.84 0.523 7.99 6.52 10.62
12/16/2021 7:00:00 AM 8.78 47.804 0.523 7.98 6.46 10.63
12/16/2021 7:15:00 AM 8.75 47.75 0.523 7.99 6.77 10.64
12/16/2021 7:30:00 AM 8.71 47.678 0.523 7.98 6.57 10.66
12/16/2021 7:45:00 AM 8.68 47.624 0.523 7.99 6.47 10.73
12/16/2021 8:00:00 AM 8.67 47.606 0.523 8 6.56 10.86
12/16/2021 8:15:00 AM 8.65 47.57 0.523 8.02 6.51 10.98
12/16/2021 8:30:00 AM 8.63 47.534 0.523 8.03 6.46 11.13
12/16/2021 8:45:00 AM 8.65 47.57 0.522 8.04 6.33 11.32
12/16/2021 9:00:00 AM 8.7 47.66 0.522 8.07 6.32 11.55
12/16/2021 9:15:00 AM 8.73 47.714 0.521 8.1 6.43 11.78
12/16/2021 9:30:00 AM 8.75 47.75 0.521 8.12 6.36 11.93
12/16/2021 9:45:00 AM 8.77 47.786 0.521 8.14 6.65 12.08
12/16/2021 10:00:00 AM 8.79 47.822 0.52 8.16 6.58 12.2
12/16/2021 10:15:00 AM 8.84 47.912 0.52 8.18 6.48 12.35
12/16/2021 10:30:00 AM 8.89 48.002 0.519 8.21 6.45 12.51
12/16/2021 10:45:00 AM 8.95 48.11 0.518 8.24 6.37 12.64
12/16/2021 11:00:00 AM 9.03 48.254 0.518 8.26 6.54 12.8
12/16/2021 11:15:00 AM 9.1 48.38 0.517 8.28 6.3 12.93
12/16/2021 11:30:00 AM 9.17 48.506 0.516 8.3 6.46 13.05
12/16/2021 11:45:00 AM 9.24 48.632 0.515 8.33 6.26 13.15
12/16/2021 12:00:00 PM 9.32 48.776 0.515 8.34 6.68 13.23
12/16/2021 12:15:00 PM 9.42 48.956 0.514 8.36 6.62 13.32
12/16/2021 12:30:00 PM 9.5 49.1 0.513 8.39 6.65 13.41
12/16/2021 12:45:00 PM 9.59 49.262 0.512 8.41 6.64 13.49
12/16/2021 1:00:00 PM 9.69 49.442 0.511 8.42 6.62 13.55
12/16/2021 1:15:00 PM 9.78 49.604 0.51 8.44 6.43 13.58
12/16/2021 1:30:00 PM 9.86 49.748 0.51 8.46 6.46 13.6
12/16/2021 1:45:00 PM 9.93 49.874 0.509 8.46 6.71 13.6
12/16/2021 2:00:00 PM 10 50 0.508 8.48 6.58 13.59
12/16/2021 2:15:00 PM 10.07 50.126 0.507 8.49 6.57 13.55
12/16/2021 2:30:00 PM 10.13 50.234 0.506 8.51 6.7 13.5
12/16/2021 2:45:00 PM 10.2 50.36 0.506 8.52 6.9 13.42
12/16/2021 3:00:00 PM 10.25 50.45 0.505 8.52 6.74 13.32
12/16/2021 3:15:00 PM 10.29 50.522 0.504 8.53 6.7 13.25
12/16/2021 3:30:00 PM 10.32 50.576 0.504 8.52 6.57 13.1
12/16/2021 3:45:00 PM 10.33 50.594 0.503 8.53 6.68 12.91
12/16/2021 4:00:00 PM 10.33 50.594 0.503 8.52 6.54 12.71
12/16/2021 4:15:00 PM 10.32 50.576 0.502 8.51 6.55 12.5
12/16/2021 4:30:00 PM 10.3 50.54 0.502 8.49 6.71 12.26
12/16/2021 4:45:00 PM 10.26 50.468 0.502 8.47 6.63 12.01
12/16/2021 5:00:00 PM 10.22 50.396 0.502 8.45 6.82 11.77
12/16/2021 5:15:00 PM 10.19 50.342 0.502 8.43 6.91 11.54
12/16/2021 5:30:00 PM 10.16 50.288 0.502 8.41 6.76 11.36
12/16/2021 5:45:00 PM 10.14 50.252 0.502 8.39 6.84 11.21
12/16/2021 6:00:00 PM 10.13 50.234 0.502 8.36 6.55 11.07
12/16/2021 6:15:00 PM 10.12 50.216 0.502 8.36 6.56 10.95
12/16/2021 6:30:00 PM 10.11 50.198 0.502 8.34 6.77 10.85
12/16/2021 6:45:00 PM 10.11 50.198 0.502 8.32 6.7 10.76
12/16/2021 7:00:00 PM 10.12 50.216 0.502 8.31 6.75 10.69
12/16/2021 7:15:00 PM 10.12 50.216 0.502 8.29 6.88 10.63
12/16/2021 7:30:00 PM 10.12 50.216 0.502 8.28 6.64 10.58
12/16/2021 7:45:00 PM 10.11 50.198 0.502 8.26 6.58 10.53
12/16/2021 8:00:00 PM 10.1 50.18 0.502 8.25 6.62 10.49
12/16/2021 8:15:00 PM 10.09 50.162 0.503 8.24 6.71 10.46
12/16/2021 8:30:00 PM 10.08 50.144 0.503 8.22 6.59 10.44
12/16/2021 8:45:00 PM 10.08 50.144 0.504 8.21 6.67 10.41
12/16/2021 9:00:00 PM 10.07 50.126 0.504 8.19 6.6 10.39
12/16/2021 9:15:00 PM 10.05 50.09 0.505 8.18 6.41 10.38
12/16/2021 9:30:00 PM 10.04 50.072 0.506 8.17 6.83 10.35
12/16/2021 9:45:00 PM 10.03 50.054 0.507 8.15 6.76 10.35
12/16/2021 10:00:00 PM 10.02 50.036 0.508 8.14 6.6 10.33
12/16/2021 10:15:00 PM 10.02 50.036 0.509 8.12 6.57 10.32
12/16/2021 10:30:00 PM 10.02 50.036 0.51 8.11 6.48 10.31
12/16/2021 10:45:00 PM 10 50 0.511 8.1 6.63 10.3
12/16/2021 11:00:00 PM 9.96 49.928 0.513 8.08 6.59 10.29
12/16/2021 11:15:00 PM 9.93 49.874 0.514 8.07 6.59 10.29
12/16/2021 11:30:00 PM 9.9 49.82 0.515 8.06 6.78 10.27
12/16/2021 11:45:00 PM 9.87 49.766 0.516 8.04 6.59 10.28
12/17/2021 12:00:00 AM 9.84 49.712 0.517 8.04 6.77 10.27
12/17/2021 12:15:00 AM 9.81 49.658 0.518 8.02 6.67 10.27
12/17/2021 12:30:00 AM 9.78 49.604 0.518 8.02 6.65 10.27
12/17/2021 12:45:00 AM 9.77 49.586 0.519 8.02 6.62 10.27
12/17/2021 1:00:00 AM 9.76 49.568 0.519 8.01 6.7 10.27
12/17/2021 1:15:00 AM 9.74 49.532 0.52 8.01 6.38 10.27
12/17/2021 1:30:00 AM 9.73 49.514 0.52 8 6.54 10.27
12/17/2021 1:45:00 AM 9.71 49.478 0.52 7.99 6.76 10.27
12/17/2021 2:00:00 AM 9.7 49.46 0.521 7.99 6.61 10.27
12/17/2021 2:15:00 AM 9.69 49.442 0.521 7.99 6.65 10.28
12/17/2021 2:30:00 AM 9.68 49.424 0.521 7.99 6.67 10.28
12/17/2021 2:45:00 AM 9.68 49.424 0.521 7.99 6.55 10.28
12/17/2021 3:00:00 AM 9.66 49.388 0.521 7.99 6.48 10.28
12/17/2021 3:15:00 AM 9.64 49.352 0.521 7.98 6.37 10.29
12/17/2021 3:30:00 AM 9.61 49.298 0.521 7.98 6.65 10.29
12/17/2021 3:45:00 AM 9.58 49.244 0.521 7.99 6.6 10.3
12/17/2021 4:00:00 AM 9.56 49.208 0.521 7.98 6.76 10.31
12/17/2021 4:15:00 AM 9.54 49.172 0.521 7.98 6.5 10.32
12/17/2021 4:30:00 AM 9.51 49.118 0.521 7.98 6.6 10.32
12/17/2021 4:45:00 AM 9.49 49.082 0.521 7.98 6.44 10.33
12/17/2021 5:00:00 AM 9.47 49.046 0.521 7.98 6.66 10.34
12/17/2021 5:15:00 AM 9.45 49.01 0.521 7.98 6.73 10.34
12/17/2021 5:30:00 AM 9.43 48.974 0.521 7.98 6.8 10.35
12/17/2021 5:45:00 AM 9.4 48.92 0.521 7.98 6.75 10.37
12/17/2021 6:00:00 AM 9.37 48.866 0.521 7.98 13.76 10.38
12/17/2021 6:15:00 AM 9.34 48.812 0.521 7.98 4.27 10.39
12/17/2021 6:30:00 AM 9.31 48.758 0.521 7.99 4.89 10.41
12/17/2021 6:45:00 AM 9.29 48.722 0.521 7.99 5.31 10.42
12/17/2021 7:00:00 AM 9.26 48.668 0.521 7.99 5.31 10.43
12/17/2021 7:15:00 AM 9.22 48.596 0.521 7.98 5.32 10.45
12/17/2021 7:30:00 AM 9.19 48.542 0.521 7.99 5.18 10.48
12/17/2021 7:45:00 AM 9.15 48.47 0.521 8 5.13 10.53
12/17/2021 8:00:00 AM 9.13 48.434 0.521 8 5.11 10.63
12/17/2021 8:15:00 AM 9.11 48.398 0.521 8.02 5.14 10.77
12/17/2021 8:30:00 AM 9.1 48.38 0.521 8.03 5.02 10.94
12/17/2021 8:45:00 AM 9.1 48.38 0.521 8.05 5.06 11.14
12/17/2021 9:00:00 AM 9.11 48.398 0.521 8.08 5.04 11.38
12/17/2021 9:15:00 AM 9.12 48.416 0.52 8.11 5.06 11.62
12/17/2021 9:30:00 AM 9.13 48.434 0.52 8.13 5.06 11.86
12/17/2021 9:45:00 AM 9.15 48.47 0.519 8.16 5.13 12.11
12/17/2021 10:00:00 AM 9.17 48.506 0.519 8.19 5.08 12.36
12/17/2021 10:15:00 AM 9.2 48.56 0.518 8.22 5.04 12.59
12/17/2021 10:30:00 AM 9.24 48.632 0.517 8.25 5.16 12.8
12/17/2021 10:45:00 AM 9.27 48.686 0.516 8.27 5.12 12.98
12/17/2021 11:00:00 AM 9.3 48.74 0.515 8.31 5.05 13.2
12/17/2021 11:15:00 AM 9.37 48.866 0.514 8.34 5.1 13.4
12/17/2021 11:30:00 AM 9.42 48.956 0.513 8.37 5.06 13.57
12/17/2021 11:45:00 AM 9.49 49.082 0.512 8.4 5.13 13.75
12/17/2021 12:00:00 PM 9.54 49.172 0.511 8.42 5.05 13.9
12/17/2021 12:15:00 PM 9.58 49.244 0.511 8.44 5.21 14.02
12/17/2021 12:30:00 PM 9.62 49.316 0.51 8.47 5.18 14.1
12/17/2021 12:45:00 PM 9.64 49.352 0.509 8.49 5.26 14.2
12/17/2021 1:00:00 PM 9.66 49.388 0.508 8.5 5.26 14.24
12/17/2021 1:15:00 PM 9.68 49.424 0.507 8.53 5.2 14.27
12/17/2021 1:30:00 PM 9.67 49.406 0.506 8.54 4.34 14.28
12/17/2021 1:45:00 PM 9.71 49.478 0.506 8.55 4.31 14.33
12/17/2021 2:00:00 PM 9.73 49.514 0.505 8.56 4.07 14.31
12/17/2021 2:15:00 PM 9.74 49.532 0.504 8.57 4.16 14.29
12/17/2021 2:30:00 PM 9.71 49.478 0.504 8.58 4.15 14.25
12/17/2021 2:45:00 PM 9.67 49.406 0.503 8.58 4.37 14.13
12/17/2021 3:00:00 PM 9.66 49.388 0.503 8.58 4.23 14
12/17/2021 3:15:00 PM 9.67 49.406 0.502 8.59 4.14 13.89
12/17/2021 3:30:00 PM 9.63 49.334 0.502 8.58 4.2 13.69
12/17/2021 3:45:00 PM 9.6 49.28 0.502 8.57 4.24 13.46
12/17/2021 4:00:00 PM 9.57 49.226 0.502 8.56 4.21 13.19
12/17/2021 4:15:00 PM 9.52 49.136 0.501 8.54 4.33 12.93
12/17/2021 4:30:00 PM 9.47 49.046 0.501 8.53 4.29 12.68
12/17/2021 4:45:00 PM 9.42 48.956 0.501 8.51 4.46 12.43
12/17/2021 5:00:00 PM 9.37 48.866 0.502 8.49 4.36 12.18
12/17/2021 5:15:00 PM 9.31 48.758 0.502 8.47 4.32 11.96
12/17/2021 5:30:00 PM 9.27 48.686 0.502 8.45 4.44 11.78
12/17/2021 5:45:00 PM 9.23 48.614 0.502 8.42 4.35 11.63
12/17/2021 6:00:00 PM 9.19 48.542 0.501 8.41 4.3 11.5
12/17/2021 6:15:00 PM 9.15 48.47 0.502 8.39 4.37 11.39
12/17/2021 6:30:00 PM 9.12 48.416 0.502 8.37 4.32 11.29
12/17/2021 6:45:00 PM 9.09 48.362 0.501 8.35 4.31 11.21
12/17/2021 7:00:00 PM 9.06 48.308 0.501 8.34 4.4 11.14
12/17/2021 7:15:00 PM 9.02 48.236 0.502 8.33 4.39 11.09
12/17/2021 7:30:00 PM 8.98 48.164 0.502 8.31 4.38 11.04
12/17/2021 7:45:00 PM 8.93 48.074 0.502 8.3 4.32 11.01
12/17/2021 8:00:00 PM 8.89 48.002 0.502 8.29 4.37 10.98
12/17/2021 8:15:00 PM 8.83 47.894 0.503 8.27 4.33 10.95
12/17/2021 8:30:00 PM 8.79 47.822 0.503 8.26 4.38 10.93
12/17/2021 8:45:00 PM 8.75 47.75 0.504 8.24 4.29 10.91
12/17/2021 9:00:00 PM 8.72 47.696 0.505 8.22 4.46 10.9
12/17/2021 9:15:00 PM 8.68 47.624 0.505 8.22 4.44 10.89
12/17/2021 9:30:00 PM 8.65 47.57 0.506 8.2 4.3 10.88
12/17/2021 9:45:00 PM 8.62 47.516 0.507 8.19 4.29 10.88
12/17/2021 10:00:00 PM 8.58 47.444 0.509 8.18 4.31 10.87
12/17/2021 10:15:00 PM 8.54 47.372 0.51 8.16 4.36 10.86
12/17/2021 10:30:00 PM 8.51 47.318 0.511 8.14 4.23 10.86
12/17/2021 10:45:00 PM 8.48 47.264 0.513 8.13 4.43 10.85
12/17/2021 11:00:00 PM 8.46 47.228 0.514 8.11 4.4 10.84
12/17/2021 11:15:00 PM 8.44 47.192 0.516 8.1 4.47 10.84
12/17/2021 11:30:00 PM 8.43 47.174 0.517 8.09 4.35 10.83
12/17/2021 11:45:00 PM 8.42 47.156 0.518 8.07 4.45 10.82
12/18/2021 12:00:00 AM 8.41 47.138 0.519 8.06 4.23 10.82
12/18/2021 12:15:00 AM 8.39 47.102 0.52 8.05 4.45 10.81
12/18/2021 12:30:00 AM 8.38 47.084 0.521 8.04 4.28 10.81
12/18/2021 12:45:00 AM 8.37 47.066 0.522 8.04 4.26 10.81
12/18/2021 1:00:00 AM 8.35 47.03 0.522 8.02 4.36 10.81
12/18/2021 1:15:00 AM 8.34 47.012 0.523 8.02 4.4 10.81
12/18/2021 1:30:00 AM 8.33 46.994 0.523 8.02 4.43 10.81
12/18/2021 1:45:00 AM 8.32 46.976 0.523 8.01 4.27 10.81
12/18/2021 2:00:00 AM 8.3 46.94 0.523 8 4.38 10.81
12/18/2021 2:15:00 AM 8.29 46.922 0.523 8 5.12 10.81
12/18/2021 2:30:00 AM 8.28 46.904 0.524 8 5.19 10.82
12/18/2021 2:45:00 AM 8.26 46.868 0.524 8 4.43 10.82
12/18/2021 3:00:00 AM 8.24 46.832 0.523 7.99 4.39 10.83
12/18/2021 3:15:00 AM 8.22 46.796 0.523 7.99 4.36 10.84
12/18/2021 3:30:00 AM 8.21 46.778 0.522 7.99 4.42 10.84
12/18/2021 3:45:00 AM 8.2 46.76 0.522 7.99 4.5 10.84
12/18/2021 4:00:00 AM 8.18 46.724 0.522 7.98 4.39 10.84
12/18/2021 4:15:00 AM 8.17 46.706 0.522 7.98 4.49 10.84
12/18/2021 4:30:00 AM 8.16 46.688 0.522 7.98 4.47 10.85
12/18/2021 4:45:00 AM 8.16 46.688 0.522 7.98 4.37 10.84
12/18/2021 5:00:00 AM 8.15 46.67 0.522 7.98 4.4 10.85
12/18/2021 5:15:00 AM 8.13 46.634 0.522 7.98 4.38 10.85
12/18/2021 5:30:00 AM 8.13 46.634 0.522 7.98 4.41 10.86
12/18/2021 5:45:00 AM 8.12 46.616 0.522 7.98 4.5 10.86
12/18/2021 6:00:00 AM 8.12 46.616 0.522 7.98 4.39 10.86
12/18/2021 6:15:00 AM 8.11 46.598 0.522 7.98 4.37 10.85
12/18/2021 6:30:00 AM 8.1 46.58 0.521 7.98 4.52 10.86
12/18/2021 6:45:00 AM 8.09 46.562 0.521 7.98 4.46 10.86
12/18/2021 7:00:00 AM 8.09 46.562 0.522 7.98 4.67 10.86
12/18/2021 7:15:00 AM 8.08 46.544 0.522 7.97 4.63 10.86
12/18/2021 7:30:00 AM 8.08 46.544 0.522 7.98 4.58 10.87
12/18/2021 7:45:00 AM 8.08 46.544 0.521 7.97 4.52 10.88
12/18/2021 8:00:00 AM 8.07 46.526 0.521 7.98 4.49 10.91
12/18/2021 8:15:00 AM 8.07 46.526 0.521 7.99 4.46 10.96
12/18/2021 8:30:00 AM 8.08 46.544 0.521 7.99 4.42 11.05
12/18/2021 8:45:00 AM 8.09 46.562 0.521 8 4.41 11.14
12/18/2021 9:00:00 AM 8.1 46.58 0.52 8.02 4.28 11.21
12/18/2021 9:15:00 AM 8.11 46.598 0.52 8.03 4.56 11.3
12/18/2021 9:30:00 AM 8.13 46.634 0.52 8.04 4.66 11.43
12/18/2021 9:45:00 AM 8.14 46.652 0.52 8.06 4.63 11.52
12/18/2021 10:00:00 AM 8.15 46.67 0.519 8.06 4.81 11.61
12/18/2021 10:15:00 AM 8.17 46.706 0.519 8.08 4.51 11.71
12/18/2021 10:30:00 AM 8.19 46.742 0.518 8.1 4.7 11.82
12/18/2021 10:45:00 AM 8.21 46.778 0.518 8.12 4.74 11.96
12/18/2021 11:00:00 AM 8.24 46.832 0.518 8.13 4.5 12.1
12/18/2021 11:15:00 AM 8.26 46.868 0.517 8.15 4.84 12.25
12/18/2021 11:30:00 AM 8.28 46.904 0.517 8.17 5.01 12.35
12/18/2021 11:45:00 AM 8.3 46.94 0.517 8.19 5.12 12.45
12/18/2021 12:00:00 PM 8.32 46.976 0.516 8.21 4.65 12.52
12/18/2021 12:15:00 PM 8.35 47.03 0.516 8.22 4.71 12.62
12/18/2021 12:30:00 PM 8.37 47.066 0.515 8.24 4.98 12.72
12/18/2021 12:45:00 PM 8.41 47.138 0.515 8.26 4.54 12.86
12/18/2021 1:00:00 PM 8.45 47.21 0.514 8.28 4.6 12.99
12/18/2021 1:15:00 PM 8.48 47.264 0.513 8.3 4.55 13.07
12/18/2021 1:30:00 PM 8.5 47.3 0.513 8.32 4.58 13.09
12/18/2021 1:45:00 PM 8.52 47.336 0.512 8.32 4.55 13.05
12/18/2021 2:00:00 PM 8.52 47.336 0.512 8.32 4.54 12.97
12/18/2021 2:15:00 PM 8.53 47.354 0.512 8.32 4.68 12.85
12/18/2021 2:30:00 PM 8.54 47.372 0.512 8.32 4.64 12.81
12/18/2021 2:45:00 PM 8.57 47.426 0.511 8.33 4.54 12.82
12/18/2021 3:00:00 PM 8.57 47.426 0.511 8.31 4.54 12.73
12/18/2021 3:15:00 PM 8.58 47.444 0.511 8.32 4.62 12.61
12/18/2021 3:30:00 PM 8.58 47.444 0.511 8.31 4.61 12.49
12/18/2021 3:45:00 PM 8.58 47.444 0.511 8.3 4.54 12.35
12/18/2021 4:00:00 PM 8.57 47.426 0.511 8.28 4.45 12.21
12/18/2021 4:15:00 PM 8.57 47.426 0.512 8.28 4.68 12.06
12/18/2021 4:30:00 PM 8.56 47.408 0.512 8.25 4.57 11.9
12/18/2021 4:45:00 PM 8.55 47.39 0.512 8.24 4.67 11.74
12/18/2021 5:00:00 PM 8.55 47.39 0.512 8.23 4.64 11.6
12/18/2021 5:15:00 PM 8.55 47.39 0.512 8.21 4.47 11.48
12/18/2021 5:30:00 PM 8.54 47.372 0.512 8.2 4.45 11.39
12/18/2021 5:45:00 PM 8.54 47.372 0.512 8.18 4.48 11.3
12/18/2021 6:00:00 PM 8.55 47.39 0.512 8.18 4.49 11.23
12/18/2021 6:15:00 PM 8.56 47.408 0.512 8.17 4.6 11.17
12/18/2021 6:30:00 PM 8.57 47.426 0.511 8.16 4.67 11.11
12/18/2021 6:45:00 PM 8.58 47.444 0.511 8.15 4.46 11.07
12/18/2021 7:00:00 PM 8.58 47.444 0.511 8.15 4.68 11.03
12/18/2021 7:15:00 PM 8.59 47.462 0.511 8.15 4.66 11
12/18/2021 7:30:00 PM 8.6 47.48 0.511 8.14 4.57 10.97
12/18/2021 7:45:00 PM 8.6 47.48 0.511 8.13 4.65 10.94
12/18/2021 8:00:00 PM 8.6 47.48 0.511 8.13 4.64 10.91
12/18/2021 8:15:00 PM 8.59 47.462 0.511 8.13 4.6 10.89
12/18/2021 8:30:00 PM 8.57 47.426 0.511 8.12 4.69 10.87
12/18/2021 8:45:00 PM 8.55 47.39 0.512 8.11 4.66 10.85
12/18/2021 9:00:00 PM 8.53 47.354 0.512 8.1 4.66 10.83
12/18/2021 9:15:00 PM 8.51 47.318 0.512 8.1 4.57 10.82
12/18/2021 9:30:00 PM 8.51 47.318 0.513 8.09 4.66 10.8
12/18/2021 9:45:00 PM 8.51 47.318 0.513 8.08 4.61 10.79
12/18/2021 10:00:00 PM 8.51 47.318 0.514 8.07 4.65 10.78
12/18/2021 10:15:00 PM 8.52 47.336 0.514 8.07 4.54 10.77
12/18/2021 10:30:00 PM 8.52 47.336 0.515 8.06 4.58 10.75
12/18/2021 10:45:00 PM 8.52 47.336 0.515 8.05 4.6 10.74
12/18/2021 11:00:00 PM 8.52 47.336 0.515 8.05 4.56 10.73
12/18/2021 11:15:00 PM 8.51 47.318 0.516 8.04 4.65 10.72
12/18/2021 11:30:00 PM 8.5 47.3 0.516 8.03 4.71 10.71
12/18/2021 11:45:00 PM 8.5 47.3 0.516 8.03 4.51 10.7
12/19/2021 12:00:00 AM 8.49 47.282 0.516 8.02 4.99 10.7
12/19/2021 12:15:00 AM 8.49 47.282 0.516 8.02 4.55 10.69
12/19/2021 12:30:00 AM 8.49 47.282 0.516 8.01 4.59 10.69
12/19/2021 12:45:00 AM 8.48 47.264 0.516 8.01 4.71 10.69
12/19/2021 1:00:00 AM 8.48 47.264 0.516 8.01 4.64 10.68
12/19/2021 1:15:00 AM 8.48 47.264 0.516 8.01 4.56 10.69
12/19/2021 1:30:00 AM 8.48 47.264 0.516 7.99 4.6 10.68
12/19/2021 1:45:00 AM 8.48 47.264 0.516 8 4.53 10.68
12/19/2021 2:00:00 AM 8.49 47.282 0.516 8 4.49 10.69
12/19/2021 2:15:00 AM 8.49 47.282 0.516 8 4.51 10.69
12/19/2021 2:30:00 AM 8.49 47.282 0.516 8 4.34 10.68
12/19/2021 2:45:00 AM 8.49 47.282 0.516 8 4.28 10.68
12/19/2021 3:00:00 AM 8.49 47.282 0.516 7.99 4.4 10.69
12/19/2021 3:15:00 AM 8.49 47.282 0.516 7.99 4.43 10.69
12/19/2021 3:30:00 AM 8.48 47.264 0.516 7.99 4.51 10.69
12/19/2021 3:45:00 AM 8.46 47.228 0.516 7.99 4.36 10.7
12/19/2021 4:00:00 AM 8.44 47.192 0.517 7.99 4.32 10.71
12/19/2021 4:15:00 AM 8.42 47.156 0.517 7.99 4.42 10.71
12/19/2021 4:30:00 AM 8.4 47.12 0.517 7.99 4.3 10.72
12/19/2021 4:45:00 AM 8.37 47.066 0.517 8 4.38 10.73
12/19/2021 5:00:00 AM 8.34 47.012 0.517 7.99 4.48 10.72
12/19/2021 5:15:00 AM 8.3 46.94 0.517 7.99 4.46 10.74
12/19/2021 5:30:00 AM 8.25 46.85 0.517 7.99 4.54 10.76
12/19/2021 5:45:00 AM 8.2 46.76 0.517 8 4.41 10.77
12/19/2021 6:00:00 AM 8.16 46.688 0.518 7.99 4.4 10.79
12/19/2021 6:15:00 AM 8.11 46.598 0.518 7.99 4.4 10.8
12/19/2021 6:30:00 AM 8.08 46.544 0.518 8 4.41 10.81
12/19/2021 6:45:00 AM 8.05 46.49 0.518 8 4.48 10.83
12/19/2021 7:00:00 AM 8 46.4 0.518 8 4.55 10.84
12/19/2021 7:15:00 AM 7.96 46.328 0.518 7.99 4.66 10.86
12/19/2021 7:30:00 AM 7.89 46.202 0.518 8 4.51 10.9
12/19/2021 7:45:00 AM 7.82 46.076 0.519 8 4.51 10.94
12/19/2021 8:00:00 AM 7.77 45.986 0.519 8.01 4.4 11.02
12/19/2021 8:15:00 AM 7.73 45.914 0.519 8.02 4.41 11.12
12/19/2021 8:30:00 AM 7.69 45.842 0.519 8.03 4.4 11.26
12/19/2021 8:45:00 AM 7.69 45.842 0.519 8.05 4.33 11.47
12/19/2021 9:00:00 AM 7.66 45.788 0.519 8.07 4.33 11.69
12/19/2021 9:15:00 AM 7.64 45.752 0.518 8.1 4.32 11.96
12/19/2021 9:30:00 AM 7.66 45.788 0.518 8.13 4.4 12.28
12/19/2021 9:45:00 AM 7.67 45.806 0.517 8.16 4.35 12.46
12/19/2021 10:00:00 AM 7.61 45.698 0.517 8.17 4.36 12.47
12/19/2021 10:15:00 AM 7.59 45.662 0.517 8.18 4.34 12.49
12/19/2021 10:30:00 AM 7.6 45.68 0.517 8.2 4.35 12.65
12/19/2021 10:45:00 AM 7.61 45.698 0.516 8.22 4.38 12.83
12/19/2021 11:00:00 AM 7.61 45.698 0.516 8.25 4.27 13.01
12/19/2021 11:15:00 AM 7.61 45.698 0.515 8.27 4.29 13.18
12/19/2021 11:30:00 AM 7.62 45.716 0.515 8.29 4.27 13.3
12/19/2021 11:45:00 AM 7.7 45.86 0.514 8.32 4.33 13.53
12/19/2021 12:00:00 PM 7.75 45.95 0.513 8.34 4.28 13.72
12/19/2021 12:15:00 PM 7.73 45.914 0.513 8.37 4.28 13.81
12/19/2021 12:30:00 PM 7.71 45.878 0.512 8.38 4.27 13.88
12/19/2021 12:45:00 PM 7.65 45.77 0.512 8.4 4.29 13.93
12/19/2021 1:00:00 PM 7.63 45.734 0.511 8.4 4.36 13.98
12/19/2021 1:15:00 PM 7.59 45.662 0.511 8.43 4.32 14.03
12/19/2021 1:30:00 PM 7.58 45.644 0.51 8.43 4.31 14.06
12/19/2021 1:45:00 PM 7.53 45.554 0.51 8.45 4.35 14.06
12/19/2021 2:00:00 PM 7.48 45.464 0.509 8.46 4.39 14.05
12/19/2021 2:15:00 PM 7.46 45.428 0.509 8.46 4.35 13.99
12/19/2021 2:30:00 PM 7.43 45.374 0.509 8.46 4.39 13.94
12/19/2021 2:45:00 PM 7.4 45.32 0.509 8.47 4.39 13.88
12/19/2021 3:00:00 PM 7.4 45.32 0.508 8.48 4.34 13.82
12/19/2021 3:15:00 PM 7.37 45.266 0.508 8.47 4.3 13.72
12/19/2021 3:30:00 PM 7.32 45.176 0.508 8.48 4.53 13.62
12/19/2021 3:45:00 PM 7.29 45.122 0.507 8.47 4.39 13.51
12/19/2021 4:00:00 PM 7.24 45.032 0.507 8.47 4.32 13.37
12/19/2021 4:15:00 PM 7.17 44.906 0.507 8.45 4.45 13.22
12/19/2021 4:30:00 PM 7.11 44.798 0.508 8.44 4.38 13.05
12/19/2021 4:45:00 PM 7.03 44.654 0.508 8.43 4.47 12.88
12/19/2021 5:00:00 PM 6.95 44.51 0.508 8.41 4.43 12.69
12/19/2021 5:15:00 PM 6.86 44.348 0.509 8.39 4.39 12.52
12/19/2021 5:30:00 PM 6.78 44.204 0.509 8.36 4.41 12.38
12/19/2021 5:45:00 PM 6.69 44.042 0.509 8.34 4.49 12.26
12/19/2021 6:00:00 PM 6.62 43.916 0.509 8.32 4.45 12.16
12/19/2021 6:15:00 PM 6.55 43.79 0.509 8.31 4.37 12.08
12/19/2021 6:30:00 PM 6.49 43.682 0.509 8.3 4.48 12.02
12/19/2021 6:45:00 PM 6.45 43.61 0.509 8.29 4.48 11.97
12/19/2021 7:00:00 PM 6.39 43.502 0.509 8.27 4.51 11.93
12/19/2021 7:15:00 PM 6.34 43.412 0.509 8.28 4.41 11.9
12/19/2021 7:30:00 PM 6.3 43.34 0.509 8.26 4.45 11.87
12/19/2021 7:45:00 PM 6.26 43.268 0.509 8.25 4.42 11.84
12/19/2021 8:00:00 PM 6.21 43.178 0.509 8.25 4.37 11.83
12/19/2021 8:15:00 PM 6.16 43.088 0.509 8.24 4.5 11.82
12/19/2021 8:30:00 PM 6.1 42.98 0.51 8.23 4.41 11.81
12/19/2021 8:45:00 PM 6.05 42.89 0.51 8.22 4.49 11.81
12/19/2021 9:00:00 PM 5.99 42.782 0.511 8.21 4.45 11.81
12/19/2021 9:15:00 PM 5.92 42.656 0.511 8.19 4.4 11.81
12/19/2021 9:30:00 PM 5.87 42.566 0.512 8.19 4.37 11.82
12/19/2021 9:45:00 PM 5.8 42.44 0.512 8.17 4.47 11.83
12/19/2021 10:00:00 PM 5.74 42.332 0.513 8.16 4.39 11.83
12/19/2021 10:15:00 PM 5.67 42.206 0.514 8.15 4.67 11.84
12/19/2021 10:30:00 PM 5.6 42.08 0.515 8.14 4.53 11.86
12/19/2021 10:45:00 PM 5.52 41.936 0.516 8.13 4.49 11.87
12/19/2021 11:00:00 PM 5.45 41.81 0.517 8.12 4.52 11.89
12/19/2021 11:15:00 PM 5.38 41.684 0.518 8.1 4.38 11.9
12/19/2021 11:30:00 PM 5.3 41.54 0.519 8.09 4.52 11.92
12/19/2021 11:45:00 PM 5.22 41.396 0.52 8.08 4.53 11.94
12/20/2021 12:00:00 AM 5.14 41.252 0.521 8.07 4.42 11.95
12/20/2021 12:15:00 AM 5.05 41.09 0.522 8.06 4.69 11.98
12/20/2021 12:30:00 AM 4.98 40.964 0.523 8.05 4.46 11.99
12/20/2021 12:45:00 AM 4.91 40.838 0.524 8.05 4.62 12.01
12/20/2021 1:00:00 AM 4.84 40.712 0.524 8.03 4.51 12.04
12/20/2021 1:15:00 AM 4.77 40.586 0.525 8.02 4.55 12.06
12/20/2021 1:30:00 AM 4.7 40.46 0.525 8.02 4.56 12.08
12/20/2021 1:45:00 AM 4.64 40.352 0.526 8.01 4.62 12.1
12/20/2021 2:00:00 AM 4.58 40.244 0.526 8.02 4.59 12.12
12/20/2021 2:15:00 AM 4.52 40.136 0.526 8.01 4.66 12.14
12/20/2021 2:30:00 AM 4.47 40.046 0.527 8.02 4.54 12.16
12/20/2021 2:45:00 AM 4.42 39.956 0.527 8.01 4.54 12.18
12/20/2021 3:00:00 AM 4.36 39.848 0.527 8 4.49 12.2
12/20/2021 3:15:00 AM 4.3 39.74 0.527 8.01 4.63 12.22
12/20/2021 3:30:00 AM 4.25 39.65 0.527 8.01 4.54 12.24
12/20/2021 3:45:00 AM 4.2 39.56 0.527 8.01 4.54 12.26
12/20/2021 4:00:00 AM 4.15 39.47 0.528 8 4.79 12.28
12/20/2021 4:15:00 AM 4.11 39.398 0.528 8 5.08 12.29
12/20/2021 4:30:00 AM 4.04 39.272 0.528 8 4.82 12.32
12/20/2021 4:45:00 AM 3.99 39.182 0.528 8 4.87 12.34
12/20/2021 5:00:00 AM 3.94 39.092 0.528 8 4.96 12.36
12/20/2021 5:15:00 AM 3.89 39.002 0.528 8 4.85 12.38
12/20/2021 5:30:00 AM 3.85 38.93 0.528 8.01 4.61 12.4
12/20/2021 5:45:00 AM 3.8 38.84 0.528 8.01 4.79 12.41
12/20/2021 6:00:00 AM 3.76 38.768 0.528 8 4.68 12.44
12/20/2021 6:15:00 AM 3.71 38.678 0.529 8 4.6 12.46
12/20/2021 6:30:00 AM 3.66 38.588 0.529 8 4.67 12.48
12/20/2021 6:45:00 AM 3.62 38.516 0.529 8.01 4.64 12.5
12/20/2021 7:00:00 AM 3.58 38.444 0.529 8 4.58 12.52
12/20/2021 7:15:00 AM 3.54 38.372 0.529 8 4.57 12.53
12/20/2021 7:30:00 AM 3.5 38.3 0.529 8.01 4.51 12.57
12/20/2021 7:45:00 AM 3.47 38.246 0.529 8.01 4.54 12.62
12/20/2021 8:00:00 AM 3.44 38.192 0.529 8.02 4.56 12.7
12/20/2021 8:15:00 AM 3.41 38.138 0.53 8.02 4.47 12.81
12/20/2021 8:30:00 AM 3.38 38.084 0.53 8.04 4.4 12.91
12/20/2021 8:45:00 AM 3.36 38.048 0.53 8.06 4.47 13.02
12/20/2021 9:00:00 AM 3.34 38.012 0.53 8.06 4.44 13.12
12/20/2021 9:15:00 AM 3.34 38.012 0.53 8.08 4.45 13.23
12/20/2021 9:30:00 AM 3.35 38.03 0.53 8.09 4.59 13.35
12/20/2021 9:45:00 AM 3.38 38.084 0.529 8.11 4.55 13.49
12/20/2021 10:00:00 AM 3.43 38.174 0.529 8.12 4.55 13.61
12/20/2021 10:15:00 AM 3.49 38.282 0.529 8.14 4.49 13.73
12/20/2021 10:30:00 AM 3.56 38.408 0.528 8.16 4.5 13.86
12/20/2021 10:45:00 AM 3.68 38.624 0.528 8.19 4.54 13.97
12/20/2021 11:00:00 AM 3.78 38.804 0.527 8.21 4.51 14.08
12/20/2021 11:15:00 AM 3.87 38.966 0.526 8.22 4.36 14.18
12/20/2021 11:30:00 AM 3.97 39.146 0.526 8.25 4.35 14.28
12/20/2021 11:45:00 AM 4.05 39.29 0.525 8.27 4.4 14.35
12/20/2021 12:00:00 PM 4.18 39.524 0.524 8.29 4.5 14.41
12/20/2021 12:15:00 PM 4.29 39.722 0.524 8.29 4.55 14.47
12/20/2021 12:30:00 PM 4.39 39.902 0.523 8.32 4.5 14.52
12/20/2021 12:45:00 PM 4.5 40.1 0.522 8.34 4.59 14.57
12/20/2021 1:00:00 PM 4.6 40.28 0.522 8.35 4.52 14.59
12/20/2021 1:15:00 PM 4.71 40.478 0.521 8.37 4.67 14.61
12/20/2021 1:30:00 PM 4.79 40.622 0.521 8.37 4.51 14.62
12/20/2021 1:45:00 PM 4.86 40.748 0.52 8.39 4.6 14.6
12/20/2021 2:00:00 PM 4.93 40.874 0.52 8.41 4.53 14.57
12/20/2021 2:15:00 PM 4.99 40.982 0.519 8.41 4.5 14.51
12/20/2021 2:30:00 PM 5.06 41.108 0.519 8.42 4.71 14.45
12/20/2021 2:45:00 PM 5.13 41.234 0.518 8.43 4.5 14.4
12/20/2021 3:00:00 PM 5.18 41.324 0.517 8.43 4.54 14.32
12/20/2021 3:15:00 PM 5.23 41.414 0.517 8.44 4.54 14.22
12/20/2021 3:30:00 PM 5.26 41.468 0.516 8.44 4.59 14.11
12/20/2021 3:45:00 PM 5.28 41.504 0.516 8.44 4.64 13.99
12/20/2021 4:00:00 PM 5.3 41.54 0.515 8.44 4.69 13.86
12/20/2021 4:15:00 PM 5.3 41.54 0.515 8.44 4.72 13.71
12/20/2021 4:30:00 PM 5.29 41.522 0.515 8.43 4.77 13.55
12/20/2021 4:45:00 PM 5.27 41.486 0.514 8.42 4.86 13.38
12/20/2021 5:00:00 PM 5.24 41.432 0.514 8.41 4.61 13.2
12/20/2021 5:15:00 PM 5.21 41.378 0.514 8.39 4.72 13.03
12/20/2021 5:30:00 PM 5.19 41.342 0.514 8.37 4.62 12.87
12/20/2021 5:45:00 PM 5.18 41.324 0.514 8.36 4.7 12.73
12/20/2021 6:00:00 PM 5.16 41.288 0.514 8.35 4.8 12.63
12/20/2021 6:15:00 PM 5.16 41.288 0.514 8.34 4.82 12.53
12/20/2021 6:30:00 PM 5.15 41.27 0.514 8.32 4.86 12.44
12/20/2021 6:45:00 PM 5.15 41.27 0.514 8.32 4.72 12.37
12/20/2021 7:00:00 PM 5.17 41.306 0.513 8.31 4.69 12.31
12/20/2021 7:15:00 PM 5.17 41.306 0.513 8.3 4.63 12.26
12/20/2021 7:30:00 PM 5.17 41.306 0.513 8.29 4.66 12.22
12/20/2021 7:45:00 PM 5.17 41.306 0.513 8.28 4.68 12.19
12/20/2021 8:00:00 PM 5.16 41.288 0.513 8.27 4.66 12.16
12/20/2021 8:15:00 PM 5.14 41.252 0.514 8.27 4.76 12.13
12/20/2021 8:30:00 PM 5.12 41.216 0.514 8.26 4.71 12.11
12/20/2021 8:45:00 PM 5.09 41.162 0.514 8.25 4.65 12.1
12/20/2021 9:00:00 PM 5.06 41.108 0.515 8.24 4.62 12.09
12/20/2021 9:15:00 PM 5.02 41.036 0.515 8.23 4.56 12.08
12/20/2021 9:30:00 PM 4.98 40.964 0.516 8.21 4.57 12.08
12/20/2021 9:45:00 PM 4.94 40.892 0.517 8.2 4.57 12.08
12/20/2021 10:00:00 PM 4.89 40.802 0.517 8.19 4.57 12.08
12/20/2021 10:15:00 PM 4.84 40.712 0.518 8.19 4.63 12.08
12/20/2021 10:30:00 PM 4.8 40.64 0.519 8.18 4.85 12.09
12/20/2021 10:45:00 PM 4.74 40.532 0.52 8.17 4.73 12.1
12/20/2021 11:00:00 PM 4.68 40.424 0.521 8.15 4.67 12.1
12/20/2021 11:15:00 PM 4.62 40.316 0.522 8.14 4.78 12.11
12/20/2021 11:30:00 PM 4.56 40.208 0.523 8.13 4.81 12.12
12/20/2021 11:45:00 PM 4.5 40.1 0.524 8.12 4.77 12.13
12/21/2021 12:00:00 AM 4.43 39.974 0.525 8.11 4.79 12.14
12/21/2021 12:15:00 AM 4.37 39.866 0.526 8.1 4.73 12.16
12/21/2021 12:30:00 AM 4.31 39.758 0.527 8.1 4.72 12.17
12/21/2021 12:45:00 AM 4.25 39.65 0.527 8.08 4.79 12.18
12/21/2021 1:00:00 AM 4.2 39.56 0.528 8.08 4.59 12.2
12/21/2021 1:15:00 AM 4.15 39.47 0.528 8.07 4.72 12.21
12/21/2021 1:30:00 AM 4.1 39.38 0.529 8.07 4.65 12.22
12/21/2021 1:45:00 AM 4.04 39.272 0.529 8.06 4.7 12.24
12/21/2021 2:00:00 AM 3.98 39.164 0.529 8.06 4.66 12.26
12/21/2021 2:15:00 AM 3.92 39.056 0.53 8.05 4.56 12.28
12/21/2021 2:30:00 AM 3.88 38.984 0.53 8.05 4.6 12.29
12/21/2021 2:45:00 AM 3.82 38.876 0.53 8.05 4.69 12.31
12/21/2021 3:00:00 AM 3.78 38.804 0.53 8.04 4.64 12.33
12/21/2021 3:15:00 AM 3.73 38.714 0.53 8.05 4.76 12.35
12/21/2021 3:30:00 AM 3.7 38.66 0.53 8.03 4.69 12.37
12/21/2021 3:45:00 AM 3.66 38.588 0.53 8.04 4.69 12.39
12/21/2021 4:00:00 AM 3.63 38.534 0.53 8.04 4.61 12.4
12/21/2021 4:15:00 AM 3.6 38.48 0.53 8.03 4.71 12.42
12/21/2021 4:30:00 AM 3.56 38.408 0.53 8.04 5.01 12.43
12/21/2021 4:45:00 AM 3.51 38.318 0.53 8.04 4.85 12.45
12/21/2021 5:00:00 AM 3.47 38.246 0.53 8.04 4.79 12.46
12/21/2021 5:15:00 AM 3.43 38.174 0.53 8.03 4.71 12.48
12/21/2021 5:30:00 AM 3.39 38.102 0.53 8.04 4.79 12.49
12/21/2021 5:45:00 AM 3.35 38.03 0.53 8.04 4.68 12.51
12/21/2021 6:00:00 AM 3.31 37.958 0.53 8.03 4.59 12.52
12/21/2021 6:15:00 AM 3.28 37.904 0.53 8.03 4.76 12.53
12/21/2021 6:30:00 AM 3.25 37.85 0.53 8.03 4.65 12.55
12/21/2021 6:45:00 AM 3.22 37.796 0.53 8.03 4.67 12.55
12/21/2021 7:00:00 AM 3.19 37.742 0.53 8.03 4.73 12.57
12/21/2021 7:15:00 AM 3.16 37.688 0.53 8.03 4.59 12.59
12/21/2021 7:30:00 AM 3.14 37.652 0.53 8.02 4.7 12.61
12/21/2021 7:45:00 AM 3.12 37.616 0.53 8.04 4.61 12.65
12/21/2021 8:00:00 AM 3.1 37.58 0.53 8.04 4.63 12.74
12/21/2021 8:15:00 AM 3.11 37.598 0.53 8.06 4.56 12.86
12/21/2021 8:30:00 AM 3.13 37.634 0.529 8.06 4.58 13
12/21/2021 8:45:00 AM 3.16 37.688 0.529 8.09 4.69 13.18
12/21/2021 9:00:00 AM 3.19 37.742 0.529 8.11 4.52 13.35
12/21/2021 9:15:00 AM 3.24 37.832 0.528 8.12 4.95 13.52
12/21/2021 9:30:00 AM 3.3 37.94 0.528 8.15 5.26 13.68
12/21/2021 9:45:00 AM 3.37 38.066 0.527 8.15 4.67 13.85
12/21/2021 10:00:00 AM 3.47 38.246 0.527 8.19 4.57 14.02
12/21/2021 10:15:00 AM 3.57 38.426 0.526 8.22 4.98 14.18
12/21/2021 10:30:00 AM 3.68 38.624 0.526 8.24 4.64 14.32
12/21/2021 10:45:00 AM 3.79 38.822 0.525 8.25 5.16 14.43
12/21/2021 11:00:00 AM 3.89 39.002 0.524 8.28 4.6 14.53
12/21/2021 11:15:00 AM 3.99 39.182 0.523 8.31 4.54 14.63
12/21/2021 11:30:00 AM 4.09 39.362 0.523 8.32 4.56 14.7
12/21/2021 11:45:00 AM 4.22 39.596 0.522 8.34 4.59 14.79
12/21/2021 12:00:00 PM 4.35 39.83 0.521 8.36 4.5 14.85
12/21/2021 12:15:00 PM 4.47 40.046 0.52 8.38 4.51 14.9
12/21/2021 12:30:00 PM 4.57 40.226 0.52 8.4 4.41 14.93
12/21/2021 12:45:00 PM 4.68 40.424 0.519 8.41 4.42 14.95
12/21/2021 1:00:00 PM 4.81 40.658 0.518 8.42 4.49 14.99
12/21/2021 1:15:00 PM 4.92 40.856 0.517 8.44 4.47 15.02
12/21/2021 1:30:00 PM 5.05 41.09 0.516 8.46 4.53 15.03
12/21/2021 1:45:00 PM 5.16 41.288 0.515 8.47 4.48 15.04
12/21/2021 2:00:00 PM 5.25 41.45 0.515 8.48 4.61 15.05
12/21/2021 2:15:00 PM 5.33 41.594 0.514 8.49 4.56 15.01
12/21/2021 2:30:00 PM 5.39 41.702 0.514 8.5 4.64 14.95
12/21/2021 2:45:00 PM 5.45 41.81 0.513 8.51 4.55 14.89
12/21/2021 3:00:00 PM 5.5 41.9 0.512 8.51 4.62 14.78
12/21/2021 3:15:00 PM 5.54 41.972 0.512 8.52 4.62 14.67
12/21/2021 3:30:00 PM 5.57 42.026 0.511 8.51 7.69 14.5
12/21/2021 3:45:00 PM 5.6 42.08 0.511 8.5 5.32 14.37
12/21/2021 4:00:00 PM 5.62 42.116 0.511 8.51 4.76 14.18
12/21/2021 4:15:00 PM 5.64 42.152 0.511 8.5 4.75 13.96
12/21/2021 4:30:00 PM 5.65 42.17 0.51 8.49 4.64 13.72
12/21/2021 4:45:00 PM 5.66 42.188 0.51 8.48 4.58 13.48
12/21/2021 5:00:00 PM 5.65 42.17 0.51 8.46 4.64 13.25
12/21/2021 5:15:00 PM 5.65 42.17 0.51 8.45 4.66 13.05
12/21/2021 5:30:00 PM 5.65 42.17 0.51 8.43 4.72 12.87
12/21/2021 5:45:00 PM 5.65 42.17 0.51 8.42 4.83 12.71
12/21/2021 6:00:00 PM 5.66 42.188 0.509 8.4 4.7 12.57
12/21/2021 6:15:00 PM 5.67 42.206 0.509 8.38 4.63 12.45
12/21/2021 6:30:00 PM 5.7 42.26 0.509 8.38 4.57 12.35
12/21/2021 6:45:00 PM 5.74 42.332 0.509 8.36 4.53 12.25
12/21/2021 7:00:00 PM 5.78 42.404 0.509 8.35 4.54 12.17
12/21/2021 7:15:00 PM 5.82 42.476 0.509 8.33 4.74 12.09
12/21/2021 7:30:00 PM 5.86 42.548 0.509 8.32 4.52 12.02
12/21/2021 7:45:00 PM 5.89 42.602 0.509 8.31 4.66 11.96
12/21/2021 8:00:00 PM 5.92 42.656 0.509 8.29 4.52 11.91
12/21/2021 8:15:00 PM 5.96 42.728 0.51 8.29 4.57 11.86
12/21/2021 8:30:00 PM 5.99 42.782 0.51 8.28 4.51 11.81
12/21/2021 8:45:00 PM 6.03 42.854 0.51 8.26 4.6 11.77
12/21/2021 9:00:00 PM 6.06 42.908 0.51 8.26 4.6 11.73
12/21/2021 9:15:00 PM 6.09 42.962 0.511 8.24 4.55 11.69
12/21/2021 9:30:00 PM 6.11 42.998 0.511 8.23 4.6 11.65
12/21/2021 9:45:00 PM 6.14 43.052 0.512 8.22 4.65 11.62
12/21/2021 10:00:00 PM 6.16 43.088 0.512 8.21 4.57 11.59
12/21/2021 10:15:00 PM 6.18 43.124 0.513 8.2 4.62 11.56
12/21/2021 10:30:00 PM 6.2 43.16 0.514 8.18 4.69 11.54
12/21/2021 10:45:00 PM 6.21 43.178 0.515 8.17 4.58 11.51
12/21/2021 11:00:00 PM 6.23 43.214 0.516 8.16 4.5 11.49
12/21/2021 11:15:00 PM 6.24 43.232 0.517 8.14 4.48 11.46
12/21/2021 11:30:00 PM 6.25 43.25 0.518 8.13 4.59 11.44
12/21/2021 11:45:00 PM 6.25 43.25 0.519 8.12 4.64 11.42
12/22/2021 12:00:00 AM 6.25 43.25 0.52 8.1 4.75 11.41
12/22/2021 12:15:00 AM 6.25 43.25 0.521 8.09 4.71 11.39
12/22/2021 12:30:00 AM 6.25 43.25 0.521 8.09 4.6 11.38
12/22/2021 12:45:00 AM 6.25 43.25 0.522 8.07 4.69 11.38
12/22/2021 1:00:00 AM 6.24 43.232 0.522 8.07 5.01 11.36
12/22/2021 1:15:00 AM 6.24 43.232 0.523 8.07 5.31 11.36
12/22/2021 1:30:00 AM 6.24 43.232 0.523 8.06 5.37 11.35
12/22/2021 1:45:00 AM 6.24 43.232 0.523 8.05 5.35 11.34
12/22/2021 2:00:00 AM 6.23 43.214 0.523 8.05 4.99 11.34
12/22/2021 2:15:00 AM 6.23 43.214 0.523 8.04 5.01 11.33
12/22/2021 2:30:00 AM 6.23 43.214 0.523 8.04 4.62 11.32
12/22/2021 2:45:00 AM 6.23 43.214 0.523 8.04 4.77 11.32
12/22/2021 3:00:00 AM 6.23 43.214 0.523 8.03 4.71 11.32
12/22/2021 3:15:00 AM 6.22 43.196 0.523 8.03 4.66 11.32
12/22/2021 3:30:00 AM 6.22 43.196 0.523 8.03 4.73 11.31
12/22/2021 3:45:00 AM 6.21 43.178 0.523 8.03 4.64 11.32
12/22/2021 4:00:00 AM 6.2 43.16 0.523 8.02 4.56 11.32
12/22/2021 4:15:00 AM 6.2 43.16 0.522 8.03 4.63 11.31
12/22/2021 4:30:00 AM 6.19 43.142 0.522 8.03 4.65 11.31
12/22/2021 4:45:00 AM 6.17 43.106 0.522 8.02 4.69 11.31
12/22/2021 5:00:00 AM 6.13 43.034 0.522 8.01 4.61 11.32
12/22/2021 5:15:00 AM 6.08 42.944 0.522 8.02 4.68 11.32
12/22/2021 5:30:00 AM 6.03 42.854 0.522 8.02 4.81 11.33
12/22/2021 5:45:00 AM 5.99 42.782 0.522 8.02 4.74 11.34
12/22/2021 6:00:00 AM 5.96 42.728 0.522 8.02 4.76 11.35
12/22/2021 6:15:00 AM 5.92 42.656 0.521 8.02 4.8 11.35
12/22/2021 6:30:00 AM 5.89 42.602 0.521 8.02 4.66 11.36
12/22/2021 6:45:00 AM 5.85 42.53 0.521 8.01 4.82 11.37
12/22/2021 7:00:00 AM 5.81 42.458 0.521 8.01 4.85 11.38
12/22/2021 7:15:00 AM 5.77 42.386 0.521 8.02 4.7 11.39
12/22/2021 7:30:00 AM 5.74 42.332 0.521 8.01 4.85 11.41
12/22/2021 7:45:00 AM 5.7 42.26 0.521 8.01 4.71 11.45
12/22/2021 8:00:00 AM 5.69 42.242 0.521 8.02 4.7 11.52
12/22/2021 8:15:00 AM 5.68 42.224 0.521 8.03 4.8 11.61
12/22/2021 8:30:00 AM 5.66 42.188 0.521 8.04 4.79 11.73
12/22/2021 8:45:00 AM 5.65 42.17 0.52 8.05 4.65 11.86
12/22/2021 9:00:00 AM 5.67 42.206 0.52 8.07 4.53 12.07
12/22/2021 9:15:00 AM 5.71 42.278 0.52 8.1 4.58 12.24
12/22/2021 9:30:00 AM 5.73 42.314 0.519 8.12 4.53 12.39
12/22/2021 9:45:00 AM 5.74 42.332 0.519 8.12 4.66 12.5
12/22/2021 10:00:00 AM 5.78 42.404 0.519 8.15 4.8 12.64
12/22/2021 10:15:00 AM 5.84 42.512 0.518 8.17 4.71 12.82
12/22/2021 10:30:00 AM 5.95 42.71 0.518 8.19 4.62 13.04
12/22/2021 10:45:00 AM 6.04 42.872 0.517 8.23 4.61 13.22
12/22/2021 11:00:00 AM 6.13 43.034 0.516 8.25 4.56 13.34
12/22/2021 11:15:00 AM 6.19 43.142 0.515 8.27 4.67 13.49
12/22/2021 11:30:00 AM 6.32 43.376 0.515 8.3 4.6 13.61
12/22/2021 11:45:00 AM 6.4 43.52 0.514 8.32 4.55 13.71
12/22/2021 12:00:00 PM 6.46 43.628 0.513 8.35 4.65 13.85
12/22/2021 12:15:00 PM 6.44 43.592 0.513 8.36 4.76 13.87
12/22/2021 12:30:00 PM 6.51 43.718 0.512 8.37 4.87 13.93
12/22/2021 12:45:00 PM 6.61 43.898 0.511 8.39 4.77 14.01
12/22/2021 1:00:00 PM 6.68 44.024 0.51 8.41 4.84 14.09
12/22/2021 1:15:00 PM 6.79 44.222 0.51 8.43 4.77 14.17
12/22/2021 1:30:00 PM 6.83 44.294 0.509 8.44 5.66 14.22
12/22/2021 1:45:00 PM 6.84 44.312 0.508 8.46 5.68 14.19
12/22/2021 2:00:00 PM 6.84 44.312 0.508 8.47 5.55 14.16
12/22/2021 2:15:00 PM 6.82 44.276 0.508 8.47 5.02 14.09
12/22/2021 2:30:00 PM 6.83 44.294 0.507 8.48 5.21 14.01
12/22/2021 2:45:00 PM 6.85 44.33 0.506 8.48 5.03 13.92
12/22/2021 3:00:00 PM -99999.99 -179968 -99999.99 -99999.99 -99999.99 -99999.99
12/22/2021 3:15:00 PM 6.84 44.312 0.506 8.49 5.13 13.71
12/22/2021 3:30:00 PM 6.81 44.258 0.505 8.48 4.97 13.6
12/22/2021 3:45:00 PM 6.78 44.204 0.505 8.49 4.96 13.46
12/22/2021 4:00:00 PM 6.73 44.114 0.505 8.48 4.97 13.32
12/22/2021 4:15:00 PM 6.68 44.024 0.504 8.47 4.86 13.16
12/22/2021 4:30:00 PM 6.6 43.88 0.504 8.46 5.15 13
12/22/2021 4:45:00 PM 6.53 43.754 0.504 8.45 5.75 12.82
12/22/2021 5:00:00 PM 6.48 43.664 0.504 8.43 4.91 12.64
12/22/2021 5:15:00 PM 6.4 43.52 0.504 8.41 4.77 12.47
12/22/2021 5:30:00 PM 6.33 43.394 0.504 8.39 4.83 12.32
12/22/2021 5:45:00 PM 6.25 43.25 0.504 8.37 4.83 12.21
12/22/2021 6:00:00 PM 6.18 43.124 0.504 8.36 4.95 12.11
12/22/2021 6:15:00 PM 6.12 43.016 0.504 8.34 4.96 12.03
12/22/2021 6:30:00 PM 6.07 42.926 0.504 8.33 5.19 11.97
12/22/2021 6:45:00 PM 6 42.8 0.504 8.33 5.04 11.91
12/22/2021 7:00:00 PM 5.93 42.674 0.504 8.31 5 11.88
12/22/2021 7:15:00 PM 5.87 42.566 0.504 8.31 4.96 11.84
12/22/2021 7:30:00 PM 5.82 42.476 0.504 8.29 5.02 11.82
12/22/2021 7:45:00 PM 5.79 42.422 0.504 8.29 4.97 11.79
12/22/2021 8:00:00 PM 5.73 42.314 0.504 8.28 4.8 11.78
12/22/2021 8:15:00 PM 5.68 42.224 0.504 8.27 4.87 11.78
12/22/2021 8:30:00 PM 5.64 42.152 0.505 8.27 5.06 11.77
12/22/2021 8:45:00 PM 5.57 42.026 0.505 8.25 5.05 11.78
12/22/2021 9:00:00 PM 5.51 41.918 0.506 8.25 5.02 11.78
12/22/2021 9:15:00 PM 5.44 41.792 0.507 8.24 5.06 11.78
12/22/2021 9:30:00 PM 5.39 41.702 0.507 8.22 5.04 11.79
12/22/2021 9:45:00 PM 5.35 41.63 0.508 8.21 4.95 11.8
12/22/2021 10:00:00 PM 5.28 41.504 0.509 8.2 5.05 11.82
12/22/2021 10:15:00 PM 5.2 41.36 0.51 8.19 5.12 11.84
12/22/2021 10:30:00 PM 5.14 41.252 0.511 8.18 5.17 11.85
12/22/2021 10:45:00 PM 5.07 41.126 0.512 8.17 5.04 11.87
12/22/2021 11:00:00 PM 5 41 0.513 8.16 4.96 11.89
12/22/2021 11:15:00 PM 4.94 40.892 0.514 8.14 4.94 11.9
12/22/2021 11:30:00 PM 4.86 40.748 0.516 8.14 4.87 11.92
12/22/2021 11:45:00 PM 4.78 40.604 0.517 8.13 4.93 11.95
12/23/2021 12:00:00 AM 4.7 40.46 0.518 8.12 4.9 11.97
12/23/2021 12:15:00 AM 4.62 40.316 0.519 8.1 4.89 12
12/23/2021 12:30:00 AM 4.54 40.172 0.521 8.09 4.95 12.03
12/23/2021 12:45:00 AM 4.47 40.046 0.522 8.09 4.9 12.05
12/23/2021 1:00:00 AM 4.4 39.92 0.523 8.07 5.01 12.07
12/23/2021 1:15:00 AM 4.32 39.776 0.523 8.07 5.16 12.1
12/23/2021 1:30:00 AM 4.25 39.65 0.524 8.07 4.92 12.13
12/23/2021 1:45:00 AM 4.18 39.524 0.525 8.06 4.89 12.16
12/23/2021 2:00:00 AM 4.11 39.398 0.526 8.05 5.16 12.18
12/23/2021 2:15:00 AM 4.04 39.272 0.526 8.05 4.89 12.21
12/23/2021 2:30:00 AM 3.97 39.146 0.527 8.05 4.9 12.23
12/23/2021 2:45:00 AM 3.91 39.038 0.527 8.03 4.95 12.27
12/23/2021 3:00:00 AM 3.84 38.912 0.527 8.03 5.06 12.29
12/23/2021 3:15:00 AM 3.79 38.822 0.527 8.04 4.96 12.32
12/23/2021 3:30:00 AM 3.75 38.75 0.527 8.03 4.95 12.34
12/23/2021 3:45:00 AM 3.71 38.678 0.527 8.02 4.88 12.36
12/23/2021 4:00:00 AM 3.68 38.624 0.527 8.02 4.97 12.37
12/23/2021 4:15:00 AM 3.64 38.552 0.527 8.02 5.12 12.39
12/23/2021 4:30:00 AM 3.59 38.462 0.527 8.02 5.08 12.41
12/23/2021 4:45:00 AM 3.54 38.372 0.527 8.02 4.99 12.43
12/23/2021 5:00:00 AM 3.5 38.3 0.527 8.02 4.97 12.45
12/23/2021 5:15:00 AM 3.45 38.21 0.527 8.01 4.95 12.47
12/23/2021 5:30:00 AM 3.41 38.138 0.527 8.01 5 12.49
12/23/2021 5:45:00 AM 3.37 38.066 0.527 8.02 5.05 12.51
12/23/2021 6:00:00 AM 3.33 37.994 0.527 8 4.92 12.52
12/23/2021 6:15:00 AM 3.29 37.922 0.527 8.01 5.13 12.54
12/23/2021 6:30:00 AM 3.25 37.85 0.527 8.01 4.91 12.56
12/23/2021 6:45:00 AM 3.21 37.778 0.527 8.01 5.02 12.57
12/23/2021 7:00:00 AM 3.17 37.706 0.528 8.01 5.13 12.59
12/23/2021 7:15:00 AM 3.14 37.652 0.528 8.01 5.27 12.61
12/23/2021 7:30:00 AM 3.11 37.598 0.528 8.01 6.17 12.63
12/23/2021 7:45:00 AM 3.08 37.544 0.528 8.02 5.65 12.7
12/23/2021 8:00:00 AM 3.06 37.508 0.528 8.02 5.08 12.76
12/23/2021 8:15:00 AM 3.04 37.472 0.528 8.03 5.27 12.86
12/23/2021 8:30:00 AM 3.03 37.454 0.528 8.03 5.44 12.96
12/23/2021 8:45:00 AM 3.03 37.454 0.528 8.06 5.36 13.07
12/23/2021 9:00:00 AM 3.04 37.472 0.528 8.07 5 13.18
12/23/2021 9:15:00 AM 3.06 37.508 0.528 8.08 4.99 13.28
12/23/2021 9:30:00 AM 3.08 37.544 0.528 8.09 5.01 13.37
12/23/2021 9:45:00 AM 3.09 37.562 0.528 8.11 4.96 13.47
12/23/2021 10:00:00 AM 3.13 37.634 0.528 8.13 5.02 13.57
12/23/2021 10:15:00 AM 3.16 37.688 0.527 8.14 4.96 13.68
12/23/2021 10:30:00 AM 3.23 37.814 0.527 8.16 4.92 13.81
12/23/2021 10:45:00 AM 3.33 37.994 0.527 8.19 4.91 13.94
12/23/2021 11:00:00 AM 3.41 38.138 0.526 8.2 4.91 14.05
12/23/2021 11:15:00 AM 3.52 38.336 0.525 8.23 4.9 14.19
12/23/2021 11:30:00 AM 3.67 38.606 0.525 8.25 4.77 14.34
12/23/2021 11:45:00 AM 3.8 38.84 0.524 8.27 4.81 14.51
12/23/2021 12:00:00 PM 3.91 39.038 0.523 8.3 4.97 14.64
12/23/2021 12:15:00 PM 4 39.2 0.522 8.33 4.93 14.75
12/23/2021 12:30:00 PM 4.13 39.434 0.521 8.34 5.01 14.86
12/23/2021 12:45:00 PM 4.23 39.614 0.52 8.37 4.99 14.93
12/23/2021 1:00:00 PM 4.34 39.812 0.52 8.38 4.97 14.99
12/23/2021 1:15:00 PM 4.43 39.974 0.519 8.4 5 15.04
12/23/2021 1:30:00 PM 4.53 40.154 0.518 8.43 5.02 15.04
12/23/2021 1:45:00 PM 4.62 40.316 0.518 8.43 4.95 15.01
12/23/2021 2:00:00 PM 4.68 40.424 0.517 8.44 5.25 14.96
12/23/2021 2:15:00 PM 4.71 40.478 0.517 8.44 5.22 14.84
12/23/2021 2:30:00 PM 4.73 40.514 0.516 8.45 5.41 14.74
12/23/2021 2:45:00 PM 4.78 40.604 0.516 8.45 5.14 14.68
12/23/2021 3:00:00 PM 4.8 40.64 0.516 8.46 5 14.6
12/23/2021 3:15:00 PM 4.83 40.694 0.515 8.46 5.44 14.51
12/23/2021 3:30:00 PM 4.87 40.766 0.515 8.47 4.99 14.47
12/23/2021 3:45:00 PM 4.89 40.802 0.514 8.47 5.04 14.37
12/23/2021 4:00:00 PM 4.89 40.802 0.514 8.47 5.05 14.24
12/23/2021 4:15:00 PM 4.88 40.784 0.514 8.47 5.93 14.09
12/23/2021 4:30:00 PM 4.88 40.784 0.514 8.46 4.89 13.91
12/23/2021 4:45:00 PM 4.87 40.766 0.514 8.44 4.91 13.71
12/23/2021 5:00:00 PM 4.85 40.73 0.513 8.44 4.96 13.51
12/23/2021 5:15:00 PM 4.83 40.694 0.513 8.43 5 13.31
12/23/2021 5:30:00 PM 4.81 40.658 0.513 8.42 4.94 13.16
12/23/2021 5:45:00 PM 4.8 40.64 0.512 8.4 4.89 13.01
12/23/2021 6:00:00 PM 4.79 40.622 0.512 8.39 4.92 12.88
12/23/2021 6:15:00 PM 4.79 40.622 0.512 8.37 4.88 12.77
12/23/2021 6:30:00 PM 4.8 40.64 0.511 8.37 4.91 12.67
12/23/2021 6:45:00 PM 4.82 40.676 0.511 8.36 5.01 12.59
12/23/2021 7:00:00 PM 4.84 40.712 0.511 8.34 4.97 12.51
12/23/2021 7:15:00 PM 4.86 40.748 0.51 8.33 4.96 12.45
12/23/2021 7:30:00 PM 4.88 40.784 0.51 8.32 4.91 12.39
12/23/2021 7:45:00 PM 4.9 40.82 0.51 8.31 4.95 12.34
12/23/2021 8:00:00 PM 4.91 40.838 0.511 8.3 4.96 12.3
12/23/2021 8:15:00 PM 4.92 40.856 0.511 8.29 4.96 12.26
12/23/2021 8:30:00 PM 4.93 40.874 0.511 8.28 5.02 12.23
12/23/2021 8:45:00 PM 4.94 40.892 0.511 8.27 4.96 12.19
12/23/2021 9:00:00 PM 4.94 40.892 0.512 8.26 4.96 12.17
12/23/2021 9:15:00 PM 4.95 40.91 0.512 8.25 5.03 12.14
12/23/2021 9:30:00 PM 4.95 40.91 0.512 8.24 5.01 12.12
12/23/2021 9:45:00 PM 4.96 40.928 0.513 8.23 5.01 12.1
12/23/2021 10:00:00 PM 4.96 40.928 0.514 8.22 4.96 12.08
12/23/2021 10:15:00 PM 4.96 40.928 0.514 8.21 4.87 12.07
12/23/2021 10:30:00 PM 4.97 40.946 0.515 8.2 4.9 12.05
12/23/2021 10:45:00 PM 4.97 40.946 0.516 8.18 5.04 12.03
12/23/2021 11:00:00 PM 4.98 40.964 0.517 8.18 5.04 12.02
12/23/2021 11:15:00 PM 4.99 40.982 0.518 8.17 4.93 12
12/23/2021 11:30:00 PM 5 41 0.519 8.15 4.97 11.98
12/23/2021 11:45:00 PM 5 41 0.52 8.14 4.95 11.97
12/24/2021 12:00:00 AM 5.01 41.018 0.521 8.12 4.96 11.96
12/24/2021 12:15:00 AM 5 41 0.522 8.12 5.03 11.94
12/24/2021 12:30:00 AM 5 41 0.523 8.11 4.94 11.93
12/24/2021 12:45:00 AM 5 41 0.524 8.1 4.91 11.92
12/24/2021 1:00:00 AM 5 41 0.525 8.09 4.95 11.92
12/24/2021 1:15:00 AM 5 41 0.525 8.09 4.87 11.91
12/24/2021 1:30:00 AM 5 41 0.526 8.08 4.88 11.91
12/24/2021 1:45:00 AM 4.99 40.982 0.526 8.07 4.88 11.91
12/24/2021 2:00:00 AM 4.99 40.982 0.526 8.07 4.89 11.9
12/24/2021 2:15:00 AM 4.99 40.982 0.526 8.06 4.85 11.9
12/24/2021 2:30:00 AM 4.98 40.964 0.526 8.06 4.94 11.9
12/24/2021 2:45:00 AM 4.99 40.982 0.527 8.06 4.9 11.89
12/24/2021 3:00:00 AM 4.99 40.982 0.527 8.05 4.98 11.89
12/24/2021 3:15:00 AM 5 41 0.527 8.05 5 11.88
12/24/2021 3:30:00 AM 5.01 41.018 0.527 8.05 5.04 11.88
12/24/2021 3:45:00 AM 5.01 41.018 0.527 8.05 5.22 11.88
12/24/2021 4:00:00 AM 5.02 41.036 0.527 8.05 5.61 11.87
12/24/2021 4:15:00 AM 5.02 41.036 0.527 8.04 5.38 11.87
12/24/2021 4:30:00 AM 5.03 41.054 0.527 8.04 5.1 11.87
12/24/2021 4:45:00 AM 5.03 41.054 0.527 8.04 5.05 11.87
12/24/2021 5:00:00 AM 5.03 41.054 0.526 8.04 4.98 11.87
12/24/2021 5:15:00 AM 5.03 41.054 0.526 8.04 5.08 11.86
12/24/2021 5:30:00 AM 5.04 41.072 0.526 8.03 4.99 11.87
12/24/2021 5:45:00 AM 5.04 41.072 0.526 8.04 5.01 11.87
12/24/2021 6:00:00 AM 5.05 41.09 0.526 8.04 5.05 11.86
12/24/2021 6:15:00 AM 5.04 41.072 0.526 8.04 5.05 11.86
12/24/2021 6:30:00 AM 5.01 41.018 0.526 8.03 5.12 11.87
12/24/2021 6:45:00 AM 4.97 40.946 0.526 8.03 5.03 11.87
12/24/2021 7:00:00 AM 4.93 40.874 0.526 8.03 5.05 11.88
12/24/2021 7:15:00 AM 4.89 40.802 0.526 8.03 4.97 11.88
12/24/2021 7:30:00 AM 4.86 40.748 0.526 8.03 5.09 11.91
12/24/2021 7:45:00 AM 4.82 40.676 0.526 8.03 5.09 11.95
12/24/2021 8:00:00 AM 4.8 40.64 0.526 8.04 5.08 12.02
12/24/2021 8:15:00 AM 4.77 40.586 0.526 8.05 5.15 12.13
12/24/2021 8:30:00 AM 4.75 40.55 0.526 8.06 5.15 12.26
12/24/2021 8:45:00 AM 4.73 40.514 0.526 8.07 4.99 12.39
12/24/2021 9:00:00 AM 4.72 40.496 0.526 8.09 5.16 12.53
12/24/2021 9:15:00 AM 4.72 40.496 0.525 8.11 5.14 12.67
12/24/2021 9:30:00 AM 4.73 40.514 0.525 8.11 5.09 12.8
12/24/2021 9:45:00 AM 4.74 40.532 0.525 8.14 5.04 12.93
12/24/2021 10:00:00 AM 4.78 40.604 0.525 8.15 5.01 13.06
12/24/2021 10:15:00 AM 4.83 40.694 0.524 8.17 5.09 13.18
12/24/2021 10:30:00 AM 4.9 40.82 0.524 8.19 5.11 13.33
12/24/2021 10:45:00 AM 5.01 41.018 0.523 8.21 5.04 13.44
12/24/2021 11:00:00 AM 5.12 41.216 0.522 8.23 4.82 13.63
12/24/2021 11:15:00 AM 5.22 41.396 0.522 8.25 4.79 13.74
12/24/2021 11:30:00 AM 5.32 41.576 0.521 8.27 4.88 13.84
12/24/2021 11:45:00 AM 5.43 41.774 0.52 8.29 4.88 13.92
12/24/2021 12:00:00 PM 5.55 41.99 0.52 8.31 5 14
12/24/2021 12:15:00 PM 5.66 42.188 0.519 8.33 5 14.07
12/24/2021 12:30:00 PM 5.77 42.386 0.518 8.34 4.81 14.13
12/24/2021 12:45:00 PM 5.89 42.602 0.517 8.37 4.73 14.21
12/24/2021 1:00:00 PM 5.99 42.782 0.517 8.39 4.8 14.25
12/24/2021 1:15:00 PM 6.09 42.962 0.516 8.4 4.82 14.28
12/24/2021 1:30:00 PM 6.18 43.124 0.515 8.42 4.71 14.31
12/24/2021 1:45:00 PM 6.26 43.268 0.515 8.43 4.71 14.34
12/24/2021 2:00:00 PM 6.35 43.43 0.514 8.45 4.73 14.38
12/24/2021 2:15:00 PM 6.43 43.574 0.513 8.46 4.78 14.38
12/24/2021 2:30:00 PM 6.52 43.736 0.512 8.47 4.77 14.35
12/24/2021 2:45:00 PM 6.59 43.862 0.511 8.48 4.71 14.29
12/24/2021 3:00:00 PM 6.66 43.988 0.511 8.49 4.71 14.21
12/24/2021 3:15:00 PM 6.72 44.096 0.51 8.5 4.85 14.11
12/24/2021 3:30:00 PM 6.77 44.186 0.509 8.49 4.75 14.02
12/24/2021 3:45:00 PM 6.81 44.258 0.509 8.5 4.91 13.88
12/24/2021 4:00:00 PM 6.82 44.276 0.509 8.49 4.84 13.69
12/24/2021 4:15:00 PM 6.81 44.258 0.508 8.48 4.93 13.46
12/24/2021 4:30:00 PM 6.8 44.24 0.508 8.47 4.96 13.24
12/24/2021 4:45:00 PM 6.79 44.222 0.508 8.45 4.92 13
12/24/2021 5:00:00 PM 6.78 44.204 0.508 8.44 4.98 12.78
12/24/2021 5:15:00 PM 6.77 44.186 0.508 8.43 4.89 12.58
12/24/2021 5:30:00 PM 6.78 44.204 0.507 8.41 4.83 12.4
12/24/2021 5:45:00 PM 6.79 44.222 0.507 8.4 4.77 12.26
12/24/2021 6:00:00 PM 6.8 44.24 0.507 8.38 4.7 12.12
12/24/2021 6:15:00 PM 6.83 44.294 0.506 8.37 4.71 12.01
12/24/2021 6:30:00 PM 6.86 44.348 0.506 8.36 4.71 11.9
12/24/2021 6:45:00 PM 6.88 44.384 0.505 8.35 4.82 11.81
12/24/2021 7:00:00 PM 6.91 44.438 0.505 8.33 4.76 11.72
12/24/2021 7:15:00 PM 6.94 44.492 0.505 8.33 4.82 11.65
12/24/2021 7:30:00 PM 6.96 44.528 0.505 8.3 5.19 11.59
12/24/2021 7:45:00 PM 6.97 44.546 0.505 8.3 4.87 11.53
12/24/2021 8:00:00 PM 6.99 44.582 0.505 8.28 4.78 11.49
12/24/2021 8:15:00 PM 6.98 44.564 0.505 8.28 4.76 11.45
12/24/2021 8:30:00 PM 6.97 44.546 0.505 8.26 4.88 11.41
12/24/2021 8:45:00 PM 6.96 44.528 0.505 8.25 4.84 11.38
12/24/2021 9:00:00 PM 6.96 44.528 0.506 8.24 4.84 11.36
12/24/2021 9:15:00 PM 6.95 44.51 0.506 8.23 4.77 11.34
12/24/2021 9:30:00 PM 6.95 44.51 0.507 8.21 4.82 11.31
12/24/2021 9:45:00 PM 6.94 44.492 0.507 8.2 4.83 11.3
12/24/2021 10:00:00 PM 6.95 44.51 0.508 8.19 4.84 11.28
12/24/2021 10:15:00 PM 6.94 44.492 0.509 8.18 4.88 11.27
12/24/2021 10:30:00 PM 6.94 44.492 0.51 8.17 4.85 11.25
12/24/2021 10:45:00 PM 6.94 44.492 0.511 8.14 4.88 11.24
12/24/2021 11:00:00 PM 6.94 44.492 0.512 8.14 4.9 11.22
12/24/2021 11:15:00 PM -99999.99 -179968 -99999.99 -99999.99 -99999.99 -99999.99
12/24/2021 11:30:00 PM 6.95 44.51 0.515 8.12 4.76 11.19
12/24/2021 11:45:00 PM 6.95 44.51 0.516 8.11 4.73 11.17
12/25/2021 12:00:00 AM 6.95 44.51 0.517 8.07 4.68 11.16
12/25/2021 12:15:00 AM 6.95 44.51 0.518 8.08 4.67 11.14
12/25/2021 12:30:00 AM 6.95 44.51 0.519 8.08 4.73 11.14
12/25/2021 12:45:00 AM 6.95 44.51 0.519 8.06 4.79 11.13
12/25/2021 1:00:00 AM 6.95 44.51 0.519 8.06 4.72 11.11
12/25/2021 1:15:00 AM 6.95 44.51 0.52 8.05 4.81 11.11
12/25/2021 1:30:00 AM 6.95 44.51 0.52 8.03 4.66 11.1
12/25/2021 1:45:00 AM 6.96 44.528 0.521 8.04 4.65 11.1
12/25/2021 2:00:00 AM 6.96 44.528 0.521 8.03 4.81 11.09
12/25/2021 2:15:00 AM 6.95 44.51 0.521 8.04 4.74 11.09
12/25/2021 2:30:00 AM 6.95 44.51 0.521 8.03 4.84 11.09
12/25/2021 2:45:00 AM 6.95 44.51 0.521 8.03 4.81 11.08
12/25/2021 3:00:00 AM 6.94 44.492 0.521 8.02 4.87 11.08
12/25/2021 3:15:00 AM 6.93 44.474 0.521 8 4.7 11.08
12/25/2021 3:30:00 AM 6.92 44.456 0.521 8.02 4.85 11.08
12/25/2021 3:45:00 AM -99999.99 -179968 -99999.99 -99999.99 -99999.99 -99999.99
12/25/2021 4:00:00 AM 6.9 44.42 0.521 8.02 4.97 11.09
12/25/2021 4:15:00 AM 6.89 44.402 0.521 8.01 5.12 11.08
12/25/2021 4:30:00 AM 6.89 44.402 0.521 8.01 5.06 11.08
12/25/2021 4:45:00 AM 6.89 44.402 0.521 8.01 4.81 11.08
12/25/2021 5:00:00 AM 6.89 44.402 0.521 8.01 4.9 11.08
12/25/2021 5:15:00 AM 6.89 44.402 0.521 8.01 4.89 11.07
12/25/2021 5:30:00 AM 6.89 44.402 0.521 8.01 5.05 11.07
12/25/2021 5:45:00 AM 6.9 44.42 0.521 8 5.71 11.07
12/25/2021 6:00:00 AM 6.9 44.42 0.52 8 5.05 11.07
12/25/2021 6:15:00 AM 6.9 44.42 0.52 8.01 4.89 11.06
12/25/2021 6:30:00 AM 6.91 44.438 0.52 8.01 4.96 11.06
12/25/2021 6:45:00 AM 6.91 44.438 0.52 8 4.78 11.05
12/25/2021 7:00:00 AM 6.92 44.456 0.52 8 4.74 11.05
12/25/2021 7:15:00 AM 6.92 44.456 0.52 8 4.7 11.05
12/25/2021 7:30:00 AM 6.93 44.474 0.52 8.01 4.76 11.05
12/25/2021 7:45:00 AM 6.93 44.474 0.52 8 4.83 11.06
12/25/2021 8:00:00 AM 6.94 44.492 0.52 8 4.73 11.07
12/25/2021 8:15:00 AM 6.94 44.492 0.52 8.01 5.02 11.1
12/25/2021 8:30:00 AM 6.95 44.51 0.52 8.02 4.72 11.14
12/25/2021 8:45:00 AM 6.95 44.51 0.52 8.02 4.72 11.16
12/25/2021 9:00:00 AM 6.96 44.528 0.519 8.01 4.75 11.2
12/25/2021 9:15:00 AM 6.98 44.564 0.519 8.03 5.03 11.29
12/25/2021 9:30:00 AM 7.01 44.618 0.518 8.05 5.04 11.45
12/25/2021 9:45:00 AM 7.06 44.708 0.518 8.07 4.98 11.7
12/25/2021 10:00:00 AM 7.12 44.816 0.517 8.1 4.66 11.97
12/25/2021 10:15:00 AM 7.17 44.906 0.517 8.12 4.71 12.14
12/25/2021 10:30:00 AM 7.2 44.96 0.517 8.13 4.91 12.2
12/25/2021 10:45:00 AM 7.23 45.014 0.516 8.15 4.62 12.25
12/25/2021 11:00:00 AM 7.28 45.104 0.516 8.17 4.87 12.37
12/25/2021 11:15:00 AM 7.34 45.212 0.515 8.19 4.65 12.54
12/25/2021 11:30:00 AM 7.38 45.284 0.515 8.21 4.63 12.61
12/25/2021 11:45:00 AM 7.44 45.392 0.514 8.23 4.7 12.71
12/25/2021 12:00:00 PM 7.49 45.482 0.514 8.24 4.71 12.74
12/25/2021 12:15:00 PM 7.55 45.59 0.513 8.24 4.74 12.78
12/25/2021 12:30:00 PM 7.68 45.824 0.513 8.28 4.76 13.02
12/25/2021 12:45:00 PM 7.84 46.112 0.512 8.31 5 13.26
12/25/2021 1:00:00 PM 7.94 46.292 0.511 8.33 4.77 13.4
12/25/2021 1:15:00 PM 8.08 46.544 0.51 8.36 4.85 13.57
12/25/2021 1:30:00 PM 8.2 46.76 0.509 8.38 4.85 13.67
12/25/2021 1:45:00 PM 8.24 46.832 0.509 8.4 4.59 13.63
12/25/2021 2:00:00 PM 8.32 46.976 0.508 8.41 4.9 13.63
12/25/2021 2:15:00 PM 8.39 47.102 0.507 8.43 4.58 13.61
12/25/2021 2:30:00 PM 8.49 47.282 0.507 8.44 4.67 13.62
12/25/2021 2:45:00 PM 8.56 47.408 0.506 8.45 4.62 13.54
12/25/2021 3:00:00 PM 8.62 47.516 0.506 8.45 4.6 13.44
12/25/2021 3:15:00 PM 8.69 47.642 0.505 8.45 4.59 13.32
12/25/2021 3:30:00 PM 8.73 47.714 0.505 8.44 4.59 13.08
12/25/2021 3:45:00 PM 8.77 47.786 0.505 8.43 4.6 12.81
12/25/2021 4:00:00 PM 8.79 47.822 0.506 8.41 4.59 12.55
12/25/2021 4:15:00 PM 8.8 47.84 0.506 8.39 4.64 12.29
12/25/2021 4:30:00 PM 8.81 47.858 0.506 8.36 4.62 12.07
12/25/2021 4:45:00 PM 8.82 47.876 0.505 8.34 4.64 11.86
12/25/2021 5:00:00 PM 8.83 47.894 0.505 8.33 4.63 11.67
12/25/2021 5:15:00 PM 8.84 47.912 0.505 8.3 4.73 11.5
12/25/2021 5:30:00 PM 8.84 47.912 0.505 8.28 4.7 11.37
12/25/2021 5:45:00 PM 8.85 47.93 0.505 8.27 4.72 11.24
12/25/2021 6:00:00 PM 8.85 47.93 0.505 8.24 4.89 11.13
12/25/2021 6:15:00 PM 8.87 47.966 0.505 8.23 4.89 11.05
12/25/2021 6:30:00 PM 8.88 47.984 0.504 8.22 5.19 10.96
12/25/2021 6:45:00 PM 8.9 48.02 0.504 8.19 4.83 10.9
12/25/2021 7:00:00 PM 8.92 48.056 0.503 8.2 5.05 10.84
12/25/2021 7:15:00 PM 8.94 48.092 0.503 8.19 4.94 10.79
12/25/2021 7:30:00 PM 8.96 48.128 0.502 8.18 4.68 10.74
12/25/2021 7:45:00 PM 8.99 48.182 0.501 8.17 4.73 10.69
12/25/2021 8:00:00 PM 9.01 48.218 0.501 8.17 4.78 10.65
12/25/2021 8:15:00 PM 9.03 48.254 0.501 8.16 4.83 10.62
12/25/2021 8:30:00 PM 9.04 48.272 0.501 8.16 4.69 10.59
12/25/2021 8:45:00 PM 9.05 48.29 0.501 8.15 4.69 10.56
12/25/2021 9:00:00 PM 9.06 48.308 0.501 8.14 4.69 10.53
12/25/2021 9:15:00 PM 9.06 48.308 0.501 8.13 4.82 10.51
12/25/2021 9:30:00 PM 9.06 48.308 0.502 8.13 5.01 10.49
12/25/2021 9:45:00 PM 9.04 48.272 0.502 8.12 4.77 10.47
12/25/2021 10:00:00 PM 9.02 48.236 0.503 8.11 4.91 10.46
12/25/2021 10:15:00 PM 9.03 48.254 0.504 8.1 4.89 10.44
12/25/2021 10:30:00 PM 9.03 48.254 0.505 8.09 4.85 10.43
12/25/2021 10:45:00 PM 9.02 48.236 0.506 8.08 4.91 10.42
12/25/2021 11:00:00 PM 9.02 48.236 0.507 8.07 4.91 10.42
12/25/2021 11:15:00 PM 9.01 48.218 0.508 8.06 4.73 10.4
12/25/2021 11:30:00 PM 9.01 48.218 0.509 8.05 5.03 10.4
12/25/2021 11:45:00 PM 9.01 48.218 0.51 8.04 4.8 10.4
12/26/2021 12:00:00 AM 9.02 48.236 0.51 8.03 4.77 10.39
12/26/2021 12:15:00 AM 9 48.2 0.51 8.03 4.8 10.39
12/26/2021 12:30:00 AM 8.98 48.164 0.511 8.03 4.79 10.39
12/26/2021 12:45:00 AM 8.95 48.11 0.511 8.02 4.78 10.39
12/26/2021 1:00:00 AM 8.93 48.074 0.511 8.01 4.78 10.4
12/26/2021 1:15:00 AM 8.9 48.02 0.511 8.01 4.75 10.4
12/26/2021 1:30:00 AM 8.86 47.948 0.511 8.01 4.76 10.4
12/26/2021 1:45:00 AM 8.82 47.876 0.511 8.01 5.28 10.41
12/26/2021 2:00:00 AM 8.76 47.768 0.511 8.01 5.19 10.43
12/26/2021 2:15:00 AM 8.71 47.678 0.511 7.99 4.82 10.44
12/26/2021 2:30:00 AM 8.65 47.57 0.511 8 5.13 10.45
12/26/2021 2:45:00 AM 8.58 47.444 0.511 7.99 4.98 10.48
12/26/2021 3:00:00 AM 8.52 47.336 0.511 7.99 5.15 10.5
12/26/2021 3:15:00 AM 8.45 47.21 0.511 7.99 4.85 10.52
12/26/2021 3:30:00 AM 8.39 47.102 0.511 8 4.84 10.54
12/26/2021 3:45:00 AM 8.33 46.994 0.511 7.99 4.89 10.56
12/26/2021 4:00:00 AM 8.28 46.904 0.512 7.99 5.2 10.59
12/26/2021 4:15:00 AM 8.22 46.796 0.512 7.99 4.92 10.61
12/26/2021 4:30:00 AM 8.15 46.67 0.512 7.99 5.01 10.63
12/26/2021 4:45:00 AM 8.09 46.562 0.512 7.99 4.92 10.65
12/26/2021 5:00:00 AM 8.03 46.454 0.512 7.99 4.92 10.67
12/26/2021 5:15:00 AM 7.98 46.364 0.512 7.99 4.77 10.69
12/26/2021 5:30:00 AM 7.93 46.274 0.512 7.99 4.83 10.72
12/26/2021 5:45:00 AM 7.89 46.202 0.512 7.99 4.8 10.74
12/26/2021 6:00:00 AM 7.84 46.112 0.513 7.98 4.82 10.76
12/26/2021 6:15:00 AM 7.79 46.022 0.513 7.99 5.11 10.78
12/26/2021 6:30:00 AM 7.74 45.932 0.513 7.99 4.87 10.79
12/26/2021 6:45:00 AM 7.69 45.842 0.513 7.99 4.82 10.81
12/26/2021 7:00:00 AM 7.63 45.734 0.514 7.99 4.8 10.84
12/26/2021 7:15:00 AM 7.58 45.644 0.514 7.99 4.83 10.86
12/26/2021 7:30:00 AM 7.52 45.536 0.514 7.99 4.87 10.9
12/26/2021 7:45:00 AM 7.47 45.446 0.514 8 4.84 10.96
12/26/2021 8:00:00 AM 7.42 45.356 0.514 8.01 4.69 11.04
12/26/2021 8:15:00 AM 7.38 45.284 0.514 8.01 4.76 11.15
12/26/2021 8:30:00 AM 7.33 45.194 0.514 8.03 4.8 11.27
12/26/2021 8:45:00 AM 7.3 45.14 0.514 8.03 4.91 11.39
12/26/2021 9:00:00 AM 7.26 45.068 0.514 8.05 4.71 11.51
12/26/2021 9:15:00 AM 7.24 45.032 0.514 8.06 4.6 11.64
12/26/2021 9:30:00 AM 7.22 44.996 0.514 8.07 4.68 11.76
12/26/2021 9:45:00 AM 7.2 44.96 0.513 8.09 4.6 11.89
12/26/2021 10:00:00 AM 7.2 44.96 0.513 8.1 4.64 12.03
12/26/2021 10:15:00 AM 7.21 44.978 0.513 8.12 4.62 12.18
12/26/2021 10:30:00 AM 7.25 45.05 0.512 8.15 4.65 12.36
12/26/2021 10:45:00 AM 7.31 45.158 0.512 8.17 4.68 12.55
12/26/2021 11:00:00 AM 7.38 45.284 0.511 8.19 4.64 12.72
12/26/2021 11:15:00 AM 7.44 45.392 0.51 8.21 4.61 12.87
12/26/2021 11:30:00 AM 7.49 45.482 0.509 8.24 4.62 13.01
12/26/2021 11:45:00 AM 7.57 45.626 0.509 8.27 4.65 13.15
12/26/2021 12:00:00 PM 7.64 45.752 0.508 8.29 4.68 13.28
12/26/2021 12:15:00 PM 7.72 45.896 0.507 8.31 4.61 13.4
12/26/2021 12:30:00 PM 7.8 46.04 0.507 8.33 4.57 13.49
12/26/2021 12:45:00 PM 7.88 46.184 0.506 8.36 4.62 13.58
12/26/2021 1:00:00 PM 7.98 46.364 0.505 8.37 4.69 13.66
12/26/2021 1:15:00 PM 8.06 46.508 0.505 8.39 4.64 13.71
12/26/2021 1:30:00 PM 8.13 46.634 0.504 8.41 4.6 13.75
12/26/2021 1:45:00 PM 8.2 46.76 0.503 8.42 4.65 13.77
12/26/2021 2:00:00 PM 8.25 46.85 0.503 8.44 4.57 13.77
12/26/2021 2:15:00 PM 8.29 46.922 0.502 8.45 4.61 13.7
12/26/2021 2:30:00 PM 8.33 46.994 0.502 8.46 4.75 13.65
12/26/2021 2:45:00 PM 8.38 47.084 0.501 8.46 4.69 13.59
12/26/2021 3:00:00 PM 8.41 47.138 0.501 8.47 4.63 13.51
12/26/2021 3:15:00 PM 8.42 47.156 0.5 8.47 16.51 13.39
12/26/2021 3:30:00 PM 8.43 47.174 0.5 8.47 4.81 13.25
12/26/2021 3:45:00 PM 8.43 47.174 0.5 8.47 4.69 13.11
12/26/2021 4:00:00 PM 8.43 47.174 0.5 8.46 4.79 12.93
12/26/2021 4:15:00 PM 8.39 47.102 0.5 8.44 4.63 12.74
12/26/2021 4:30:00 PM 8.36 47.048 0.5 8.44 4.66 12.58
12/26/2021 4:45:00 PM 8.33 46.994 0.5 8.42 4.68 12.41
12/26/2021 5:00:00 PM 8.29 46.922 0.5 8.41 4.8 12.23
12/26/2021 5:15:00 PM 8.23 46.814 0.501 8.38 4.75 12.03
12/26/2021 5:30:00 PM 8.17 46.706 0.501 8.37 4.74 11.84
12/26/2021 5:45:00 PM 8.11 46.598 0.501 8.35 4.97 11.7
12/26/2021 6:00:00 PM 8.07 46.526 0.501 8.33 4.83 11.59
12/26/2021 6:15:00 PM 8.03 46.454 0.501 8.31 4.86 11.49
12/26/2021 6:30:00 PM 8 46.4 0.501 8.29 4.91 11.41
12/26/2021 6:45:00 PM 7.97 46.346 0.501 8.29 4.78 11.34
12/26/2021 7:00:00 PM 7.95 46.31 0.5 8.28 4.78 11.28
12/26/2021 7:15:00 PM 7.93 46.274 0.501 8.27 4.79 11.23
12/26/2021 7:30:00 PM 7.91 46.238 0.501 8.26 4.79 11.2
12/26/2021 7:45:00 PM 7.88 46.184 0.501 8.25 4.92 11.16
12/26/2021 8:00:00 PM 7.86 46.148 0.501 8.24 4.78 11.14
12/26/2021 8:15:00 PM 7.83 46.094 0.501 8.23 4.85 11.12
12/26/2021 8:30:00 PM 7.79 46.022 0.502 8.22 4.78 11.11
12/26/2021 8:45:00 PM 7.75 45.95 0.502 8.22 4.86 11.09
12/26/2021 9:00:00 PM 7.71 45.878 0.503 8.2 4.9 11.08
12/26/2021 9:15:00 PM 7.67 45.806 0.503 8.2 4.78 11.08
12/26/2021 9:30:00 PM 7.61 45.698 0.504 8.19 4.9 11.08
12/26/2021 9:45:00 PM 7.56 45.608 0.505 8.17 5.02 11.08
12/26/2021 10:00:00 PM 7.5 45.5 0.505 8.16 4.92 11.09
12/26/2021 10:15:00 PM 7.43 45.374 0.506 8.16 4.8 11.1
12/26/2021 10:30:00 PM 7.35 45.23 0.507 8.15 4.8 11.11
12/26/2021 10:45:00 PM 7.28 45.104 0.508 8.14 4.77 11.12
12/26/2021 11:00:00 PM 7.2 44.96 0.509 8.12 4.93 11.14
12/26/2021 11:15:00 PM 7.12 44.816 0.511 8.12 4.93 11.16
12/26/2021 11:30:00 PM 7.03 44.654 0.512 8.11 4.82 11.18
12/26/2021 11:45:00 PM 6.95 44.51 0.513 8.09 4.76 11.2
12/27/2021 12:00:00 AM 6.86 44.348 0.514 8.09 4.84 11.22
12/27/2021 12:15:00 AM 6.78 44.204 0.516 8.08 4.88 11.24
12/27/2021 12:30:00 AM 6.69 44.042 0.516 8.07 4.9 11.26
12/27/2021 12:45:00 AM 6.61 43.898 0.517 8.06 4.84 11.28
12/27/2021 1:00:00 AM 6.53 43.754 0.518 8.06 4.87 11.31
12/27/2021 1:15:00 AM 6.45 43.61 0.519 8.04 5.3 11.34
12/27/2021 1:30:00 AM 6.37 43.466 0.519 8.05 4.89 11.36
12/27/2021 1:45:00 AM 6.29 43.322 0.52 8.04 4.88 11.39
12/27/2021 2:00:00 AM 6.2 43.16 0.52 8.03 4.78 11.42
12/27/2021 2:15:00 AM 6.13 43.034 0.521 8.03 4.94 11.45
12/27/2021 2:30:00 AM 6.05 42.89 0.521 8.02 4.85 11.47
12/27/2021 2:45:00 AM 5.98 42.764 0.521 8.03 4.85 11.51
12/27/2021 3:00:00 AM 5.93 42.674 0.522 8.03 4.93 11.52
12/27/2021 3:15:00 AM 5.88 42.584 0.522 8.02 4.98 11.54
12/27/2021 3:30:00 AM 5.83 42.494 0.522 8.02 5.19 11.57
12/27/2021 3:45:00 AM 5.8 42.44 0.522 8.02 5.05 11.59
12/27/2021 4:00:00 AM 5.76 42.368 0.522 8.01 5.2 11.61
12/27/2021 4:15:00 AM 5.73 42.314 0.522 8.01 4.97 11.62
12/27/2021 4:30:00 AM 5.7 42.26 0.522 8.01 5.03 11.63
12/27/2021 4:45:00 AM 5.67 42.206 0.522 8.01 4.84 11.65
12/27/2021 5:00:00 AM 5.64 42.152 0.522 8 4.97 11.66
12/27/2021 5:15:00 AM 5.62 42.116 0.522 8.01 5.27 11.67
12/27/2021 5:30:00 AM 5.61 42.098 0.523 8.01 4.95 11.68
12/27/2021 5:45:00 AM 5.59 42.062 0.523 8.01 5.32 11.68
12/27/2021 6:00:00 AM 5.57 42.026 0.522 8.01 4.8 11.69
12/27/2021 6:15:00 AM 5.56 42.008 0.523 8.01 4.85 11.7
12/27/2021 6:30:00 AM 5.54 41.972 0.523 8.01 4.86 11.71
12/27/2021 6:45:00 AM 5.52 41.936 0.523 8.01 4.8 11.72
12/27/2021 7:00:00 AM 5.51 41.918 0.523 8 4.88 11.72
12/27/2021 7:15:00 AM 5.5 41.9 0.523 8.01 4.86 11.73
12/27/2021 7:30:00 AM 5.49 41.882 0.523 8 4.89 11.74
12/27/2021 7:45:00 AM 5.48 41.864 0.523 8.01 4.93 11.76
12/27/2021 8:00:00 AM 5.48 41.864 0.523 8.01 6.39 11.8
12/27/2021 8:15:00 AM 5.48 41.864 0.523 8.02 5.06 11.86
12/27/2021 8:30:00 AM 5.49 41.882 0.523 8.02 4.86 11.92
12/27/2021 8:45:00 AM 5.49 41.882 0.523 8.03 4.76 11.96
12/27/2021 9:00:00 AM 5.5 41.9 0.523 8.04 4.75 12
12/27/2021 9:15:00 AM 5.52 41.936 0.523 8.05 4.76 12.12
12/27/2021 9:30:00 AM 5.57 42.026 0.522 8.07 4.67 12.35
12/27/2021 9:45:00 AM 5.63 42.134 0.522 8.1 4.72 12.62
12/27/2021 10:00:00 AM 5.66 42.188 0.522 8.13 5.01 12.81
12/27/2021 10:15:00 AM 5.67 42.206 0.522 8.14 4.93 12.82
12/27/2021 10:30:00 AM 5.68 42.224 0.522 8.15 4.84 12.79
12/27/2021 10:45:00 AM 5.69 42.242 0.522 8.14 4.79 12.72
12/27/2021 11:00:00 AM 5.71 42.278 0.522 8.15 4.71 12.72
12/27/2021 11:15:00 AM 5.72 42.296 0.521 8.17 4.69 12.84
12/27/2021 11:30:00 AM 5.69 42.242 0.521 8.17 4.74 12.93
12/27/2021 11:45:00 AM 5.67 42.206 0.52 8.19 4.83 12.98
12/27/2021 12:00:00 PM 5.67 42.206 0.52 8.2 4.75 13.05
12/27/2021 12:15:00 PM 5.59 42.062 0.519 8.22 4.79 13.13
12/27/2021 12:30:00 PM 5.6 42.08 0.518 8.22 5.07 13.23
12/27/2021 12:45:00 PM 5.6 42.08 0.517 8.24 4.87 13.35
12/27/2021 1:00:00 PM 5.63 42.134 0.517 8.26 4.82 13.4
12/27/2021 1:15:00 PM 5.66 42.188 0.516 8.27 4.87 13.46
12/27/2021 1:30:00 PM 5.69 42.242 0.516 8.27 4.72 13.44
12/27/2021 1:45:00 PM 5.71 42.278 0.516 8.28 4.72 13.39
12/27/2021 2:00:00 PM 5.74 42.332 0.516 8.28 4.69 13.36
12/27/2021 2:15:00 PM 5.77 42.386 0.516 8.29 4.72 13.37
12/27/2021 2:30:00 PM 5.81 42.458 0.516 8.3 4.73 13.4
12/27/2021 2:45:00 PM 5.84 42.512 0.515 8.3 4.66 13.34
12/27/2021 3:00:00 PM 5.86 42.548 0.515 8.28 4.58 13.23
12/27/2021 3:15:00 PM 5.87 42.566 0.516 8.29 4.63 13.13
12/27/2021 3:30:00 PM 5.89 42.602 0.516 8.27 4.71 13.02
12/27/2021 3:45:00 PM 5.9 42.62 0.516 8.28 4.78 12.92
12/27/2021 4:00:00 PM 5.91 42.638 0.516 8.27 4.75 12.8
12/27/2021 4:15:00 PM 5.92 42.656 0.516 8.25 4.73 12.66
12/27/2021 4:30:00 PM 5.93 42.674 0.516 8.24 4.79 12.53
12/27/2021 4:45:00 PM 5.94 42.692 0.516 8.23 4.8 12.41
12/27/2021 5:00:00 PM 5.95 42.71 0.516 8.22 4.83 12.29
12/27/2021 5:15:00 PM 5.96 42.728 0.516 8.2 4.71 12.19
12/27/2021 5:30:00 PM 5.97 42.746 0.516 8.19 4.83 12.1
12/27/2021 5:45:00 PM 5.98 42.764 0.516 8.18 4.79 12.03
12/27/2021 6:00:00 PM 5.99 42.782 0.517 8.17 4.8 11.97
12/27/2021 6:15:00 PM 6.01 42.818 0.516 8.17 4.8 11.91
12/27/2021 6:30:00 PM 6.01 42.818 0.516 8.15 4.77 11.87
12/27/2021 6:45:00 PM 6.02 42.836 0.516 8.15 4.69 11.82
12/27/2021 7:00:00 PM 6.03 42.854 0.516 8.14 4.68 11.79
12/27/2021 7:15:00 PM 6.04 42.872 0.516 8.13 4.77 11.76
12/27/2021 7:30:00 PM 6.04 42.872 0.515 8.13 4.97 11.74
12/27/2021 7:45:00 PM 6.05 42.89 0.515 8.13 4.74 11.72
12/27/2021 8:00:00 PM 6.06 42.908 0.515 8.13 4.84 11.7
12/27/2021 8:15:00 PM 6.06 42.908 0.514 8.13 4.93 11.68
12/27/2021 8:30:00 PM 6.07 42.926 0.514 8.12 4.96 11.66
12/27/2021 8:45:00 PM 6.08 42.944 0.514 8.12 4.95 11.65
12/27/2021 9:00:00 PM 6.08 42.944 0.514 8.11 4.91 11.63
12/27/2021 9:15:00 PM 6.09 42.962 0.514 8.11 4.82 11.61
12/27/2021 9:30:00 PM 6.09 42.962 0.514 8.11 4.91 11.6
12/27/2021 9:45:00 PM 6.1 42.98 0.514 8.1 4.94 11.58
12/27/2021 10:00:00 PM 6.11 42.998 0.514 8.1 4.88 11.57
12/27/2021 10:15:00 PM 6.11 42.998 0.514 8.09 4.91 11.56
12/27/2021 10:30:00 PM 6.11 42.998 0.514 8.08 4.87 11.54
12/27/2021 10:45:00 PM 6.11 42.998 0.514 8.08 4.88 11.53
12/27/2021 11:00:00 PM 6.12 43.016 0.515 8.07 4.84 11.51
12/27/2021 11:15:00 PM 6.13 43.034 0.515 8.07 5.01 11.5
12/27/2021 11:30:00 PM 6.13 43.034 0.516 8.06 5.01 11.49
12/27/2021 11:45:00 PM 6.14 43.052 0.516 8.06 4.85 11.48
12/28/2021 12:00:00 AM 6.15 43.07 0.516 8.05 4.88 11.47
12/28/2021 12:15:00 AM 6.15 43.07 0.517 8.04 4.87 11.46
12/28/2021 12:30:00 AM 6.16 43.088 0.517 8.04 4.85 11.45
12/28/2021 12:45:00 AM 6.17 43.106 0.517 8.04 4.95 11.45
12/28/2021 1:00:00 AM 6.17 43.106 0.517 8.04 4.87 11.43
12/28/2021 1:15:00 AM 6.18 43.124 0.517 8.04 4.97 11.43
12/28/2021 1:30:00 AM 6.18 43.124 0.518 8.04 4.84 11.43
12/28/2021 1:45:00 AM 6.17 43.106 0.518 8.03 4.8 11.43
12/28/2021 2:00:00 AM 6.18 43.124 0.518 8.02 5.37 11.42
12/28/2021 2:15:00 AM 6.18 43.124 0.518 8.03 5.45 11.42
12/28/2021 2:30:00 AM 6.19 43.142 0.518 8.03 5.12 11.42
12/28/2021 2:45:00 AM 6.2 43.16 0.518 8.01 4.98 11.42
12/28/2021 3:00:00 AM 6.2 43.16 0.518 8.02 5.04 11.41
12/28/2021 3:15:00 AM 6.21 43.178 0.518 8.02 5.16 11.41
12/28/2021 3:30:00 AM 6.22 43.196 0.518 8.02 5.49 11.41
12/28/2021 3:45:00 AM 6.23 43.214 0.518 8.02 5.51 11.41
12/28/2021 4:00:00 AM 6.24 43.232 0.518 8.02 5.06 11.4
12/28/2021 4:15:00 AM 6.24 43.232 0.518 8.01 4.91 11.4
12/28/2021 4:30:00 AM 6.2 43.16 0.517 8.01 5.17 11.41
12/28/2021 4:45:00 AM 6.16 43.088 0.517 8.02 5.01 11.41
12/28/2021 5:00:00 AM 6.13 43.034 0.517 8.02 4.96 11.41
12/28/2021 5:15:00 AM 6.11 42.998 0.517 8.01 5.96 11.42
12/28/2021 5:30:00 AM 6.11 42.998 0.517 8.01 4.91 11.42
12/28/2021 5:45:00 AM 6.11 42.998 0.517 8.01 4.92 11.42
12/28/2021 6:00:00 AM 6.1 42.98 0.516 8.01 4.86 11.43
12/28/2021 6:15:00 AM 6.09 42.962 0.516 8.01 5 11.44
12/28/2021 6:30:00 AM 6.09 42.962 0.516 8.01 4.92 11.44
12/28/2021 6:45:00 AM 6.08 42.944 0.516 8.01 4.92 11.45
12/28/2021 7:00:00 AM 6.07 42.926 0.516 8.01 5.04 11.45
12/28/2021 7:15:00 AM 6.05 42.89 0.516 8.01 5.02 11.46
12/28/2021 7:30:00 AM 6.05 42.89 0.516 8.01 5.06 11.47
12/28/2021 7:45:00 AM 6.04 42.872 0.516 8.01 4.95 11.49
12/28/2021 8:00:00 AM 6.03 42.854 0.517 8.02 5.02 11.53
12/28/2021 8:15:00 AM 6.03 42.854 0.517 8.02 4.97 11.61
12/28/2021 8:30:00 AM 6.03 42.854 0.517 8.03 4.96 11.69
12/28/2021 8:45:00 AM 6.03 42.854 0.517 8.04 4.96 11.81
12/28/2021 9:00:00 AM 6.03 42.854 0.517 8.06 4.93 11.94
12/28/2021 9:15:00 AM 6.07 42.926 0.517 8.07 4.99 12.17
12/28/2021 9:30:00 AM 6.07 42.926 0.517 8.11 4.91 12.37
12/28/2021 9:45:00 AM 6.1 42.98 0.517 8.12 4.9 12.56
12/28/2021 10:00:00 AM 6.15 43.07 0.516 8.16 4.98 12.76
12/28/2021 10:15:00 AM 6.22 43.196 0.515 8.18 4.98 12.98
12/28/2021 10:30:00 AM 6.28 43.304 0.515 8.21 4.89 13.15
12/28/2021 10:45:00 AM 6.34 43.412 0.514 8.23 4.87 13.28
12/28/2021 11:00:00 AM 6.41 43.538 0.514 8.25 4.78 13.39
12/28/2021 11:15:00 AM 6.47 43.646 0.513 8.27 4.73 13.46
12/28/2021 11:30:00 AM 6.53 43.754 0.512 8.28 4.85 13.5
12/28/2021 11:45:00 AM 6.58 43.844 0.512 8.3 4.71 13.5
12/28/2021 12:00:00 PM 6.64 43.952 0.512 8.31 4.8 13.48
12/28/2021 12:15:00 PM 6.69 44.042 0.511 8.32 4.72 13.48
12/28/2021 12:30:00 PM 6.73 44.114 0.511 8.33 4.71 13.48
12/28/2021 12:45:00 PM 6.79 44.222 0.511 8.33 4.74 13.54
12/28/2021 1:00:00 PM 6.87 44.366 0.51 8.35 4.76 13.66
12/28/2021 1:15:00 PM 6.92 44.456 0.51 8.37 4.84 13.74
12/28/2021 1:30:00 PM 6.95 44.51 0.509 8.38 4.72 13.72
12/28/2021 1:45:00 PM 6.96 44.528 0.509 8.38 4.73 13.65
12/28/2021 2:00:00 PM 6.95 44.51 0.509 8.38 4.74 13.5
12/28/2021 2:15:00 PM 6.95 44.51 0.51 8.37 4.71 13.32
12/28/2021 2:30:00 PM 6.95 44.51 0.51 8.35 4.78 13.16
12/28/2021 2:45:00 PM 6.97 44.546 0.51 8.35 4.84 13.07
12/28/2021 3:00:00 PM 6.98 44.564 0.51 8.34 4.79 13
12/28/2021 3:15:00 PM 6.99 44.582 0.51 8.34 4.81 12.85
12/28/2021 3:30:00 PM 7 44.6 0.51 8.32 4.83 12.69
12/28/2021 3:45:00 PM 7.01 44.618 0.51 8.31 4.8 12.54
12/28/2021 4:00:00 PM 7.02 44.636 0.509 8.29 4.84 12.42
12/28/2021 4:15:00 PM 7.03 44.654 0.509 8.28 4.72 12.29
12/28/2021 4:30:00 PM 7.04 44.672 0.509 8.27 4.8 12.17
12/28/2021 4:45:00 PM 7.05 44.69 0.509 8.26 4.82 12.05
12/28/2021 5:00:00 PM 7.07 44.726 0.509 8.25 4.84 11.94
12/28/2021 5:15:00 PM 7.09 44.762 0.508 8.23 4.79 11.84
12/28/2021 5:30:00 PM 7.11 44.798 0.508 8.23 4.78 11.75
12/28/2021 5:45:00 PM 7.13 44.834 0.508 8.22 4.81 11.67
12/28/2021 6:00:00 PM 7.15 44.87 0.508 8.22 4.73 11.6
12/28/2021 6:15:00 PM -99999.99 -179968 -99999.99 -99999.99 -99999.99 -99999.99
12/28/2021 6:30:00 PM 7.18 44.924 0.508 8.19 4.79 11.49
12/28/2021 6:45:00 PM 7.2 44.96 0.509 8.19 4.98 11.44
12/28/2021 7:00:00 PM 7.21 44.978 0.508 8.18 4.82 11.4
12/28/2021 7:15:00 PM -99999.99 -179968 -99999.99 -99999.99 -99999.99 -99999.99
12/28/2021 7:30:00 PM 7.23 45.014 0.509 8.17 4.89 11.34
12/28/2021 7:45:00 PM 7.24 45.032 0.509 8.15 4.89 11.31
12/28/2021 8:00:00 PM 7.25 45.05 0.509 8.15 4.77 11.28
12/28/2021 8:15:00 PM 7.26 45.068 0.509 8.15 4.95 11.26
12/28/2021 8:30:00 PM 7.28 45.104 0.509 8.14 4.9 11.24
12/28/2021 8:45:00 PM 7.29 45.122 0.51 8.14 4.89 11.21
12/28/2021 9:00:00 PM 7.3 45.14 0.51 8.12 4.84 11.2
12/28/2021 9:15:00 PM 7.31 45.158 0.511 8.12 4.87 11.17
12/28/2021 9:30:00 PM 7.32 45.176 0.511 8.11 4.78 11.16
12/28/2021 9:45:00 PM 7.32 45.176 0.512 8.1 4.91 11.15
12/28/2021 10:00:00 PM 7.33 45.194 0.513 8.1 4.87 11.13
12/28/2021 10:15:00 PM 7.33 45.194 0.513 8.09 4.78 11.12
12/28/2021 10:30:00 PM 7.33 45.194 0.514 8.08 4.95 11.1
12/28/2021 10:45:00 PM 7.33 45.194 0.515 8.08 4.81 11.09
12/28/2021 11:00:00 PM 7.34 45.212 0.515 8.07 4.84 11.08
12/28/2021 11:15:00 PM 7.34 45.212 0.516 8.06 4.86 11.07
12/28/2021 11:30:00 PM 7.33 45.194 0.516 8.06 4.81 11.06
12/28/2021 11:45:00 PM 7.34 45.212 0.517 8.06 4.83 11.05
12/29/2021 12:00:00 AM 7.34 45.212 0.517 8.04 4.79 11.04
12/29/2021 12:15:00 AM 7.34 45.212 0.517 8.05 4.81 11.03
12/29/2021 12:30:00 AM 7.34 45.212 0.518 8.04 4.72 11.03
12/29/2021 12:45:00 AM 7.34 45.212 0.518 8.03 4.8 11.01
12/29/2021 1:00:00 AM 7.34 45.212 0.518 8.03 4.77 11.01
12/29/2021 1:15:00 AM 7.34 45.212 0.518 8.02 4.83 11.01
12/29/2021 1:30:00 AM 7.33 45.194 0.518 8.03 4.83 11
12/29/2021 1:45:00 AM 7.33 45.194 0.517 8.03 4.9 11.01
12/29/2021 2:00:00 AM 7.29 45.122 0.514 8.02 4.98 11.02
12/29/2021 2:15:00 AM 7.29 45.122 0.513 8.02 5.36 11.01
12/29/2021 2:30:00 AM 7.28 45.104 0.513 8.02 5.37 10.99
12/29/2021 2:45:00 AM -99999.99 -179968 -99999.99 -99999.99 -99999.99 -99999.99
12/29/2021 3:00:00 AM 7.29 45.122 0.514 8.01 5.06 10.99
12/29/2021 3:15:00 AM 7.3 45.14 0.513 8.01 5.09 10.99
12/29/2021 3:30:00 AM 7.3 45.14 0.513 8.01 5.15 10.99
12/29/2021 3:45:00 AM 7.29 45.122 0.513 8.01 4.95 10.99
12/29/2021 4:00:00 AM 7.29 45.122 0.513 8 5.27 10.98
12/29/2021 4:15:00 AM 7.29 45.122 0.513 8 5.38 10.98
12/29/2021 4:30:00 AM 7.29 45.122 0.513 8.01 5.3 10.98
12/29/2021 4:45:00 AM 7.3 45.14 0.513 8 5.17 10.98
12/29/2021 5:00:00 AM 7.3 45.14 0.513 8 5.14 10.99
12/29/2021 5:15:00 AM 7.3 45.14 0.513 8 4.99 10.99
12/29/2021 5:30:00 AM 7.3 45.14 0.514 8 5.16 10.99
12/29/2021 5:45:00 AM 7.3 45.14 0.514 8 5.15 10.99
12/29/2021 6:00:00 AM 7.3 45.14 0.514 8 5.03 10.99
12/29/2021 6:15:00 AM 7.28 45.104 0.514 8 4.99 11
12/29/2021 6:30:00 AM 7.27 45.086 0.514 8 5 11
12/29/2021 6:45:00 AM 7.27 45.086 0.514 8 5.05 11.01
12/29/2021 7:00:00 AM 7.28 45.104 0.514 7.99 5 11.01
12/29/2021 7:15:00 AM 7.28 45.104 0.515 8 4.99 11.01
12/29/2021 7:30:00 AM 7.29 45.122 0.515 8 5.03 11.02
12/29/2021 7:45:00 AM 7.29 45.122 0.514 8 5.03 11.04
12/29/2021 8:00:00 AM 7.3 45.14 0.514 8 5.19 11.08
12/29/2021 8:15:00 AM 7.31 45.158 0.513 8.01 5.26 11.17
12/29/2021 8:30:00 AM 7.32 45.176 0.513 8.02 6.02 11.24
12/29/2021 8:45:00 AM 7.35 45.23 0.512 8.03 5.41 11.36
12/29/2021 9:00:00 AM 7.38 45.284 0.512 8.05 5.59 11.51
12/29/2021 9:15:00 AM 7.41 45.338 0.511 8.06 5.16 11.66
12/29/2021 9:30:00 AM 7.44 45.392 0.51 8.08 7.84 11.82
12/29/2021 9:45:00 AM 7.5 45.5 0.51 8.11 5.1 12.03
12/29/2021 10:00:00 AM 7.54 45.572 0.509 8.12 5.09 12.18
12/29/2021 10:15:00 AM 7.59 45.662 0.508 8.15 5.19 12.35
12/29/2021 10:30:00 AM 7.65 45.77 0.508 8.17 5.18 12.52
12/29/2021 10:45:00 AM 7.71 45.878 0.507 8.2 6.56 12.71
12/29/2021 11:00:00 AM 7.78 46.004 0.507 8.23 5.4 12.89
12/29/2021 11:15:00 AM 7.86 46.148 0.506 8.25 5.23 13.05
12/29/2021 11:30:00 AM 7.91 46.238 0.506 8.26 5.52 13.15
12/29/2021 11:45:00 AM 8.01 46.418 0.506 8.3 5.65 13.28
12/29/2021 12:00:00 PM 8.07 46.526 0.505 8.32 5.73 13.4
12/29/2021 12:15:00 PM 8.11 46.598 0.505 8.33 5.68 13.44
12/29/2021 12:30:00 PM 8.21 46.778 0.505 8.35 5.64 13.51
12/29/2021 12:45:00 PM 8.25 46.85 0.505 8.36 5.61 13.55
12/29/2021 1:00:00 PM 8.38 47.084 0.505 8.38 5.69 13.67
12/29/2021 1:15:00 PM 8.48 47.264 0.504 8.4 5.56 13.78
12/29/2021 1:30:00 PM 8.53 47.354 0.504 8.42 5.31 13.79
12/29/2021 1:45:00 PM 8.58 47.444 0.504 8.42 5.2 13.77
12/29/2021 2:00:00 PM 8.64 47.552 0.503 8.44 5.19 13.76
12/29/2021 2:15:00 PM 8.71 47.678 0.503 8.45 5.11 13.8
12/29/2021 2:30:00 PM 8.8 47.84 0.502 8.47 5.03 13.84
12/29/2021 2:45:00 PM 8.87 47.966 0.501 8.47 5.1 13.86
12/29/2021 3:00:00 PM 8.92 48.056 0.501 8.49 4.98 13.79
12/29/2021 3:15:00 PM 8.96 48.128 0.5 8.49 5.25 13.69
12/29/2021 3:30:00 PM 9 48.2 0.5 8.49 5.06 13.53
12/29/2021 3:45:00 PM 9.02 48.236 0.5 8.48 4.91 13.31
12/29/2021 4:00:00 PM 9.02 48.236 0.499 8.46 5.01 13.09
12/29/2021 4:15:00 PM 9.01 48.218 0.5 8.46 4.91 12.86
12/29/2021 4:30:00 PM 8.96 48.128 0.5 8.44 4.94 12.6
12/29/2021 4:45:00 PM 8.92 48.056 0.5 8.41 5.05 12.34
12/29/2021 5:00:00 PM 8.87 47.966 0.5 8.39 4.94 12.1
12/29/2021 5:15:00 PM 8.83 47.894 0.5 8.36 4.99 11.88
12/29/2021 5:30:00 PM 8.8 47.84 0.499 8.33 5.07 11.71
12/29/2021 5:45:00 PM 8.76 47.768 0.499 8.31 5.08 11.56
12/29/2021 6:00:00 PM 8.73 47.714 0.499 8.3 5 11.43
12/29/2021 6:15:00 PM 8.71 47.678 0.498 8.28 5 11.32
12/29/2021 6:30:00 PM 8.68 47.624 0.498 8.27 4.96 11.23
12/29/2021 6:45:00 PM 8.67 47.606 0.497 8.25 4.92 11.15
12/29/2021 7:00:00 PM 8.66 47.588 0.497 8.24 5.05 11.08
12/29/2021 7:15:00 PM 8.66 47.588 0.497 8.23 5.07 11.02
12/29/2021 7:30:00 PM 8.66 47.588 0.496 8.21 5.03 10.97
12/29/2021 7:45:00 PM 8.67 47.606 0.496 8.21 4.93 10.92
12/29/2021 8:00:00 PM 8.67 47.606 0.496 8.21 5.01 10.88
12/29/2021 8:15:00 PM 8.68 47.624 0.496 8.19 4.96 10.84
12/29/2021 8:30:00 PM 8.69 47.642 0.496 8.19 5.13 10.81
12/29/2021 8:45:00 PM 8.7 47.66 0.496 8.19 5.17 10.78
12/29/2021 9:00:00 PM 8.71 47.678 0.496 8.18 5.04 10.76
12/29/2021 9:15:00 PM 8.72 47.696 0.496 8.17 4.91 10.74
12/29/2021 9:30:00 PM 8.72 47.696 0.497 8.16 4.95 10.72
12/29/2021 9:45:00 PM 8.73 47.714 0.497 8.16 4.94 10.7
12/29/2021 10:00:00 PM 8.73 47.714 0.498 8.15 4.95 10.69
12/29/2021 10:15:00 PM 8.73 47.714 0.499 8.14 5 10.67
12/29/2021 10:30:00 PM 8.73 47.714 0.5 8.13 4.98 10.66
12/29/2021 10:45:00 PM 8.72 47.696 0.501 8.12 4.9 10.65
12/29/2021 11:00:00 PM 8.72 47.696 0.502 8.1 4.98 10.64
12/29/2021 11:15:00 PM 8.7 47.66 0.503 8.1 4.93 10.64
12/29/2021 11:30:00 PM 8.69 47.642 0.505 8.07 5.08 10.63
12/29/2021 11:45:00 PM 8.67 47.606 0.506 8.07 4.97 10.63
12/30/2021 12:00:00 AM 8.65 47.57 0.507 8.06 4.99 10.63
12/30/2021 12:15:00 AM 8.63 47.534 0.508 8.04 5 10.62
12/30/2021 12:30:00 AM 8.61 47.498 0.508 8.03 4.89 10.62
12/30/2021 12:45:00 AM 8.59 47.462 0.509 8.04 5.01 10.62
12/30/2021 1:00:00 AM 8.57 47.426 0.51 8.03 4.98 10.62
12/30/2021 1:15:00 AM 8.55 47.39 0.51 8.02 5 10.63
12/30/2021 1:30:00 AM 8.53 47.354 0.51 8 5.15 10.63
12/30/2021 1:45:00 AM 8.51 47.318 0.51 8.01 5.03 10.63
12/30/2021 2:00:00 AM 8.5 47.3 0.51 8 5.18 10.63
12/30/2021 2:15:00 AM 8.49 47.282 0.51 7.99 5.01 10.62
12/30/2021 2:30:00 AM 8.48 47.264 0.51 7.99 5 10.63
12/30/2021 2:45:00 AM 8.47 47.246 0.51 7.99 5.15 10.63
12/30/2021 3:00:00 AM 8.46 47.228 0.51 7.99 5.08 10.63
12/30/2021 3:15:00 AM 8.46 47.228 0.511 7.99 5.1 10.63
12/30/2021 3:30:00 AM 8.46 47.228 0.511 7.98 5.12 10.63
12/30/2021 3:45:00 AM 8.46 47.228 0.511 7.98 5.08 10.63
12/30/2021 4:00:00 AM 8.46 47.228 0.511 7.98 5.2 10.63
12/30/2021 4:15:00 AM 8.46 47.228 0.512 7.97 5.19 10.63
12/30/2021 4:30:00 AM 8.46 47.228 0.512 7.98 5.15 10.63
12/30/2021 4:45:00 AM 8.46 47.228 0.512 7.98 5.12 10.63
12/30/2021 5:00:00 AM 8.46 47.228 0.512 7.97 5.17 10.64
12/30/2021 5:15:00 AM 8.46 47.228 0.512 7.98 4.98 10.64
12/30/2021 5:30:00 AM 8.46 47.228 0.512 7.98 5.18 10.63
12/30/2021 5:45:00 AM 8.46 47.228 0.512 7.97 5.06 10.64
12/30/2021 6:00:00 AM 8.47 47.246 0.513 7.98 5.1 10.64
12/30/2021 6:15:00 AM 8.47 47.246 0.513 7.97 5.23 10.64
12/30/2021 6:30:00 AM 8.47 47.246 0.512 7.97 5.39 10.64
12/30/2021 6:45:00 AM 8.48 47.264 0.512 7.97 5.44 10.64
12/30/2021 7:00:00 AM 8.48 47.264 0.512 7.97 5.21 10.64
12/30/2021 7:15:00 AM 8.49 47.282 0.512 7.97 5.07 10.63
12/30/2021 7:30:00 AM 8.49 47.282 0.512 7.97 5.14 10.64
12/30/2021 7:45:00 AM 8.49 47.282 0.512 7.97 5.06 10.65
12/30/2021 8:00:00 AM 8.5 47.3 0.512 7.97 5.01 10.67
12/30/2021 8:15:00 AM 8.51 47.318 0.512 7.97 5.12 10.72
12/30/2021 8:30:00 AM 8.52 47.336 0.512 7.98 5.01 10.77
12/30/2021 8:45:00 AM 8.53 47.354 0.511 7.99 4.91 10.85
12/30/2021 9:00:00 AM 8.55 47.39 0.511 8 4.98 10.96
12/30/2021 9:15:00 AM 8.58 47.444 0.511 8.02 5.05 11.11
12/30/2021 9:30:00 AM 8.61 47.498 0.511 8.04 5.23 11.28
12/30/2021 9:45:00 AM 8.65 47.57 0.511 8.05 5.16 11.44
12/30/2021 10:00:00 AM 8.67 47.606 0.51 8.07 5.12 11.53
12/30/2021 10:15:00 AM 8.69 47.642 0.51 8.08 5.37 11.56
12/30/2021 10:30:00 AM 8.71 47.678 0.51 8.09 5.11 11.6
12/30/2021 10:45:00 AM 8.73 47.714 0.51 8.1 5 11.68
12/30/2021 11:00:00 AM 8.8 47.84 0.51 8.13 5.14 11.9
12/30/2021 11:15:00 AM 8.87 47.966 0.51 8.16 5.26 12.16
12/30/2021 11:30:00 AM 8.94 48.092 0.509 8.19 5.27 12.37
12/30/2021 11:45:00 AM 9.01 48.218 0.509 8.21 5.13 12.55
12/30/2021 12:00:00 PM 9.09 48.362 0.508 8.25 5.26 12.73
12/30/2021 12:15:00 PM 9.16 48.488 0.508 8.27 5.27 12.84
12/30/2021 12:30:00 PM 9.22 48.596 0.508 8.27 5.3 12.89
12/30/2021 12:45:00 PM 9.27 48.686 0.508 8.3 5.07 12.92
12/30/2021 1:00:00 PM 9.35 48.83 0.507 8.32 5.1 13.03
12/30/2021 1:15:00 PM 9.43 48.974 0.507 8.34 5.2 13.13
12/30/2021 1:30:00 PM 9.52 49.136 0.506 8.36 5.08 13.24
12/30/2021 1:45:00 PM 9.55 49.19 0.506 8.37 5.17 13.15
12/30/2021 2:00:00 PM 9.57 49.226 0.506 8.36 4.97 12.99
12/30/2021 2:15:00 PM 9.59 49.262 0.507 8.36 5.35 12.8
12/30/2021 2:30:00 PM 9.6 49.28 0.507 8.34 5.18 12.62
12/30/2021 2:45:00 PM 9.61 49.298 0.507 8.33 5.44 12.43
12/30/2021 3:00:00 PM 9.62 49.316 0.508 8.32 5.27 12.22
12/30/2021 3:15:00 PM 9.63 49.334 0.508 8.3 5.33 12.02
12/30/2021 3:30:00 PM 9.64 49.352 0.508 8.28 5.08 11.86
12/30/2021 3:45:00 PM 9.65 49.37 0.508 8.27 5.04 11.72
12/30/2021 4:00:00 PM 9.66 49.388 0.508 8.26 5.06 11.58
12/30/2021 4:15:00 PM 9.67 49.406 0.508 8.24 5.01 11.45
12/30/2021 4:30:00 PM 9.68 49.424 0.508 8.22 5 11.3
12/30/2021 4:45:00 PM 9.68 49.424 0.508 8.21 4.82 11.17
12/30/2021 5:00:00 PM 9.69 49.442 0.508 8.19 4.94 11.06
12/30/2021 5:15:00 PM 9.69 49.442 0.508 8.17 5.06 10.95
12/30/2021 5:30:00 PM 9.7 49.46 0.508 8.16 5.06 10.86
12/30/2021 5:45:00 PM 9.71 49.478 0.508 8.14 4.98 10.78
12/30/2021 6:00:00 PM 9.72 49.496 0.507 8.15 5.03 10.72
12/30/2021 6:15:00 PM 9.73 49.514 0.507 8.13 4.99 10.67
12/30/2021 6:30:00 PM 9.74 49.532 0.506 8.13 4.92 10.63
12/30/2021 6:45:00 PM 9.75 49.55 0.506 8.12 4.85 10.59
12/30/2021 7:00:00 PM 9.77 49.586 0.506 8.11 4.95 10.55
12/30/2021 7:15:00 PM 9.78 49.604 0.505 8.11 5.16 10.52
12/30/2021 7:30:00 PM 9.79 49.622 0.505 8.11 5.07 10.49
12/30/2021 7:45:00 PM 9.8 49.64 0.505 8.1 5 10.46
12/30/2021 8:00:00 PM 9.82 49.676 0.505 8.1 5 10.45
12/30/2021 8:15:00 PM 9.83 49.694 0.505 8.09 4.95 10.42
12/30/2021 8:30:00 PM 9.83 49.694 0.505 8.08 4.94 10.4
12/30/2021 8:45:00 PM 9.84 49.712 0.505 8.08 4.95 10.39
12/30/2021 9:00:00 PM 9.84 49.712 0.506 8.07 5.02 10.37
12/30/2021 9:15:00 PM 9.85 49.73 0.506 8.07 5.01 10.36
12/30/2021 9:30:00 PM 9.85 49.73 0.507 8.06 5 10.34
12/30/2021 9:45:00 PM 9.85 49.73 0.507 8.05 4.89 10.33
12/30/2021 10:00:00 PM 9.84 49.712 0.508 8.05 4.94 10.32
12/30/2021 10:15:00 PM 9.84 49.712 0.508 8.04 5 10.32
12/30/2021 10:30:00 PM 9.84 49.712 0.509 8.04 4.89 10.31
12/30/2021 10:45:00 PM 9.83 49.694 0.51 8.03 4.98 10.3
12/30/2021 11:00:00 PM 9.83 49.694 0.51 8.02 4.89 10.29
12/30/2021 11:15:00 PM 9.82 49.676 0.511 8.02 5 10.29
12/30/2021 11:30:00 PM 9.81 49.658 0.511 8.01 5.04 10.28
12/30/2021 11:45:00 PM 9.81 49.658 0.511 8.01 4.97 10.28
12/31/2021 12:00:00 AM 9.8 49.64 0.512 8.01 4.98 10.27
12/31/2021 12:15:00 AM 9.79 49.622 0.512 8 4.96 10.27
12/31/2021 12:30:00 AM 9.78 49.604 0.513 8 5.1 10.27
12/31/2021 12:45:00 AM 9.78 49.604 0.513 7.99 5.05 10.27
12/31/2021 1:00:00 AM 9.77 49.586 0.513 7.99 5.05 10.28
12/31/2021 1:15:00 AM 9.76 49.568 0.513 7.99 5.3 10.27
12/31/2021 1:30:00 AM 9.76 49.568 0.513 7.98 5.05 10.28
12/31/2021 1:45:00 AM 9.75 49.55 0.513 7.99 5.02 10.27
12/31/2021 2:00:00 AM 9.75 49.55 0.514 7.99 4.96 10.27
12/31/2021 2:15:00 AM 9.74 49.532 0.514 7.99 5.13 10.28
12/31/2021 2:30:00 AM 9.74 49.532 0.514 7.99 5.17 10.28
12/31/2021 2:45:00 AM 9.73 49.514 0.514 7.98 5.05 10.29
12/31/2021 3:00:00 AM 9.73 49.514 0.514 7.99 4.99 10.29
12/31/2021 3:15:00 AM 9.72 49.496 0.514 7.98 5.14 10.29
12/31/2021 3:30:00 AM 9.72 49.496 0.514 7.98 5.13 10.29
12/31/2021 3:45:00 AM 9.72 49.496 0.514 7.98 5.12 10.3
12/31/2021 4:00:00 AM 9.71 49.478 0.515 7.98 5.12 10.29
12/31/2021 4:15:00 AM 9.71 49.478 0.515 7.98 5.08 10.3
12/31/2021 4:30:00 AM 9.7 49.46 0.515 7.98 5.1 10.3
12/31/2021 4:45:00 AM 9.7 49.46 0.515 7.98 5 10.3
12/31/2021 5:00:00 AM 9.69 49.442 0.515 7.99 5.1 10.31
12/31/2021 5:15:00 AM 9.69 49.442 0.515 7.99 4.9 10.32
12/31/2021 5:30:00 AM 9.68 49.424 0.515 7.99 4.99 10.32
12/31/2021 5:45:00 AM 9.68 49.424 0.515 7.99 5.16 10.32
12/31/2021 6:00:00 AM 9.68 49.424 0.515 7.98 5.08 10.32
12/31/2021 6:15:00 AM 9.67 49.406 0.515 7.98 5.02 10.33
12/31/2021 6:30:00 AM 9.67 49.406 0.515 7.98 4.91 10.32
12/31/2021 6:45:00 AM 9.66 49.388 0.515 7.99 4.92 10.33
12/31/2021 7:00:00 AM 9.66 49.388 0.515 7.98 5.05 10.33
12/31/2021 7:15:00 AM 9.65 49.37 0.515 7.98 5.16 10.34
12/31/2021 7:30:00 AM 9.64 49.352 0.516 7.98 5.05 10.34
12/31/2021 7:45:00 AM 9.64 49.352 0.516 7.99 5 10.36
12/31/2021 8:00:00 AM 9.63 49.334 0.515 7.99 5.08 10.38
12/31/2021 8:15:00 AM 9.63 49.334 0.516 8 5.02 10.43
12/31/2021 8:30:00 AM 9.64 49.352 0.515 8.01 5 10.55
12/31/2021 8:45:00 AM 9.64 49.352 0.516 8.01 4.9 10.64
12/31/2021 9:00:00 AM 9.64 49.352 0.515 8.02 5 10.7
12/31/2021 9:15:00 AM 9.64 49.352 0.515 8.03 5.01 10.76
12/31/2021 9:30:00 AM 9.65 49.37 0.515 8.05 5 10.86
12/31/2021 9:45:00 AM 9.66 49.388 0.515 8.06 5.04 10.96
12/31/2021 10:00:00 AM 9.68 49.424 0.515 8.07 4.97 11.09
12/31/2021 10:15:00 AM 9.7 49.46 0.515 8.09 5.03 11.24
12/31/2021 10:30:00 AM 9.73 49.514 0.515 8.1 4.97 11.37
12/31/2021 10:45:00 AM 9.75 49.55 0.514 8.13 5.14 11.46
12/31/2021 11:00:00 AM 9.77 49.586 0.514 8.14 5.02 11.54
12/31/2021 11:15:00 AM 9.8 49.64 0.514 8.15 5.16 11.64
12/31/2021 11:30:00 AM 9.84 49.712 0.513 8.17 4.89 11.8
12/31/2021 11:45:00 AM 9.88 49.784 0.513 8.2 5.02 11.96
12/31/2021 12:00:00 PM 9.91 49.838 0.513 8.21 5.02 12.03
12/31/2021 12:15:00 PM 9.92 49.856 0.513 8.22 5.22 12.03
12/31/2021 12:30:00 PM 9.94 49.892 0.512 8.22 4.97 11.99
12/31/2021 12:45:00 PM 9.96 49.928 0.512 8.23 5.03 11.98
12/31/2021 1:00:00 PM 9.98 49.964 0.512 8.23 5.01 11.97
12/31/2021 1:15:00 PM 10 50 0.512 8.24 5.23 11.96
12/31/2021 1:30:00 PM 10.03 50.054 0.512 8.24 5.06 12.01
12/31/2021 1:45:00 PM 10.05 50.09 0.512 8.26 5 11.97
12/31/2021 2:00:00 PM 10.06 50.108 0.512 8.25 5.1 11.94
12/31/2021 2:15:00 PM 10.08 50.144 0.512 8.26 4.89 11.89
12/31/2021 2:30:00 PM 10.08 50.144 0.512 8.25 5.06 11.8
12/31/2021 2:45:00 PM 10.09 50.162 0.512 8.24 4.92 11.71
12/31/2021 3:00:00 PM 10.11 50.198 0.512 8.24 5.02 11.7
12/31/2021 3:15:00 PM 10.13 50.234 0.512 8.24 5.02 11.73
12/31/2021 3:30:00 PM 10.15 50.27 0.511 8.25 4.99 11.71
12/31/2021 3:45:00 PM 10.17 50.306 0.511 8.24 4.92 11.7
12/31/2021 4:00:00 PM 10.18 50.324 0.511 8.25 5.18 11.64
12/31/2021 4:15:00 PM 10.18 50.324 0.512 8.24 5.25 11.54
12/31/2021 4:30:00 PM 10.18 50.324 0.512 8.23 5.22 11.4
12/31/2021 4:45:00 PM 10.17 50.306 0.512 8.21 5.18 11.24
12/31/2021 5:00:00 PM 10.16 50.288 0.512 8.19 4.97 11.08
12/31/2021 5:15:00 PM 10.16 50.288 0.512 8.18 5.04 10.94
12/31/2021 5:30:00 PM 10.15 50.27 0.512 8.17 5.16 10.83
12/31/2021 5:45:00 PM 10.14 50.252 0.513 8.15 5.17 10.74
12/31/2021 6:00:00 PM 10.14 50.252 0.512 8.14 5.05 10.67
12/31/2021 6:15:00 PM 10.14 50.252 0.513 8.13 5.06 10.61
12/31/2021 6:30:00 PM 10.14 50.252 0.513 8.12 5.12 10.55
12/31/2021 6:45:00 PM 10.13 50.234 0.513 8.11 5.17 10.5
12/31/2021 7:00:00 PM 10.13 50.234 0.513 8.11 4.99 10.47
12/31/2021 7:15:00 PM 10.13 50.234 0.513 8.1 5.13 10.44
12/31/2021 7:30:00 PM 10.13 50.234 0.512 8.1 5.04 10.41
12/31/2021 7:45:00 PM 10.13 50.234 0.513 8.09 5.03 10.39
12/31/2021 8:00:00 PM 10.13 50.234 0.513 8.08 5.07 10.37
12/31/2021 8:15:00 PM 10.14 50.252 0.513 8.09 5.16 10.35
12/31/2021 8:30:00 PM 10.14 50.252 0.513 8.08 5.13 10.34
12/31/2021 8:45:00 PM 10.14 50.252 0.513 8.07 5.06 10.33
12/31/2021 9:00:00 PM 10.14 50.252 0.513 8.08 5.06 10.31
12/31/2021 9:15:00 PM 10.14 50.252 0.514 8.07 5.03 10.31
12/31/2021 9:30:00 PM 10.14 50.252 0.514 8.07 5.06 10.29
12/31/2021 9:45:00 PM 10.14 50.252 0.514 8.07 5.1 10.29
12/31/2021 10:00:00 PM 10.13 50.234 0.514 8.05 4.98 10.28
12/31/2021 10:15:00 PM 10.13 50.234 0.514 8.06 5.09 10.27
12/31/2021 10:30:00 PM 10.13 50.234 0.515 8.05 5.12 10.26
12/31/2021 10:45:00 PM 10.13 50.234 0.515 8.05 5.13 10.26
12/31/2021 11:00:00 PM 10.13 50.234 0.516 8.05 5.01 10.26
12/31/2021 11:15:00 PM 10.12 50.216 0.516 8.04 5.12 10.25
12/31/2021 11:30:00 PM 10.12 50.216 0.516 8.04 5.1 10.24
12/31/2021 11:45:00 PM 10.11 50.198 0.517 8.04 5.2 10.24
1/1/2022 12:00:00 AM 10.11 50.198 0.517 8.04 5.09 10.24
1/1/2022 12:15:00 AM 10.1 50.18 0.517 8.04 5.1 10.23
1/1/2022 12:30:00 AM 10.09 50.162 0.517 8.03 5.09 10.23
1/1/2022 12:45:00 AM 10.09 50.162 0.517 8.03 5.22 10.23
1/1/2022 1:00:00 AM 10.08 50.144 0.517 8.02 5.17 10.22
1/1/2022 1:15:00 AM 10.07 50.126 0.518 8.02 5.2 10.22
1/1/2022 1:30:00 AM 10.07 50.126 0.517 8.01 5.36 10.21
1/1/2022 1:45:00 AM 10.06 50.108 0.518 8.01 5.2 10.22
1/1/2022 2:00:00 AM 10.06 50.108 0.518 8 5.19 10.21
1/1/2022 2:15:00 AM 10.05 50.09 0.518 8.01 5.17 10.22
1/1/2022 2:30:00 AM 10.05 50.09 0.518 8.01 5.25 10.22
1/1/2022 2:45:00 AM 10.04 50.072 0.518 8 5.14 10.22
1/1/2022 3:00:00 AM 10.04 50.072 0.518 8 5.27 10.22
1/1/2022 3:15:00 AM 10.03 50.054 0.518 8 5.19 10.22
1/1/2022 3:30:00 AM 10.03 50.054 0.518 8.01 5.49 10.22
1/1/2022 3:45:00 AM 10.02 50.036 0.517 8.01 5.32 10.22
1/1/2022 4:00:00 AM 10.02 50.036 0.517 8 5.18 10.22
1/1/2022 4:15:00 AM 10.01 50.018 0.517 7.99 5.24 10.22
1/1/2022 4:30:00 AM 10.01 50.018 0.517 8 5.24 10.23
1/1/2022 4:45:00 AM 10.01 50.018 0.517 8 5.37 10.22
1/1/2022 5:00:00 AM 10 50 0.517 8 5.31 10.22
1/1/2022 5:15:00 AM 10 50 0.517 7.99 5.26 10.22
1/1/2022 5:30:00 AM 10 50 0.517 7.99 5.33 10.22
1/1/2022 5:45:00 AM 10 50 0.517 8 5.38 10.22
1/1/2022 6:00:00 AM 10 50 0.517 7.99 5.28 10.21
1/1/2022 6:15:00 AM 10 50 0.517 7.99 5.62 10.22
1/1/2022 6:30:00 AM 9.99 49.982 0.517 7.98 5.47 10.13
1/1/2022 6:45:00 AM 9.99 49.982 0.517 7.98 5.53 10.15
1/1/2022 7:00:00 AM 9.99 49.982 0.517 7.99 5.24 10.2
1/1/2022 7:15:00 AM 9.99 49.982 0.517 7.99 5.47 10.21
1/1/2022 7:30:00 AM 9.99 49.982 0.517 7.98 5.35 10.22
1/1/2022 7:45:00 AM 9.99 49.982 0.517 7.99 5.22 10.22
1/1/2022 8:00:00 AM 10 50 0.517 7.99 5.3 10.23
1/1/2022 8:15:00 AM 10 50 0.517 7.99 5.33 10.24
1/1/2022 8:30:00 AM 10.01 50.018 0.517 8 5.18 10.26
1/1/2022 8:45:00 AM 10.01 50.018 0.517 8 5.45 10.3
1/1/2022 9:00:00 AM 10.03 50.054 0.516 8 5.39 10.36
1/1/2022 9:15:00 AM 10.04 50.072 0.516 8.01 5.17 10.43
1/1/2022 9:30:00 AM 10.06 50.108 0.516 8.02 5.27 10.5
1/1/2022 9:45:00 AM 10.07 50.126 0.516 8.03 5.2 10.56
1/1/2022 10:00:00 AM 10.09 50.162 0.515 8.03 5.23 10.62
1/1/2022 10:15:00 AM 10.12 50.216 0.515 8.04 5.16 10.74
1/1/2022 10:30:00 AM 10.14 50.252 0.515 8.05 5.26 10.83
1/1/2022 10:45:00 AM 10.17 50.306 0.514 8.06 5.15 10.89
1/1/2022 11:00:00 AM 10.19 50.342 0.514 8.07 5.09 10.95
1/1/2022 11:15:00 AM 10.23 50.414 0.513 8.09 5.43 11.08
1/1/2022 11:30:00 AM 10.25 50.45 0.512 8.1 5.24 11.15
1/1/2022 11:45:00 AM 10.28 50.504 0.512 8.11 5.18 11.19
1/1/2022 12:00:00 PM 10.31 50.558 0.511 8.12 5.24 11.28
1/1/2022 12:15:00 PM 10.34 50.612 0.51 8.12 5.34 11.34
1/1/2022 12:30:00 PM 10.38 50.684 0.509 8.15 5.42 11.46
1/1/2022 12:45:00 PM 10.41 50.738 0.508 8.16 5.32 11.52
1/1/2022 1:00:00 PM 10.44 50.792 0.508 8.16 5.37 11.52
1/1/2022 1:15:00 PM 10.48 50.864 0.507 8.18 5.49 11.53
1/1/2022 1:30:00 PM 10.5 50.9 0.507 8.18 5.29 11.52
1/1/2022 1:45:00 PM 10.55 50.99 0.506 8.19 5.32 11.61
1/1/2022 2:00:00 PM 10.58 51.044 0.506 8.2 5.34 11.63
1/1/2022 2:15:00 PM 10.61 51.098 0.506 8.2 5.31 11.61
1/1/2022 2:30:00 PM 10.63 51.134 0.506 8.2 5.49 11.57
1/1/2022 2:45:00 PM 10.64 51.152 0.506 8.19 5.36 11.5
1/1/2022 3:00:00 PM 10.66 51.188 0.506 8.19 5.48 11.42
1/1/2022 3:15:00 PM 10.67 51.206 0.506 8.18 5.58 11.3
1/1/2022 3:30:00 PM 10.68 51.224 0.507 8.17 5.62 11.17
1/1/2022 3:45:00 PM 10.69 51.242 0.506 8.16 5.52 11.06
1/1/2022 4:00:00 PM 10.71 51.278 0.506 8.15 5.58 10.97
1/1/2022 4:15:00 PM 10.71 51.278 0.506 8.14 5.69 10.84
1/1/2022 4:30:00 PM 10.72 51.296 0.506 8.12 5.61 10.72
1/1/2022 4:45:00 PM 10.72 51.296 0.505 8.11 5.68 10.6
1/1/2022 5:00:00 PM 10.72 51.296 0.503 8.09 5.73 10.51
1/1/2022 5:15:00 PM 10.73 51.314 0.501 8.08 5.98 10.43
1/1/2022 5:30:00 PM 10.73 51.314 0.499 8.06 6.54 10.35
1/1/2022 5:45:00 PM 10.74 51.332 0.497 8.05 6.93 10.29
1/1/2022 6:00:00 PM 10.74 51.332 0.496 8.04 6.97 10.24
1/1/2022 6:15:00 PM 10.75 51.35 0.495 8.03 7.09 10.21
1/1/2022 6:30:00 PM 10.75 51.35 0.494 8.03 7.29 10.17
1/1/2022 6:45:00 PM 10.76 51.368 0.494 8.02 7.3 10.13
1/1/2022 7:00:00 PM 10.77 51.386 0.489 8.02 7.36 10.13
1/1/2022 7:15:00 PM 10.77 51.386 0.487 7.99 8.41 10.1
1/1/2022 7:30:00 PM 10.77 51.386 0.484 7.99 9.58 10.08
1/1/2022 7:45:00 PM 10.78 51.404 0.479 8 9.72 10.08
1/1/2022 8:00:00 PM 10.79 51.422 0.473 7.99 15.03 10.06
1/1/2022 8:15:00 PM 10.79 51.422 0.469 7.98 16.23 10.06
1/1/2022 8:30:00 PM 10.79 51.422 0.464 7.98 17.8 10.04
1/1/2022 8:45:00 PM 10.79 51.422 0.461 7.96 19.05 10.01
1/1/2022 9:00:00 PM 10.78 51.404 0.459 7.94 19.09 9.99
1/1/2022 9:15:00 PM 10.76 51.368 0.457 7.93 22.08 9.96
1/1/2022 9:30:00 PM 10.74 51.332 0.454 7.91 22.15 9.93
1/1/2022 9:45:00 PM 10.72 51.296 0.452 7.89 24.3 9.92
1/1/2022 10:00:00 PM 10.7 51.26 0.45 7.89 28.74 9.9
1/1/2022 10:15:00 PM 10.68 51.224 0.448 7.88 31.68 9.88
1/1/2022 10:30:00 PM 10.65 51.17 0.446 7.86 42.41 9.86
1/1/2022 10:45:00 PM 10.63 51.134 0.445 7.84 45.57 9.85
1/1/2022 11:00:00 PM 10.6 51.08 0.446 7.82 45.42 9.82
1/1/2022 11:15:00 PM 10.58 51.044 0.447 7.82 43.71 9.8
1/1/2022 11:30:00 PM 10.57 51.026 0.446 7.82 43.02 9.77
1/1/2022 11:45:00 PM 10.54 50.972 0.443 7.81 44.81 9.73
1/2/2022 12:00:00 AM 10.51 50.918 0.433 7.79 57.8 9.7
1/2/2022 12:15:00 AM 10.47 50.846 0.422 7.78 59.28 9.67
1/2/2022 12:30:00 AM 10.43 50.774 0.412 7.77 73.27 9.67
1/2/2022 12:45:00 AM 10.4 50.72 0.408 7.76 61.71 9.67
1/2/2022 1:00:00 AM 10.37 50.666 0.41 7.75 61.3 9.62
1/2/2022 1:15:00 AM 10.35 50.63 0.414 7.74 56.83 9.57
1/2/2022 1:30:00 AM 10.34 50.612 0.418 7.73 51.8 9.52
1/2/2022 1:45:00 AM 10.33 50.594 0.421 7.73 49.07 9.51
1/2/2022 2:00:00 AM 10.32 50.576 0.421 7.72 42.66 9.55
1/2/2022 2:15:00 AM 10.31 50.558 0.416 7.73 40.47 9.59
1/2/2022 2:30:00 AM 10.3 50.54 0.409 7.73 39.39 9.64
1/2/2022 2:45:00 AM 10.28 50.504 0.4 7.73 38.63 9.68
1/2/2022 3:00:00 AM 10.26 50.468 0.39 7.72 38.44 9.71
1/2/2022 3:15:00 AM 10.24 50.432 0.383 7.72 38.19 9.73
1/2/2022 3:30:00 AM 10.22 50.396 0.376 7.72 37.05 9.75
1/2/2022 3:45:00 AM 10.2 50.36 0.371 7.71 35.38 9.76
1/2/2022 4:00:00 AM 10.19 50.342 0.367 7.71 34.18 9.77
1/2/2022 4:15:00 AM 10.18 50.324 0.363 7.71 33.07 9.78
1/2/2022 4:30:00 AM 10.18 50.324 0.359 7.71 32.1 9.78
1/2/2022 4:45:00 AM 10.17 50.306 0.355 7.7 31.29 9.78
1/2/2022 5:00:00 AM 10.17 50.306 0.351 7.69 30.29 9.78
1/2/2022 5:15:00 AM 10.16 50.288 0.348 7.69 29.07 9.79
1/2/2022 5:30:00 AM 10.16 50.288 0.346 7.69 28.83 9.79
1/2/2022 5:45:00 AM 10.15 50.27 0.344 7.7 27.86 9.8
1/2/2022 6:00:00 AM 10.15 50.27 0.343 7.69 27.01 9.81
1/2/2022 6:15:00 AM 10.14 50.252 0.343 7.69 26.65 9.81
1/2/2022 6:30:00 AM 10.14 50.252 0.343 7.68 26.95 9.79
1/2/2022 6:45:00 AM 10.13 50.234 0.344 7.68 26.47 9.78
1/2/2022 7:00:00 AM 10.13 50.234 0.345 7.69 26.16 9.81
1/2/2022 7:15:00 AM 10.12 50.216 0.347 7.69 25.21 9.82
1/2/2022 7:30:00 AM 10.11 50.198 0.35 7.69 24.07 9.82
1/2/2022 7:45:00 AM 10.11 50.198 0.353 7.68 24.09 9.82
1/2/2022 8:00:00 AM 10.11 50.198 0.356 7.69 23.04 9.82
1/2/2022 8:15:00 AM 10.11 50.198 0.358 7.7 22.68 9.84
1/2/2022 8:30:00 AM 10.12 50.216 0.361 7.7 23.35 9.85
1/2/2022 8:45:00 AM 10.12 50.216 0.364 7.71 22.19 9.87
1/2/2022 9:00:00 AM 10.13 50.234 0.368 7.71 22.51 9.94
1/2/2022 9:15:00 AM 10.15 50.27 0.371 7.72 21.87 10.02
1/2/2022 9:30:00 AM 10.18 50.324 0.374 7.74 22.25 10.14
1/2/2022 9:45:00 AM 10.21 50.378 0.377 7.74 21.61 10.23
1/2/2022 10:00:00 AM 10.25 50.45 0.38 7.76 20.82 10.28
1/2/2022 10:15:00 AM 10.31 50.558 0.383 7.78 20.23 10.4
1/2/2022 10:30:00 AM 10.38 50.684 0.386 7.8 19.74 10.56
1/2/2022 10:45:00 AM 10.43 50.774 0.389 7.83 19.29 10.7
1/2/2022 11:00:00 AM 10.48 50.864 0.392 7.84 18.85 10.8
1/2/2022 11:15:00 AM 10.53 50.954 0.395 7.85 18.12 10.87
1/2/2022 11:30:00 AM 10.59 51.062 0.397 7.87 17.55 10.95
1/2/2022 11:45:00 AM 10.64 51.152 0.401 7.89 17.29 10.97
1/2/2022 12:00:00 PM 10.71 51.278 0.404 7.91 17.04 11.09
1/2/2022 12:15:00 PM 10.79 51.422 0.406 7.92 15.99 11.21
1/2/2022 12:30:00 PM 10.85 51.53 0.409 7.95 15.86 11.28
1/2/2022 12:45:00 PM 10.93 51.674 0.413 7.97 15.04 11.37
1/2/2022 1:00:00 PM 10.99 51.782 0.416 7.99 14.69 11.45
1/2/2022 1:15:00 PM 11.04 51.872 0.418 8.01 14.54 11.49
1/2/2022 1:30:00 PM 11.1 51.98 0.42 8.02 14.41 11.55
1/2/2022 1:45:00 PM 11.16 52.088 0.422 8.04 14.17 11.6
1/2/2022 2:00:00 PM 11.23 52.214 0.424 8.05 13.79 11.62
1/2/2022 2:15:00 PM 11.26 52.268 0.426 8.05 13.55 11.53
1/2/2022 2:30:00 PM 11.28 52.304 0.429 8.05 13.52 11.39
1/2/2022 2:45:00 PM 11.31 52.358 0.43 8.05 12.99 11.33
1/2/2022 3:00:00 PM 11.33 52.394 0.432 8.05 12.65 11.25
1/2/2022 3:15:00 PM 11.35 52.43 0.434 8.04 13 11.15
1/2/2022 3:30:00 PM 11.35 52.43 0.436 8.04 12.49 11.04
1/2/2022 3:45:00 PM 11.35 52.43 0.437 8.03 11.9 10.91
1/2/2022 4:00:00 PM 11.34 52.412 0.439 8.01 12.14 10.8
1/2/2022 4:15:00 PM 11.34 52.412 0.44 8.01 12 10.7
1/2/2022 4:30:00 PM 11.33 52.394 0.441 8.01 11.72 10.61
1/2/2022 4:45:00 PM 11.31 52.358 0.442 7.99 11.54 10.5
1/2/2022 5:00:00 PM 11.27 52.286 0.443 7.99 11.49 10.41
1/2/2022 5:15:00 PM 11.25 52.25 0.445 7.98 11.63 10.34
1/2/2022 5:30:00 PM 11.21 52.178 0.446 7.98 11.34 10.27
1/2/2022 5:45:00 PM 11.15 52.07 0.447 7.97 11.32 10.22
1/2/2022 6:00:00 PM 11.08 51.944 0.448 7.97 11.33 10.18
1/2/2022 6:15:00 PM 11.03 51.854 0.449 7.96 11.1 10.16
1/2/2022 6:30:00 PM 10.96 51.728 0.45 7.97 11.17 10.13
1/2/2022 6:45:00 PM 10.89 51.602 0.451 7.96 10.88 10.12
1/2/2022 7:00:00 PM 10.82 51.476 0.452 7.96 10.94 10.11
1/2/2022 7:15:00 PM 10.78 51.404 0.453 7.95 10.84 10.09
1/2/2022 7:30:00 PM 10.71 51.278 0.454 7.95 10.43 10.08
1/2/2022 7:45:00 PM 10.63 51.134 0.455 7.95 10.3 10.07
1/2/2022 8:00:00 PM 10.54 50.972 0.457 7.95 10.34 10.07
1/2/2022 8:15:00 PM 10.47 50.846 0.458 7.95 10.03 10.08
1/2/2022 8:30:00 PM 10.38 50.684 0.459 7.94 10.06 10.09
1/2/2022 8:45:00 PM 10.29 50.522 0.46 7.94 9.85 10.1
1/2/2022 9:00:00 PM 10.19 50.342 0.461 7.94 10.04 10.12
1/2/2022 9:15:00 PM 10.1 50.18 0.463 7.93 9.5 10.13
1/2/2022 9:30:00 PM 10.01 50.018 0.464 7.94 9.55 10.15
1/2/2022 9:45:00 PM 9.9 49.82 0.465 7.93 9.77 10.17
1/2/2022 10:00:00 PM 9.82 49.676 0.467 7.93 9.32 10.18
1/2/2022 10:15:00 PM 9.74 49.532 0.468 7.93 9.5 10.2
1/2/2022 10:30:00 PM 9.66 49.388 0.469 7.92 9.5 10.22
1/2/2022 10:45:00 PM 9.57 49.226 0.47 7.92 9.08 10.25
1/2/2022 11:00:00 PM 9.48 49.064 0.471 7.92 9.14 10.26
1/2/2022 11:15:00 PM 9.39 48.902 0.472 7.92 9.11 10.29
1/2/2022 11:30:00 PM 9.28 48.704 0.473 7.91 9.26 10.31
1/2/2022 11:45:00 PM 9.19 48.542 0.474 7.91 8.98 10.34
1/3/2022 12:00:00 AM 9.08 48.344 0.475 7.9 8.93 10.38
1/3/2022 12:15:00 AM 8.98 48.164 0.476 7.91 8.9 10.42
1/3/2022 12:30:00 AM 8.88 47.984 0.477 7.91 8.88 10.45
1/3/2022 12:45:00 AM 8.78 47.804 0.478 7.91 8.77 10.48
1/3/2022 1:00:00 AM 8.69 47.642 0.478 7.91 8.82 10.52
1/3/2022 1:15:00 AM 8.61 47.498 0.479 7.91 8.76 10.55
1/3/2022 1:30:00 AM 8.51 47.318 0.48 7.91 9.03 10.59
1/3/2022 1:45:00 AM 8.42 47.156 0.481 7.91 8.68 10.62
1/3/2022 2:00:00 AM 8.33 46.994 0.481 7.91 8.54 10.66
1/3/2022 2:15:00 AM 8.24 46.832 0.482 7.91 8.71 10.7
1/3/2022 2:30:00 AM 8.15 46.67 0.483 7.91 8.62 10.72
1/3/2022 2:45:00 AM 8.07 46.526 0.483 7.9 8.72 10.76
1/3/2022 3:00:00 AM 7.98 46.364 0.484 7.9 8.65 10.79
1/3/2022 3:15:00 AM 7.89 46.202 0.484 7.9 8.4 10.83
1/3/2022 3:30:00 AM 7.79 46.022 0.485 7.9 8.54 10.86
1/3/2022 3:45:00 AM 7.71 45.878 0.485 7.9 8.52 10.89
1/3/2022 4:00:00 AM 7.63 45.734 0.486 7.89 8.6 10.92
1/3/2022 4:15:00 AM 7.55 45.59 0.486 7.9 8.45 10.96
1/3/2022 4:30:00 AM 7.49 45.482 0.487 7.9 8.42 10.98
1/3/2022 4:45:00 AM 7.44 45.392 0.487 7.91 8.28 11.01
1/3/2022 5:00:00 AM 7.37 45.266 0.488 7.9 8.41 11.04
1/3/2022 5:15:00 AM 7.31 45.158 0.489 7.9 8.36 11.06
1/3/2022 5:30:00 AM 7.23 45.014 0.489 7.9 8.28 11.09
1/3/2022 5:45:00 AM 7.17 44.906 0.49 7.9 8.28 11.11
1/3/2022 6:00:00 AM 7.1 44.78 0.49 7.89 8.19 11.13
1/3/2022 6:15:00 AM 7.04 44.672 0.491 7.91 8.03 11.16
1/3/2022 6:30:00 AM 6.96 44.528 0.491 7.89 8.08 11.18
1/3/2022 6:45:00 AM 6.89 44.402 0.492 7.91 8.11 11.2
1/3/2022 7:00:00 AM 6.81 44.258 0.492 7.91 8.09 11.23
1/3/2022 7:15:00 AM 6.75 44.15 0.493 7.9 8 11.25
1/3/2022 7:30:00 AM 6.68 44.024 0.494 7.91 8.01 11.27
1/3/2022 7:45:00 AM 6.63 43.934 0.494 7.91 7.99 11.3
1/3/2022 8:00:00 AM 6.55 43.79 0.495 7.91 8.02 11.33
1/3/2022 8:15:00 AM 6.49 43.682 0.495 7.91 7.87 11.38
1/3/2022 8:30:00 AM 6.44 43.592 0.495 7.92 7.69 11.41
1/3/2022 8:45:00 AM 6.38 43.484 0.496 7.92 7.66 11.46
1/3/2022 9:00:00 AM 6.32 43.376 0.496 7.92 7.63 11.51
1/3/2022 9:15:00 AM 6.27 43.286 0.497 7.92 7.72 11.58
1/3/2022 9:30:00 AM 6.2 43.16 0.497 7.94 7.77 11.66
1/3/2022 9:45:00 AM 6.16 43.088 0.497 7.95 7.82 11.73
1/3/2022 10:00:00 AM 6.1 42.98 0.497 7.95 7.73 11.81
1/3/2022 10:15:00 AM 6.04 42.872 0.498 7.96 7.59 11.89
1/3/2022 10:30:00 AM 5.99 42.782 0.498 7.97 7.54 11.98
1/3/2022 10:45:00 AM 5.92 42.656 0.498 7.99 7.46 12.07
1/3/2022 11:00:00 AM 5.9 42.62 0.499 7.99 7.46 12.16
1/3/2022 11:15:00 AM 5.86 42.548 0.499 8.01 7.37 12.26
1/3/2022 11:30:00 AM 5.8 42.44 0.499 8.01 7.41 12.34
1/3/2022 11:45:00 AM 5.73 42.314 0.499 8.03 7.49 12.43
1/3/2022 12:00:00 PM 5.68 42.224 0.499 8.03 7.41 12.48
1/3/2022 12:15:00 PM 5.64 42.152 0.5 8.05 7.3 12.54
1/3/2022 12:30:00 PM 5.61 42.098 0.5 8.05 7.27 12.56
1/3/2022 12:45:00 PM 5.58 42.044 0.5 8.07 7.23 12.63
1/3/2022 1:00:00 PM 5.53 41.954 0.5 8.07 7.27 12.66
1/3/2022 1:15:00 PM 5.49 41.882 0.5 8.07 7.74 12.69
1/3/2022 1:30:00 PM 5.47 41.846 0.501 8.1 7.26 12.8
1/3/2022 1:45:00 PM 5.46 41.828 0.5 8.1 7.54 12.94
1/3/2022 2:00:00 PM 5.41 41.738 0.501 8.13 7.34 13.05
1/3/2022 2:15:00 PM 5.37 41.666 0.501 8.14 7.37 13.1
1/3/2022 2:30:00 PM 5.33 41.594 0.501 8.14 7.28 13.12
1/3/2022 2:45:00 PM 5.31 41.558 0.501 8.15 7.27 13.19
1/3/2022 3:00:00 PM 5.31 41.558 0.501 8.17 7.2 13.26
1/3/2022 3:15:00 PM 5.29 41.522 0.501 8.18 7.2 13.3
1/3/2022 3:30:00 PM 5.28 41.504 0.501 8.17 7.29 13.29
1/3/2022 3:45:00 PM 5.22 41.396 0.501 8.18 7.57 13.22
1/3/2022 4:00:00 PM 5.17 41.306 0.502 8.17 7.37 13.16
1/3/2022 4:15:00 PM 5.14 41.252 0.502 8.17 7.41 13.11
1/3/2022 4:30:00 PM 5.1 41.18 0.502 8.18 7.6 13.08
1/3/2022 4:45:00 PM 5.03 41.054 0.502 8.16 7.44 12.99
1/3/2022 5:00:00 PM 4.94 40.892 0.503 8.15 7.34 12.88
1/3/2022 5:15:00 PM 4.86 40.748 0.503 8.14 7.28 12.77
1/3/2022 5:30:00 PM 4.8 40.64 0.503 8.12 7.26 12.69
1/3/2022 5:45:00 PM 4.75 40.55 0.504 8.12 7.46 12.63
1/3/2022 6:00:00 PM 4.69 40.442 0.504 8.11 7.26 12.57
1/3/2022 6:15:00 PM 4.64 40.352 0.504 8.1 7.2 12.54
1/3/2022 6:30:00 PM 4.58 40.244 0.504 8.1 7.37 12.51
1/3/2022 6:45:00 PM 4.52 40.136 0.505 8.08 7.19 12.49
1/3/2022 7:00:00 PM 4.46 40.028 0.505 8.08 7.4 12.46
1/3/2022 7:15:00 PM 4.4 39.92 0.505 8.07 7.34 12.45
1/3/2022 7:30:00 PM 4.34 39.812 0.506 8.07 7.34 12.45
1/3/2022 7:45:00 PM 4.29 39.722 0.506 8.07 7.22 12.45
1/3/2022 8:00:00 PM 4.23 39.614 0.506 8.06 7.24 12.45
1/3/2022 8:15:00 PM 4.18 39.524 0.506 8.05 7.14 12.46
1/3/2022 8:30:00 PM 4.13 39.434 0.506 8.06 7.2 12.47
1/3/2022 8:45:00 PM 4.08 39.344 0.507 8.06 7.25 12.47
1/3/2022 9:00:00 PM 4.04 39.272 0.507 8.06 7.16 12.49
1/3/2022 9:15:00 PM 4 39.2 0.507 8.05 7.07 12.5
1/3/2022 9:30:00 PM 3.96 39.128 0.507 8.05 7.19 12.51
1/3/2022 9:45:00 PM 3.93 39.074 0.507 8.05 7.79 12.51
1/3/2022 10:00:00 PM 3.89 39.002 0.508 8.05 7.67 12.52
1/3/2022 10:15:00 PM 3.84 38.912 0.508 8.05 7.31 12.53
1/3/2022 10:30:00 PM 3.79 38.822 0.508 8.05 7.11 12.55
1/3/2022 10:45:00 PM 3.75 38.75 0.509 8.04 7.21 12.56
1/3/2022 11:00:00 PM 3.69 38.642 0.509 8.04 7.18 12.57
1/3/2022 11:15:00 PM 3.64 38.552 0.51 8.04 7.3 12.59
1/3/2022 11:30:00 PM 3.57 38.426 0.509 8.03 7.18 12.61
1/3/2022 11:45:00 PM 3.5 38.3 0.509 8.03 7.53 12.62
1/4/2022 12:00:00 AM 3.44 38.192 0.51 8.04 7.2 12.64
1/4/2022 12:15:00 AM 3.4 38.12 0.51 8.03 7.1 12.65
1/4/2022 12:30:00 AM 3.36 38.048 0.511 8.03 7.15 12.66
1/4/2022 12:45:00 AM 3.31 37.958 0.511 8.02 7.22 12.68
1/4/2022 1:00:00 AM 3.26 37.868 0.511 8.02 7.35 12.7
1/4/2022 1:15:00 AM 3.19 37.742 0.512 8.01 7.15 12.71
1/4/2022 1:30:00 AM 3.15 37.67 0.512 8.01 7.15 12.73
1/4/2022 1:45:00 AM 3.12 37.616 0.512 8.02 7.36 12.75
1/4/2022 2:00:00 AM 3.08 37.544 0.512 8.02 7.18 12.77
1/4/2022 2:15:00 AM 3.04 37.472 0.512 8.01 7.09 12.79
1/4/2022 2:30:00 AM 3 37.4 0.512 8.01 7.13 12.81
1/4/2022 2:45:00 AM 2.98 37.364 0.513 8.01 7.02 12.82
1/4/2022 3:00:00 AM 2.94 37.292 0.513 8 7.04 12.85
1/4/2022 3:15:00 AM 2.9 37.22 0.513 8.01 7.1 12.86
1/4/2022 3:30:00 AM 2.86 37.148 0.513 8.01 7.12 12.87
1/4/2022 3:45:00 AM 2.82 37.076 0.513 8.01 7.28 12.9
1/4/2022 4:00:00 AM 2.78 37.004 0.513 8.01 7.61 12.91
1/4/2022 4:15:00 AM 2.74 36.932 0.514 8.01 7.33 12.93
1/4/2022 4:30:00 AM 2.71 36.878 0.514 8.01 7.15 12.95
1/4/2022 4:45:00 AM 2.66 36.788 0.514 7.99 7.26 12.96
1/4/2022 5:00:00 AM 2.62 36.716 0.514 8.01 7.14 12.98
1/4/2022 5:15:00 AM 2.58 36.644 0.514 8.01 7.21 13
1/4/2022 5:30:00 AM 2.53 36.554 0.514 8.01 7.04 13.03
1/4/2022 5:45:00 AM 2.49 36.482 0.514 8.01 7.1 13.05
1/4/2022 6:00:00 AM 2.45 36.41 0.514 8.01 7.09 13.06
1/4/2022 6:15:00 AM 2.41 36.338 0.515 8 7.19 13.08
1/4/2022 6:30:00 AM 2.37 36.266 0.515 8.01 7.18 13.09
1/4/2022 6:45:00 AM 2.34 36.212 0.515 8.01 7.18 13.1
1/4/2022 7:00:00 AM 2.31 36.158 0.515 8.02 7.36 13.12
1/4/2022 7:15:00 AM 2.28 36.104 0.515 8.01 7.24 13.13
1/4/2022 7:30:00 AM 2.26 36.068 0.515 8.02 7.28 13.14
1/4/2022 7:45:00 AM 2.24 36.032 0.516 8.02 7.3 13.17
1/4/2022 8:00:00 AM 2.22 35.996 0.516 8.02 7.42 13.23
1/4/2022 8:15:00 AM 2.21 35.978 0.516 8.02 7.19 13.29
1/4/2022 8:30:00 AM 2.2 35.96 0.516 8.04 7.32 13.36
1/4/2022 8:45:00 AM 2.2 35.96 0.516 8.05 7.66 13.42
1/4/2022 9:00:00 AM 2.21 35.978 0.516 8.05 7.42 13.49
1/4/2022 9:15:00 AM 2.23 36.014 0.516 8.07 7.4 13.55
1/4/2022 9:30:00 AM